Time,TemperatureF,DewpointF,PressureIn,WindDirection,WindDirectionDegrees,WindSpeedMPH,WindSpeedGustMPH,Humidity,HourlyPrecipIn,Conditions,Clouds,dailyrainin,SoftwareType,DateUTC
2013-04-21 00:00:00,61.9,15.2,25.37,SSE,158,6.0,6.0,16,0.00,,---,0.00,VWS V14.01,2013-04-21 05:00:00,
2013-04-21 00:01:00,61.9,15.2,25.37,SSE,158,6.5,6.7,16,0.00,,---,0.00,VWS V14.01,2013-04-21 05:01:00,
2013-04-21 00:02:00,62.8,15.9,25.37,SSE,158,6.9,7.2,16,0.00,,---,0.00,VWS V14.01,2013-04-21 05:02:00,
2013-04-21 00:03:00,63.1,16.2,25.37,SSE,158,6.7,7.4,16,0.00,,---,0.00,VWS V14.01,2013-04-21 05:03:00,
2013-04-21 00:04:00,63.5,16.5,25.37,SSE,158,6.3,6.9,16,0.00,,---,0.00,VWS V14.01,2013-04-21 05:04:00,
2013-04-21 00:05:00,63.5,16.5,25.37,South,180,4.0,6.3,16,0.00,,---,0.00,VWS V14.01,2013-04-21 05:05:00,
2013-04-21 00:07:00,63.1,16.2,25.37,South,180,2.2,4.0,16,0.00,,---,0.00,VWS V14.01,2013-04-21 05:07:00,
2013-04-21 00:08:00,61.9,15.2,25.37,South,180,3.4,3.4,16,0.00,,---,0.00,VWS V14.01,2013-04-21 05:08:00,
2013-04-21 00:09:00,61.3,14.8,25.37,South,180,4.3,4.5,16,0.00,,---,0.00,VWS V14.01,2013-04-21 05:09:00,
2013-04-21 00:11:00,61.3,14.8,25.37,SSE,158,7.2,7.2,16,0.00,,---,0.00,VWS V14.01,2013-04-21 05:11:00,
2013-04-21 00:12:00,62.4,15.7,25.37,SSE,158,6.5,7.2,16,0.00,,---,0.00,VWS V14.01,2013-04-21 05:12:00,
2013-04-21 00:13:00,63.0,16.1,25.37,South,180,5.8,6.9,16,0.00,,---,0.00,VWS V14.01,2013-04-21 05:13:00,
2013-04-21 00:14:00,63.1,16.2,25.37,SSE,158,5.6,6.5,16,0.00,,---,0.00,VWS V14.01,2013-04-21 05:14:00,
2013-04-21 00:15:00,63.0,16.1,25.37,South,180,6.0,6.0,16,0.00,,---,0.00,VWS V14.01,2013-04-21 05:15:00,
2013-04-21 00:16:00,62.6,15.8,25.37,South,180,4.9,6.0,16,0.00,,---,0.00,VWS V14.01,2013-04-21 05:16:00,
2013-04-21 00:17:00,62.2,15.5,25.37,SSE,158,5.4,6.5,16,0.00,,---,0.00,VWS V14.01,2013-04-21 05:17:00,
2013-04-21 00:18:00,61.9,15.2,25.37,SSE,158,4.0,5.4,16,0.00,,---,0.00,VWS V14.01,2013-04-21 05:18:00,
2013-04-21 00:19:00,61.9,15.2,25.37,SSE,158,6.5,6.5,16,0.00,,---,0.00,VWS V14.01,2013-04-21 05:19:00,
2013-04-21 00:20:00,61.7,15.1,25.37,South,180,6.0,7.8,16,0.00,,---,0.00,VWS V14.01,2013-04-21 05:20:00,
2013-04-21 00:21:00,61.7,15.1,25.37,South,180,4.9,6.5,16,0.00,,---,0.00,VWS V14.01,2013-04-21 05:21:00,
2013-04-21 00:22:00,60.6,15.6,25.37,South,180,3.4,3.4,17,0.00,,---,0.00,VWS V14.01,2013-04-21 05:22:00,
2013-04-21 00:23:00,60.6,15.6,25.37,South,180,4.0,4.0,17,0.00,,---,0.00,VWS V14.01,2013-04-21 05:23:00,
2013-04-21 00:24:00,60.3,15.3,25.37,South,180,4.9,4.9,17,0.00,,---,0.00,VWS V14.01,2013-04-21 05:24:00,
2013-04-21 00:25:00,60.1,15.1,25.37,South,180,2.7,4.9,17,0.00,,---,0.00,VWS V14.01,2013-04-21 05:25:00,
2013-04-21 00:26:00,60.1,15.1,25.37,South,180,5.4,5.4,17,0.00,,---,0.00,VWS V14.01,2013-04-21 05:26:00,
2013-04-21 00:27:00,60.4,15.4,25.37,SSE,158,5.8,5.8,17,0.00,,---,0.00,VWS V14.01,2013-04-21 05:27:00,
2013-04-21 00:28:00,60.8,14.4,25.37,SSW,202,2.7,5.8,16,0.00,,---,0.00,VWS V14.01,2013-04-21 05:28:00,
2013-04-21 00:29:00,60.3,15.3,25.37,South,180,3.1,5.6,17,0.00,,---,0.00,VWS V14.01,2013-04-21 05:29:00,
2013-04-21 00:30:00,60.1,15.1,25.37,South,180,4.3,4.3,17,0.00,,---,0.00,VWS V14.01,2013-04-21 05:30:00,
2013-04-21 00:31:00,60.1,15.1,25.37,South,180,5.8,5.8,17,0.00,,---,0.00,VWS V14.01,2013-04-21 05:31:00,
2013-04-21 00:32:00,61.0,14.5,25.37,South,180,4.0,5.8,16,0.00,,---,0.00,VWS V14.01,2013-04-21 05:32:00,
2013-04-21 00:33:00,61.2,14.6,25.37,South,180,3.1,4.0,16,0.00,,---,0.00,VWS V14.01,2013-04-21 05:33:00,
2013-04-21 00:34:00,61.2,14.6,25.37,South,180,4.0,4.0,16,0.00,,---,0.00,VWS V14.01,2013-04-21 05:34:00,
2013-04-21 00:35:00,61.2,14.6,25.37,South,180,4.9,4.9,16,0.00,,---,0.00,VWS V14.01,2013-04-21 05:35:00,
2013-04-21 00:36:00,61.5,14.9,25.37,South,180,3.6,4.9,16,0.00,,---,0.00,VWS V14.01,2013-04-21 05:36:00,
2013-04-21 00:37:00,61.7,15.1,25.37,SSE,158,5.8,5.8,16,0.00,,---,0.00,VWS V14.01,2013-04-21 05:37:00,
2013-04-21 00:38:00,61.7,15.1,25.37,South,180,4.0,5.8,16,0.00,,---,0.00,VWS V14.01,2013-04-21 05:38:00,
2013-04-21 00:39:00,61.7,15.1,25.39,South,180,5.4,5.6,16,0.00,,---,0.00,VWS V14.01,2013-04-21 05:39:00,
2013-04-21 00:40:00,61.7,15.1,25.39,South,180,6.3,6.5,16,0.00,,---,0.00,VWS V14.01,2013-04-21 05:40:00,
2013-04-21 00:41:00,62.1,15.4,25.39,South,180,4.0,6.3,16,0.00,,---,0.00,VWS V14.01,2013-04-21 05:41:00,
2013-04-21 00:42:00,61.9,15.2,25.39,South,180,2.9,4.0,16,0.00,,---,0.00,VWS V14.01,2013-04-21 05:42:00,
2013-04-21 00:43:00,61.9,15.2,25.39,SSW,202,2.7,2.9,16,0.00,,---,0.00,VWS V14.01,2013-04-21 05:43:00,
2013-04-21 00:44:00,61.7,15.1,25.39,South,180,4.0,4.3,16,0.00,,---,0.00,VWS V14.01,2013-04-21 05:44:00,
2013-04-21 00:45:00,61.5,14.9,25.39,South,180,3.6,4.0,16,0.00,,---,0.00,VWS V14.01,2013-04-21 05:45:00,
2013-04-21 00:46:00,61.3,14.8,25.39,SSE,158,3.6,3.8,16,0.00,,---,0.00,VWS V14.01,2013-04-21 05:46:00,
2013-04-21 00:47:00,60.6,15.6,25.39,South,180,4.3,4.3,17,0.00,,---,0.00,VWS V14.01,2013-04-21 05:47:00,
2013-04-21 00:48:00,60.4,15.4,25.39,SSE,158,4.7,4.7,17,0.00,,---,0.00,VWS V14.01,2013-04-21 05:48:00,
2013-04-21 00:49:00,60.3,15.3,25.39,South,180,5.4,5.8,17,0.00,,---,0.00,VWS V14.01,2013-04-21 05:49:00,
2013-04-21 00:50:00,60.4,15.4,25.39,SSE,158,5.6,5.8,17,0.00,,---,0.00,VWS V14.01,2013-04-21 05:50:00,
2013-04-21 00:51:00,60.6,15.6,25.39,South,180,4.0,5.8,17,0.00,,---,0.00,VWS V14.01,2013-04-21 05:51:00,
2013-04-21 00:52:00,60.6,15.6,25.39,South,180,4.3,4.3,17,0.00,,---,0.00,VWS V14.01,2013-04-21 05:52:00,
2013-04-21 00:53:00,60.6,15.6,25.39,SSE,158,5.8,6.0,17,0.00,,---,0.00,VWS V14.01,2013-04-21 05:53:00,
2013-04-21 00:54:00,60.6,15.6,25.37,South,180,5.8,5.8,17,0.00,,---,0.00,VWS V14.01,2013-04-21 05:54:00,
2013-04-21 00:55:00,60.8,14.4,25.37,South,180,6.0,6.0,16,0.00,,---,0.00,VWS V14.01,2013-04-21 05:55:00,
2013-04-21 00:56:00,60.8,14.4,25.37,South,180,4.9,6.0,16,0.00,,---,0.00,VWS V14.01,2013-04-21 05:56:00,
2013-04-21 00:57:00,60.8,14.4,25.37,South,180,4.0,4.9,16,0.00,,---,0.00,VWS V14.01,2013-04-21 05:57:00,
2013-04-21 00:58:00,60.6,15.6,25.37,SSW,202,2.5,4.0,17,0.00,,---,0.00,VWS V14.01,2013-04-21 05:58:00,
2013-04-21 00:59:00,60.4,15.4,25.37,SSE,158,4.0,4.0,17,0.00,,---,0.00,VWS V14.01,2013-04-21 05:59:00,
2013-04-21 01:00:00,60.4,15.4,25.37,SSE,158,6.5,6.5,17,0.00,,---,0.00,VWS V14.01,2013-04-21 06:00:00,
2013-04-21 01:01:00,60.4,15.4,25.37,SSE,158,5.6,6.5,17,0.00,,---,0.00,VWS V14.01,2013-04-21 06:01:00,
2013-04-21 01:02:00,60.6,15.6,25.37,SSE,158,6.3,6.5,17,0.00,,---,0.00,VWS V14.01,2013-04-21 06:02:00,
2013-04-21 01:03:00,60.6,15.6,25.37,SSE,158,5.8,7.2,17,0.00,,---,0.00,VWS V14.01,2013-04-21 06:03:00,
2013-04-21 01:04:00,60.6,15.6,25.37,SSE,158,5.4,6.3,17,0.00,,---,0.00,VWS V14.01,2013-04-21 06:04:00,
2013-04-21 01:05:00,60.6,15.6,25.37,SSE,158,6.5,6.5,17,0.00,,---,0.00,VWS V14.01,2013-04-21 06:05:00,
2013-04-21 01:06:00,60.6,15.6,25.37,SSW,202,7.2,7.2,17,0.00,,---,0.00,VWS V14.01,2013-04-21 06:06:00,
2013-04-21 01:07:00,60.6,15.6,25.37,South,180,6.3,7.2,17,0.00,,---,0.00,VWS V14.01,2013-04-21 06:07:00,
2013-04-21 01:08:00,60.6,15.6,25.37,SSE,158,6.3,7.4,17,0.00,,---,0.00,VWS V14.01,2013-04-21 06:08:00,
2013-04-21 01:09:00,60.8,14.4,25.37,SSE,158,8.7,8.7,16,0.00,,---,0.00,VWS V14.01,2013-04-21 06:09:00,
2013-04-21 01:10:00,61.0,14.5,25.37,SSE,158,7.4,8.7,16,0.00,,---,0.00,VWS V14.01,2013-04-21 06:10:00,
2013-04-21 01:11:00,61.2,14.6,25.37,SSE,158,7.8,7.8,16,0.00,,---,0.00,VWS V14.01,2013-04-21 06:11:00,
2013-04-21 01:12:00,61.3,14.8,25.37,South,180,7.4,8.1,16,0.00,,---,0.00,VWS V14.01,2013-04-21 06:12:00,
2013-04-21 01:13:00,61.5,14.9,25.37,SSE,158,6.0,7.6,16,0.00,,---,0.00,VWS V14.01,2013-04-21 06:13:00,
2013-04-21 01:14:00,61.5,14.9,25.37,South,180,6.7,6.7,16,0.00,,---,0.00,VWS V14.01,2013-04-21 06:14:00,
2013-04-21 01:15:00,61.5,14.9,25.37,South,180,5.6,7.4,16,0.00,,---,0.00,VWS V14.01,2013-04-21 06:15:00,
2013-04-21 01:16:00,61.9,15.2,25.37,South,180,6.5,7.2,16,0.00,,---,0.00,VWS V14.01,2013-04-21 06:16:00,
2013-04-21 01:17:00,62.2,15.5,25.37,SSE,158,7.4,7.4,16,0.00,,---,0.00,VWS V14.01,2013-04-21 06:17:00,
2013-04-21 01:19:00,62.2,15.5,25.37,SSE,158,7.2,7.6,16,0.00,,---,0.00,VWS V14.01,2013-04-21 06:19:00,
2013-04-21 01:20:00,62.6,15.8,25.37,SSE,158,6.5,7.4,16,0.00,,---,0.00,VWS V14.01,2013-04-21 06:20:00,
2013-04-21 01:21:00,62.8,15.9,25.37,SSE,158,6.0,8.1,16,0.00,,---,0.00,VWS V14.01,2013-04-21 06:21:00,
2013-04-21 01:22:00,62.8,15.9,25.37,South,180,7.4,8.1,16,0.00,,---,0.00,VWS V14.01,2013-04-21 06:22:00,
2013-04-21 01:23:00,62.8,15.9,25.37,SSE,158,7.6,7.6,16,0.00,,---,0.00,VWS V14.01,2013-04-21 06:23:00,
2013-04-21 01:24:00,63.0,16.1,25.34,SSE,158,7.4,7.4,16,0.00,,---,0.00,VWS V14.01,2013-04-21 06:24:00,
2013-04-21 01:25:00,63.0,16.1,25.34,SE,135,8.5,8.5,16,0.00,,---,0.00,VWS V14.01,2013-04-21 06:25:00,
2013-04-21 01:26:00,63.1,16.2,25.34,SSE,158,7.6,9.2,16,0.00,,---,0.00,VWS V14.01,2013-04-21 06:26:00,
2013-04-21 01:27:00,63.1,16.2,25.34,SSE,158,8.5,8.5,16,0.00,,---,0.00,VWS V14.01,2013-04-21 06:27:00,
2013-04-21 01:28:00,63.5,16.5,25.34,SSE,158,8.1,8.7,16,0.00,,---,0.00,VWS V14.01,2013-04-21 06:28:00,
2013-04-21 01:29:00,63.5,16.5,25.34,SSE,158,7.8,8.1,16,0.00,,---,0.00,VWS V14.01,2013-04-21 06:29:00,
2013-04-21 01:30:00,63.7,16.7,25.34,SSE,158,7.8,7.8,16,0.00,,---,0.00,VWS V14.01,2013-04-21 06:30:00,
2013-04-21 01:31:00,63.7,16.7,25.34,South,180,5.8,7.8,16,0.00,,---,0.00,VWS V14.01,2013-04-21 06:31:00,
2013-04-21 01:32:00,63.7,16.7,25.34,SSE,158,7.6,7.6,16,0.00,,---,0.00,VWS V14.01,2013-04-21 06:32:00,
2013-04-21 01:33:00,64.0,17.0,25.34,SSE,158,7.6,7.6,16,0.00,,---,0.00,VWS V14.01,2013-04-21 06:33:00,
2013-04-21 01:34:00,64.2,17.1,25.34,SSE,158,7.4,7.6,16,0.00,,---,0.00,VWS V14.01,2013-04-21 06:34:00,
2013-04-21 01:35:00,64.4,15.8,25.34,South,180,7.4,7.4,15,0.00,,---,0.00,VWS V14.01,2013-04-21 06:35:00,
2013-04-21 01:36:00,64.6,15.9,25.34,SSE,158,7.2,7.8,15,0.00,,---,0.00,VWS V14.01,2013-04-21 06:36:00,
2013-04-21 01:37:00,64.9,16.2,25.34,SSE,158,6.5,7.6,15,0.00,,---,0.00,VWS V14.01,2013-04-21 06:37:00,
2013-04-21 01:38:00,64.9,16.2,25.34,SSE,158,6.5,6.5,15,0.00,,---,0.00,VWS V14.01,2013-04-21 06:38:00,
2013-04-21 01:39:00,65.1,16.4,25.37,SSE,158,7.4,7.4,15,0.00,,---,0.00,VWS V14.01,2013-04-21 06:39:00,
2013-04-21 01:40:00,65.1,16.4,25.37,SSE,158,7.2,7.4,15,0.00,,---,0.00,VWS V14.01,2013-04-21 06:40:00,
2013-04-21 01:41:00,65.3,16.5,25.37,SSE,158,6.5,7.2,15,0.00,,---,0.00,VWS V14.01,2013-04-21 06:41:00,
2013-04-21 01:42:00,65.5,16.6,25.37,SSE,158,5.8,6.5,15,0.00,,---,0.00,VWS V14.01,2013-04-21 06:42:00,
2013-04-21 01:43:00,65.7,16.8,25.37,SSE,158,4.5,5.8,15,0.00,,---,0.00,VWS V14.01,2013-04-21 06:43:00,
2013-04-21 01:44:00,65.7,16.8,25.37,SSE,158,4.3,4.9,15,0.00,,---,0.00,VWS V14.01,2013-04-21 06:44:00,
2013-04-21 01:45:00,65.7,16.8,25.37,SSE,158,4.9,4.9,15,0.00,,---,0.00,VWS V14.01,2013-04-21 06:45:00,
2013-04-21 01:46:00,65.5,16.6,25.37,SSE,158,4.9,5.4,15,0.00,,---,0.00,VWS V14.01,2013-04-21 06:46:00,
2013-04-21 01:47:00,65.5,16.6,25.37,SSE,158,4.9,4.9,15,0.00,,---,0.00,VWS V14.01,2013-04-21 06:47:00,
2013-04-21 01:48:00,65.5,16.6,25.37,SSE,158,4.7,4.9,15,0.00,,---,0.00,VWS V14.01,2013-04-21 06:48:00,
2013-04-21 01:49:00,65.7,16.8,25.37,South,180,4.3,4.3,15,0.00,,---,0.00,VWS V14.01,2013-04-21 06:49:00,
2013-04-21 01:50:00,66.0,17.1,25.37,South,180,4.3,4.7,15,0.00,,---,0.00,VWS V14.01,2013-04-21 06:50:00,
2013-04-21 01:51:00,66.0,17.1,25.37,SE,135,4.3,4.9,15,0.00,,---,0.00,VWS V14.01,2013-04-21 06:51:00,
2013-04-21 01:52:00,65.8,16.9,25.37,SSE,158,4.7,4.7,15,0.00,,---,0.00,VWS V14.01,2013-04-21 06:52:00,
2013-04-21 01:53:00,65.8,16.9,25.37,SE,135,2.7,4.7,15,0.00,,---,0.00,VWS V14.01,2013-04-21 06:53:00,
2013-04-21 01:54:00,65.7,16.8,25.37,East,90,1.1,3.4,15,0.00,,---,0.00,VWS V14.01,2013-04-21 06:54:00,
2013-04-21 01:55:00,65.5,16.6,25.37,ESE,112,1.3,1.3,15,0.00,,---,0.00,VWS V14.01,2013-04-21 06:55:00,
2013-04-21 01:56:00,65.1,16.4,25.37,SSE,158,1.3,1.3,15,0.00,,---,0.00,VWS V14.01,2013-04-21 06:56:00,
2013-04-21 01:57:00,65.1,16.4,25.37,SE,135,2.7,2.7,15,0.00,,---,0.00,VWS V14.01,2013-04-21 06:57:00,
2013-04-21 01:58:00,65.1,16.4,25.37,ESE,112,4.3,4.3,15,0.00,,---,0.00,VWS V14.01,2013-04-21 06:58:00,
2013-04-21 01:59:00,65.1,16.4,25.37,ESE,112,4.3,4.3,15,0.00,,---,0.00,VWS V14.01,2013-04-21 06:59:00,
2013-04-21 02:00:00,64.2,17.1,25.37,SW,225,3.8,4.3,16,0.00,,---,0.00,VWS V14.01,2013-04-21 07:00:00,
2013-04-21 02:01:00,63.3,16.4,25.37,SSW,202,4.3,6.3,16,0.00,,---,0.00,VWS V14.01,2013-04-21 07:01:00,
2013-04-21 02:02:00,62.8,15.9,25.37,South,180,2.7,4.3,16,0.00,,---,0.00,VWS V14.01,2013-04-21 07:02:00,
2013-04-21 02:03:00,62.8,15.9,25.37,SSE,158,5.6,5.6,16,0.00,,---,0.00,VWS V14.01,2013-04-21 07:03:00,
2013-04-21 02:04:00,63.1,16.2,25.37,SSE,158,4.0,4.0,16,0.00,,---,0.00,VWS V14.01,2013-04-21 07:04:00,
2013-04-21 02:05:00,63.1,16.2,25.37,South,180,2.7,4.0,16,0.00,,---,0.00,VWS V14.01,2013-04-21 07:05:00,
2013-04-21 02:06:00,63.3,16.4,25.37,South,180,0.0,2.7,16,0.00,,---,0.00,VWS V14.01,2013-04-21 07:06:00,
2013-04-21 02:07:00,63.5,16.5,25.37,SSW,202,3.1,3.1,16,0.00,,---,0.00,VWS V14.01,2013-04-21 07:07:00,
2013-04-21 02:08:00,64.2,17.1,25.37,NNE,22,4.3,4.3,16,0.00,,---,0.00,VWS V14.01,2013-04-21 07:08:00,
2013-04-21 02:09:00,64.4,15.8,25.34,SSE,158,2.7,4.3,15,0.00,,---,0.00,VWS V14.01,2013-04-21 07:09:00,
2013-04-21 02:10:00,64.4,15.8,25.34,SSE,158,3.8,4.0,15,0.00,,---,0.00,VWS V14.01,2013-04-21 07:10:00,
2013-04-21 02:11:00,62.8,15.9,25.34,SSE,158,3.6,3.8,16,0.00,,---,0.00,VWS V14.01,2013-04-21 07:11:00,
2013-04-21 02:12:00,62.8,15.9,25.34,South,180,2.5,3.6,16,0.00,,---,0.00,VWS V14.01,2013-04-21 07:12:00,
2013-04-21 02:13:00,62.8,15.9,25.34,SSE,158,5.4,5.4,16,0.00,,---,0.00,VWS V14.01,2013-04-21 07:13:00,
2013-04-21 02:14:00,63.0,16.1,25.34,SE,135,1.1,5.4,16,0.00,,---,0.00,VWS V14.01,2013-04-21 07:14:00,
2013-04-21 02:15:00,62.6,15.8,25.34,South,180,0.0,2.7,16,0.00,,---,0.00,VWS V14.01,2013-04-21 07:15:00,
2013-04-21 02:16:00,62.2,15.5,25.34,WSW,248,0.0,0.0,16,0.00,,---,0.00,VWS V14.01,2013-04-21 07:16:00,
2013-04-21 02:17:00,62.2,15.5,25.34,WNW,292,2.2,2.5,16,0.00,,---,0.00,VWS V14.01,2013-04-21 07:17:00,
2013-04-21 02:18:00,62.2,15.5,25.34,SSW,202,2.0,2.2,16,0.00,,---,0.00,VWS V14.01,2013-04-21 07:18:00,
2013-04-21 02:19:00,62.1,15.4,25.34,SSW,202,2.7,2.7,16,0.00,,---,0.00,VWS V14.01,2013-04-21 07:19:00,
2013-04-21 02:20:00,62.1,15.4,25.34,SSW,202,2.7,2.7,16,0.00,,---,0.00,VWS V14.01,2013-04-21 07:20:00,
2013-04-21 02:21:00,62.1,15.4,25.34,SSE,158,2.9,3.6,16,0.00,,---,0.00,VWS V14.01,2013-04-21 07:21:00,
2013-04-21 02:22:00,62.1,15.4,25.34,SSW,202,3.4,3.4,16,0.00,,---,0.00,VWS V14.01,2013-04-21 07:22:00,
2013-04-21 02:23:00,61.5,14.9,25.34,South,180,4.0,4.0,16,0.00,,---,0.00,VWS V14.01,2013-04-21 07:23:00,
2013-04-21 02:24:00,61.0,14.5,25.37,SSW,202,2.7,5.6,16,0.00,,---,0.00,VWS V14.01,2013-04-21 07:24:00,
2013-04-21 02:25:00,59.4,14.6,25.37,SSE,158,5.6,5.6,17,0.00,,---,0.00,VWS V14.01,2013-04-21 07:25:00,
2013-04-21 02:26:00,60.1,15.1,25.37,SSE,158,6.0,6.0,17,0.00,,---,0.00,VWS V14.01,2013-04-21 07:26:00,
2013-04-21 02:27:00,60.1,15.1,25.37,SSE,158,6.0,6.0,17,0.00,,---,0.00,VWS V14.01,2013-04-21 07:27:00,
2013-04-21 02:28:00,60.6,15.6,25.37,South,180,3.8,6.0,17,0.00,,---,0.00,VWS V14.01,2013-04-21 07:28:00,
2013-04-21 02:29:00,60.6,15.6,25.37,South,180,4.3,5.8,17,0.00,,---,0.00,VWS V14.01,2013-04-21 07:29:00,
2013-04-21 02:30:00,59.4,14.6,25.37,SSW,202,1.6,4.3,17,0.00,,---,0.00,VWS V14.01,2013-04-21 07:30:00,
2013-04-21 02:31:00,58.8,14.1,25.37,SSW,202,5.6,5.6,17,0.00,,---,0.00,VWS V14.01,2013-04-21 07:31:00,
2013-04-21 02:32:00,58.6,14.0,25.37,SSW,202,3.6,5.6,17,0.00,,---,0.00,VWS V14.01,2013-04-21 07:32:00,
2013-04-21 02:33:00,58.8,14.1,25.37,SSE,158,4.3,4.3,17,0.00,,---,0.00,VWS V14.01,2013-04-21 07:33:00,
2013-04-21 02:34:00,58.8,14.1,25.37,SE,135,4.3,6.3,17,0.00,,---,0.00,VWS V14.01,2013-04-21 07:34:00,
2013-04-21 02:35:00,58.8,14.1,25.37,SSW,202,3.8,4.3,17,0.00,,---,0.00,VWS V14.01,2013-04-21 07:35:00,
2013-04-21 02:36:00,59.0,14.3,25.37,South,180,4.7,5.8,17,0.00,,---,0.00,VWS V14.01,2013-04-21 07:36:00,
2013-04-21 02:37:00,59.2,14.4,25.37,South,180,6.5,6.5,17,0.00,,---,0.00,VWS V14.01,2013-04-21 07:37:00,
2013-04-21 02:38:00,59.5,14.7,25.37,SSE,158,6.3,7.4,17,0.00,,---,0.00,VWS V14.01,2013-04-21 07:38:00,
2013-04-21 02:39:00,59.7,14.9,25.37,SSW,202,6.7,7.6,17,0.00,,---,0.00,VWS V14.01,2013-04-21 07:39:00,
2013-04-21 02:40:00,59.2,14.4,25.37,SSW,202,6.5,6.7,17,0.00,,---,0.00,VWS V14.01,2013-04-21 07:40:00,
2013-04-21 02:41:00,58.6,14.0,25.37,South,180,4.0,6.5,17,0.00,,---,0.00,VWS V14.01,2013-04-21 07:41:00,
2013-04-21 02:42:00,58.6,14.0,25.37,SSE,158,7.6,8.7,17,0.00,,---,0.00,VWS V14.01,2013-04-21 07:42:00,
2013-04-21 02:43:00,58.6,14.0,25.37,SSE,158,9.6,9.6,17,0.00,,---,0.00,VWS V14.01,2013-04-21 07:43:00,
2013-04-21 02:44:00,59.0,14.3,25.37,South,180,4.0,9.6,17,0.00,,---,0.00,VWS V14.01,2013-04-21 07:44:00,
2013-04-21 02:45:00,59.0,14.3,25.37,South,180,5.8,5.8,17,0.00,,---,0.00,VWS V14.01,2013-04-21 07:45:00,
2013-04-21 02:46:00,59.0,14.3,25.37,South,180,3.6,5.8,17,0.00,,---,0.00,VWS V14.01,2013-04-21 07:46:00,
2013-04-21 02:47:00,59.2,14.4,25.37,South,180,2.5,4.0,17,0.00,,---,0.00,VWS V14.01,2013-04-21 07:47:00,
2013-04-21 02:48:00,59.0,14.3,25.37,West,270,4.7,4.7,17,0.00,,---,0.00,VWS V14.01,2013-04-21 07:48:00,
2013-04-21 02:49:00,58.6,14.0,25.37,SSW,202,4.3,5.4,17,0.00,,---,0.00,VWS V14.01,2013-04-21 07:49:00,
2013-04-21 02:50:00,58.8,14.1,25.37,SSW,202,2.9,4.3,17,0.00,,---,0.00,VWS V14.01,2013-04-21 07:50:00,
2013-04-21 02:51:00,58.8,14.1,25.37,SSW,202,2.9,2.9,17,0.00,,---,0.00,VWS V14.01,2013-04-21 07:51:00,
2013-04-21 02:52:00,58.8,14.1,25.37,South,180,4.3,4.3,17,0.00,,---,0.00,VWS V14.01,2013-04-21 07:52:00,
2013-04-21 02:53:00,58.8,14.1,25.37,South,180,7.4,7.4,17,0.00,,---,0.00,VWS V14.01,2013-04-21 07:53:00,
2013-04-21 02:54:00,58.6,14.0,25.34,South,180,4.9,7.4,17,0.00,,---,0.00,VWS V14.01,2013-04-21 07:54:00,
2013-04-21 02:55:00,58.3,13.7,25.34,South,180,2.9,4.9,17,0.00,,---,0.00,VWS V14.01,2013-04-21 07:55:00,
2013-04-21 02:56:00,57.6,13.1,25.34,South,180,2.9,2.9,17,0.00,,---,0.00,VWS V14.01,2013-04-21 07:56:00,
2013-04-21 02:57:00,57.4,12.9,25.34,SSE,158,5.4,5.4,17,0.00,,---,0.00,VWS V14.01,2013-04-21 07:57:00,
2013-04-21 02:58:00,57.4,12.9,25.34,SSE,158,3.4,5.4,17,0.00,,---,0.00,VWS V14.01,2013-04-21 07:58:00,
2013-04-21 02:59:00,57.6,8.7,25.34,SSE,158,5.4,5.6,14,0.00,,---,0.00,VWS V14.01,2013-04-21 07:59:00,
2013-04-21 03:00:00,57.7,13.2,25.34,SSW,202,1.3,5.4,17,0.00,,---,0.00,VWS V14.01,2013-04-21 08:00:00,
2013-04-21 03:01:00,57.6,8.7,25.34,West,270,2.7,2.7,14,0.00,,---,0.00,VWS V14.01,2013-04-21 08:01:00,
2013-04-21 03:02:00,57.0,12.7,25.34,SW,225,4.3,5.4,17,0.00,,---,0.00,VWS V14.01,2013-04-21 08:02:00,
2013-04-21 03:03:00,56.7,9.6,25.34,SSW,202,4.7,4.9,15,0.00,,---,0.00,VWS V14.01,2013-04-21 08:03:00,
2013-04-21 03:04:00,57.2,8.4,25.34,SSW,202,2.5,4.7,14,0.00,,---,0.00,VWS V14.01,2013-04-21 08:04:00,
2013-04-21 03:05:00,57.6,8.7,25.34,SSW,202,3.4,3.4,14,0.00,,---,0.00,VWS V14.01,2013-04-21 08:05:00,
2013-04-21 03:06:00,57.9,9.0,25.34,SSW,202,2.0,3.4,14,0.00,,---,0.00,VWS V14.01,2013-04-21 08:06:00,
2013-04-21 03:07:00,57.9,9.0,25.34,WSW,248,2.0,2.0,14,0.00,,---,0.00,VWS V14.01,2013-04-21 08:07:00,
2013-04-21 03:08:00,57.6,8.7,25.34,West,270,1.1,2.0,14,0.00,,---,0.00,VWS V14.01,2013-04-21 08:08:00,
2013-04-21 03:09:00,57.0,9.8,25.37,SSW,202,0.0,1.6,15,0.00,,---,0.00,VWS V14.01,2013-04-21 08:09:00,
2013-04-21 03:10:00,57.0,9.8,25.37,SSW,202,0.0,0.0,15,0.00,,---,0.00,VWS V14.01,2013-04-21 08:10:00,
2013-04-21 03:11:00,57.0,9.8,25.37,SSE,158,4.9,4.9,15,0.00,,---,0.00,VWS V14.01,2013-04-21 08:11:00,
2013-04-21 03:12:00,56.3,9.3,25.37,South,180,2.9,4.0,15,0.00,,---,0.00,VWS V14.01,2013-04-21 08:12:00,
2013-04-21 03:13:00,56.5,9.4,25.37,South,180,4.9,4.9,15,0.00,,---,0.00,VWS V14.01,2013-04-21 08:13:00,
2013-04-21 03:14:00,56.3,9.3,25.37,South,180,4.9,6.3,15,0.00,,---,0.00,VWS V14.01,2013-04-21 08:14:00,
2013-04-21 03:15:00,56.3,9.3,25.37,South,180,5.6,6.3,15,0.00,,---,0.00,VWS V14.01,2013-04-21 08:15:00,
2013-04-21 03:16:00,56.3,9.3,25.37,South,180,6.0,6.0,15,0.00,,---,0.00,VWS V14.01,2013-04-21 08:16:00,
2013-04-21 03:17:00,56.3,9.3,25.37,South,180,3.6,6.0,15,0.00,,---,0.00,VWS V14.01,2013-04-21 08:17:00,
2013-04-21 03:18:00,56.3,9.3,25.37,South,180,3.4,3.6,15,0.00,,---,0.00,VWS V14.01,2013-04-21 08:18:00,
2013-04-21 03:19:00,56.5,9.4,25.37,South,180,3.1,3.6,15,0.00,,---,0.00,VWS V14.01,2013-04-21 08:19:00,
2013-04-21 03:20:00,56.5,9.4,25.37,SSW,202,3.4,3.8,15,0.00,,---,0.00,VWS V14.01,2013-04-21 08:20:00,
2013-04-21 03:21:00,56.3,9.3,25.37,SSW,202,2.7,3.4,15,0.00,,---,0.00,VWS V14.01,2013-04-21 08:21:00,
2013-04-21 03:22:00,56.1,9.1,25.37,NW,315,3.8,3.8,15,0.00,,---,0.00,VWS V14.01,2013-04-21 08:22:00,
2013-04-21 03:23:00,55.6,8.7,25.37,WNW,292,2.9,4.3,15,0.00,,---,0.00,VWS V14.01,2013-04-21 08:23:00,
2013-04-21 03:24:00,55.0,8.2,25.37,NNE,22,1.1,2.9,15,0.00,,---,0.00,VWS V14.01,2013-04-21 08:24:00,
2013-04-21 03:25:00,54.7,8.0,25.37,SSE,158,0.0,1.3,15,0.00,,---,0.00,VWS V14.01,2013-04-21 08:25:00,
2013-04-21 03:26:00,54.5,7.8,25.37,SSE,158,1.6,1.6,15,0.00,,---,0.00,VWS V14.01,2013-04-21 08:26:00,
2013-04-21 03:27:00,54.7,8.0,25.37,South,180,3.4,3.4,15,0.00,,---,0.00,VWS V14.01,2013-04-21 08:27:00,
2013-04-21 03:28:00,54.9,8.1,25.37,SSE,158,5.8,5.8,15,0.00,,---,0.00,VWS V14.01,2013-04-21 08:28:00,
2013-04-21 03:29:00,55.0,8.2,25.37,SSE,158,7.2,7.4,15,0.00,,---,0.00,VWS V14.01,2013-04-21 08:29:00,
2013-04-21 03:30:00,55.2,8.4,25.37,South,180,4.3,7.6,15,0.00,,---,0.00,VWS V14.01,2013-04-21 08:30:00,
2013-04-21 03:31:00,55.2,8.4,25.37,SSW,202,3.1,4.3,15,0.00,,---,0.00,VWS V14.01,2013-04-21 08:31:00,
2013-04-21 03:32:00,55.2,8.4,25.37,SSW,202,2.7,3.1,15,0.00,,---,0.00,VWS V14.01,2013-04-21 08:32:00,
2013-04-21 03:33:00,55.4,8.5,25.37,South,180,3.4,3.4,15,0.00,,---,0.00,VWS V14.01,2013-04-21 08:33:00,
2013-04-21 03:34:00,55.4,8.5,25.37,South,180,4.0,4.0,15,0.00,,---,0.00,VWS V14.01,2013-04-21 08:34:00,
2013-04-21 03:35:00,55.9,9.0,25.37,South,180,4.0,4.0,15,0.00,,---,0.00,VWS V14.01,2013-04-21 08:35:00,
2013-04-21 03:36:00,56.1,9.1,25.37,South,180,4.3,4.7,15,0.00,,---,0.00,VWS V14.01,2013-04-21 08:36:00,
2013-04-21 03:37:00,56.3,9.3,25.37,South,180,3.6,4.3,15,0.00,,---,0.00,VWS V14.01,2013-04-21 08:37:00,
2013-04-21 03:38:00,56.3,9.3,25.37,NNW,338,4.3,4.3,15,0.00,,---,0.00,VWS V14.01,2013-04-21 08:38:00,
2013-04-21 03:39:00,55.6,8.7,25.37,WNW,292,5.4,6.3,15,0.00,,---,0.00,VWS V14.01,2013-04-21 08:39:00,
2013-04-21 03:40:00,55.2,8.4,25.37,NW,315,3.6,5.4,15,0.00,,---,0.00,VWS V14.01,2013-04-21 08:40:00,
2013-04-21 03:41:00,54.9,8.1,25.37,SW,225,0.9,3.6,15,0.00,,---,0.00,VWS V14.01,2013-04-21 08:41:00,
2013-04-21 03:42:00,54.9,8.1,25.37,SW,225,0.9,3.1,15,0.00,,---,0.00,VWS V14.01,2013-04-21 08:42:00,
2013-04-21 03:43:00,54.9,8.1,25.37,SSW,202,1.3,1.3,15,0.00,,---,0.00,VWS V14.01,2013-04-21 08:43:00,
2013-04-21 03:44:00,55.2,8.4,25.37,SSW,202,1.6,3.4,15,0.00,,---,0.00,VWS V14.01,2013-04-21 08:44:00,
2013-04-21 03:45:00,55.4,8.5,25.37,SSW,202,2.2,2.5,15,0.00,,---,0.00,VWS V14.01,2013-04-21 08:45:00,
2013-04-21 03:47:00,55.4,8.5,25.37,SSW,202,2.0,2.5,15,0.00,,---,0.00,VWS V14.01,2013-04-21 08:47:00,
2013-04-21 03:48:00,55.0,8.2,25.37,South,180,2.5,2.5,15,0.00,,---,0.00,VWS V14.01,2013-04-21 08:48:00,
2013-04-21 03:49:00,54.7,8.0,25.37,South,180,3.6,3.6,15,0.00,,---,0.00,VWS V14.01,2013-04-21 08:49:00,
2013-04-21 03:50:00,54.7,8.0,25.37,SSW,202,2.7,3.8,15,0.00,,---,0.00,VWS V14.01,2013-04-21 08:50:00,
2013-04-21 03:51:00,54.5,7.8,25.37,SSE,158,3.1,3.6,15,0.00,,---,0.00,VWS V14.01,2013-04-21 08:51:00,
2013-04-21 03:52:00,54.5,7.8,25.37,South,180,3.6,3.6,15,0.00,,---,0.00,VWS V14.01,2013-04-21 08:52:00,
2013-04-21 03:53:00,54.5,7.8,25.37,South,180,3.1,3.6,15,0.00,,---,0.00,VWS V14.01,2013-04-21 08:53:00,
2013-04-21 03:54:00,54.5,7.8,25.37,SSE,158,4.0,4.0,15,0.00,,---,0.00,VWS V14.01,2013-04-21 08:54:00,
2013-04-21 03:55:00,54.5,7.8,25.37,South,180,3.6,5.6,15,0.00,,---,0.00,VWS V14.01,2013-04-21 08:55:00,
2013-04-21 03:56:00,54.5,7.8,25.37,South,180,4.3,4.3,15,0.00,,---,0.00,VWS V14.01,2013-04-21 08:56:00,
2013-04-21 03:57:00,54.9,8.1,25.37,South,180,3.1,4.3,15,0.00,,---,0.00,VWS V14.01,2013-04-21 08:57:00,
2013-04-21 03:58:00,54.9,8.1,25.37,South,180,3.8,3.8,15,0.00,,---,0.00,VWS V14.01,2013-04-21 08:58:00,
2013-04-21 03:59:00,54.7,8.0,25.37,South,180,3.1,3.8,15,0.00,,---,0.00,VWS V14.01,2013-04-21 08:59:00,
2013-04-21 04:00:00,54.7,8.0,25.37,South,180,3.1,3.1,15,0.00,,---,0.00,VWS V14.01,2013-04-21 09:00:00,
2013-04-21 04:01:00,54.5,7.8,25.37,South,180,3.8,3.8,15,0.00,,---,0.00,VWS V14.01,2013-04-21 09:01:00,
2013-04-21 04:02:00,54.9,8.1,25.37,SSE,158,4.3,4.7,15,0.00,,---,0.00,VWS V14.01,2013-04-21 09:02:00,
2013-04-21 04:03:00,54.9,8.1,25.37,South,180,3.8,4.3,15,0.00,,---,0.00,VWS V14.01,2013-04-21 09:03:00,
2013-04-21 04:04:00,55.0,8.2,25.37,South,180,5.4,5.4,15,0.00,,---,0.00,VWS V14.01,2013-04-21 09:04:00,
2013-04-21 04:05:00,55.4,8.5,25.37,SSE,158,4.0,5.6,15,0.00,,---,0.00,VWS V14.01,2013-04-21 09:05:00,
2013-04-21 04:06:00,55.4,8.5,25.37,South,180,3.4,4.0,15,0.00,,---,0.00,VWS V14.01,2013-04-21 09:06:00,
2013-04-21 04:07:00,55.4,8.5,25.37,SSW,202,4.0,4.0,15,0.00,,---,0.00,VWS V14.01,2013-04-21 09:07:00,
2013-04-21 04:08:00,55.4,8.5,25.37,SSW,202,4.0,4.0,15,0.00,,---,0.00,VWS V14.01,2013-04-21 09:08:00,
2013-04-21 04:09:00,55.4,8.5,25.39,South,180,4.3,4.3,15,0.00,,---,0.00,VWS V14.01,2013-04-21 09:09:00,
2013-04-21 04:10:00,55.4,8.5,25.39,SSW,202,2.9,4.3,15,0.00,,---,0.00,VWS V14.01,2013-04-21 09:10:00,
2013-04-21 04:11:00,55.4,8.5,25.39,South,180,3.4,3.8,15,0.00,,---,0.00,VWS V14.01,2013-04-21 09:11:00,
2013-04-21 04:12:00,55.2,8.4,25.39,South,180,3.4,3.4,15,0.00,,---,0.00,VWS V14.01,2013-04-21 09:12:00,
2013-04-21 04:13:00,55.0,8.2,25.39,South,180,3.1,3.4,15,0.00,,---,0.00,VWS V14.01,2013-04-21 09:13:00,
2013-04-21 04:14:00,55.0,8.2,25.39,South,180,3.1,3.4,15,0.00,,---,0.00,VWS V14.01,2013-04-21 09:14:00,
2013-04-21 04:15:00,54.9,8.1,25.39,South,180,3.8,3.8,15,0.00,,---,0.00,VWS V14.01,2013-04-21 09:15:00,
2013-04-21 04:16:00,54.9,8.1,25.39,SSW,202,3.6,3.8,15,0.00,,---,0.00,VWS V14.01,2013-04-21 09:16:00,
2013-04-21 04:17:00,54.9,8.1,25.39,SSW,202,3.4,3.6,15,0.00,,---,0.00,VWS V14.01,2013-04-21 09:17:00,
2013-04-21 04:18:00,54.9,8.1,25.39,SSW,202,3.4,4.0,15,0.00,,---,0.00,VWS V14.01,2013-04-21 09:18:00,
2013-04-21 04:19:00,54.9,8.1,25.39,SSW,202,3.6,4.0,15,0.00,,---,0.00,VWS V14.01,2013-04-21 09:19:00,
2013-04-21 04:20:00,55.0,8.2,25.39,SSW,202,4.0,4.3,15,0.00,,---,0.00,VWS V14.01,2013-04-21 09:20:00,
2013-04-21 04:21:00,54.9,8.1,25.39,SSW,202,4.3,4.9,15,0.00,,---,0.00,VWS V14.01,2013-04-21 09:21:00,
2013-04-21 04:22:00,54.7,8.0,25.39,SW,225,3.6,4.3,15,0.00,,---,0.00,VWS V14.01,2013-04-21 09:22:00,
2013-04-21 04:23:00,54.5,7.8,25.39,SW,225,2.0,3.6,15,0.00,,---,0.00,VWS V14.01,2013-04-21 09:23:00,
2013-04-21 04:24:00,54.1,7.5,25.37,SW,225,0.0,2.0,15,0.00,,---,0.00,VWS V14.01,2013-04-21 09:24:00,
2013-04-21 04:25:00,53.8,7.2,25.37,SSE,158,1.6,2.0,15,0.00,,---,0.00,VWS V14.01,2013-04-21 09:25:00,
2013-04-21 04:26:00,53.4,8.4,25.37,SSE,158,3.4,3.4,16,0.00,,---,0.00,VWS V14.01,2013-04-21 09:26:00,
2013-04-21 04:27:00,53.2,8.2,25.37,South,180,2.5,3.4,16,0.00,,---,0.00,VWS V14.01,2013-04-21 09:27:00,
2013-04-21 04:28:00,53.1,8.1,25.37,SW,225,1.6,2.9,16,0.00,,---,0.00,VWS V14.01,2013-04-21 09:28:00,
2013-04-21 04:29:00,52.9,7.9,25.37,SW,225,2.0,2.0,16,0.00,,---,0.00,VWS V14.01,2013-04-21 09:29:00,
2013-04-21 04:30:00,52.9,7.9,25.37,SSW,202,2.0,2.7,16,0.00,,---,0.00,VWS V14.01,2013-04-21 09:30:00,
2013-04-21 04:31:00,52.9,7.9,25.37,SSW,202,2.0,2.5,16,0.00,,---,0.00,VWS V14.01,2013-04-21 09:31:00,
2013-04-21 04:32:00,52.9,7.9,25.37,SW,225,0.0,2.0,16,0.00,,---,0.00,VWS V14.01,2013-04-21 09:32:00,
2013-04-21 04:33:00,52.7,7.8,25.37,SW,225,0.0,0.0,16,0.00,,---,0.00,VWS V14.01,2013-04-21 09:33:00,
2013-04-21 04:34:00,52.3,7.5,25.37,SW,225,0.0,0.0,16,0.00,,---,0.00,VWS V14.01,2013-04-21 09:34:00,
2013-04-21 04:35:00,52.0,7.2,25.37,SW,225,0.0,0.0,16,0.00,,---,0.00,VWS V14.01,2013-04-21 09:35:00,
2013-04-21 04:36:00,52.0,7.2,25.37,SW,225,0.0,0.0,16,0.00,,---,0.00,VWS V14.01,2013-04-21 09:36:00,
2013-04-21 04:37:00,52.5,7.6,25.37,SSW,202,2.0,2.7,16,0.00,,---,0.00,VWS V14.01,2013-04-21 09:37:00,
2013-04-21 04:38:00,52.9,7.9,25.37,SSW,202,2.0,2.0,16,0.00,,---,0.00,VWS V14.01,2013-04-21 09:38:00,
2013-04-21 04:39:00,52.9,7.9,25.39,SSW,202,1.3,2.0,16,0.00,,---,0.00,VWS V14.01,2013-04-21 09:39:00,
2013-04-21 04:40:00,52.9,7.9,25.39,SSW,202,1.6,1.6,16,0.00,,---,0.00,VWS V14.01,2013-04-21 09:40:00,
2013-04-21 04:41:00,52.9,7.9,25.39,SW,225,1.3,1.6,16,0.00,,---,0.00,VWS V14.01,2013-04-21 09:41:00,
2013-04-21 04:42:00,52.7,7.8,25.39,SSW,202,2.2,2.2,16,0.00,,---,0.00,VWS V14.01,2013-04-21 09:42:00,
2013-04-21 04:43:00,52.7,7.8,25.39,South,180,1.3,2.2,16,0.00,,---,0.00,VWS V14.01,2013-04-21 09:43:00,
2013-04-21 04:44:00,52.7,7.8,25.39,ESE,112,3.1,3.1,16,0.00,,---,0.00,VWS V14.01,2013-04-21 09:44:00,
2013-04-21 04:45:00,52.9,7.9,25.39,SSE,158,2.0,3.1,16,0.00,,---,0.00,VWS V14.01,2013-04-21 09:45:00,
2013-04-21 04:46:00,53.1,8.1,25.39,South,180,2.5,2.7,16,0.00,,---,0.00,VWS V14.01,2013-04-21 09:46:00,
2013-04-21 04:47:00,52.9,7.9,25.39,SSW,202,1.3,2.5,16,0.00,,---,0.00,VWS V14.01,2013-04-21 09:47:00,
2013-04-21 04:48:00,52.9,7.9,25.39,SSW,202,1.3,2.5,16,0.00,,---,0.00,VWS V14.01,2013-04-21 09:48:00,
2013-04-21 04:49:00,52.7,7.8,25.39,SW,225,2.5,2.5,16,0.00,,---,0.00,VWS V14.01,2013-04-21 09:49:00,
2013-04-21 04:50:00,52.5,7.6,25.39,WNW,292,0.0,2.5,16,0.00,,---,0.00,VWS V14.01,2013-04-21 09:50:00,
2013-04-21 04:51:00,52.0,7.2,25.39,East,90,1.3,1.3,16,0.00,,---,0.00,VWS V14.01,2013-04-21 09:51:00,
2013-04-21 04:52:00,51.8,7.1,25.39,NE,45,2.5,2.5,16,0.00,,---,0.00,VWS V14.01,2013-04-21 09:52:00,
2013-04-21 04:53:00,51.8,7.1,25.39,ENE,68,2.0,2.5,16,0.00,,---,0.00,VWS V14.01,2013-04-21 09:53:00,
2013-04-21 04:54:00,51.6,6.9,25.42,South,180,1.3,2.0,16,0.00,,---,0.00,VWS V14.01,2013-04-21 09:54:00,
2013-04-21 04:56:00,51.6,6.9,25.42,ESE,112,1.1,1.3,16,0.00,,---,0.00,VWS V14.01,2013-04-21 09:56:00,
2013-04-21 04:57:00,52.0,7.2,25.42,SSW,202,1.1,1.1,16,0.00,,---,0.00,VWS V14.01,2013-04-21 09:57:00,
2013-04-21 04:58:00,52.2,7.3,25.42,NW,315,3.1,3.1,16,0.00,,---,0.00,VWS V14.01,2013-04-21 09:58:00,
2013-04-21 04:59:00,52.2,7.3,25.42,NW,315,4.0,4.0,16,0.00,,---,0.00,VWS V14.01,2013-04-21 09:59:00,
2013-04-21 05:00:00,52.2,7.3,25.42,WNW,292,4.3,4.3,16,0.00,,---,0.00,VWS V14.01,2013-04-21 10:00:00,
2013-04-21 05:02:00,52.3,7.5,25.42,NW,315,2.7,4.3,16,0.00,,---,0.00,VWS V14.01,2013-04-21 10:02:00,
2013-04-21 05:03:00,52.5,7.6,25.42,WNW,292,3.4,3.4,16,0.00,,---,0.00,VWS V14.01,2013-04-21 10:03:00,
2013-04-21 05:04:00,52.5,7.6,25.42,NNW,338,3.8,4.0,16,0.00,,---,0.00,VWS V14.01,2013-04-21 10:04:00,
2013-04-21 05:05:00,52.7,7.8,25.42,WNW,292,2.0,3.8,16,0.00,,---,0.00,VWS V14.01,2013-04-21 10:05:00,
2013-04-21 05:06:00,52.5,7.6,25.42,West,270,1.6,2.5,16,0.00,,---,0.00,VWS V14.01,2013-04-21 10:06:00,
2013-04-21 05:07:00,52.3,7.5,25.42,West,270,0.0,1.6,16,0.00,,---,0.00,VWS V14.01,2013-04-21 10:07:00,
2013-04-21 05:08:00,52.2,7.3,25.42,West,270,0.0,0.0,16,0.00,,---,0.00,VWS V14.01,2013-04-21 10:08:00,
2013-04-21 05:09:00,52.2,7.3,25.42,SW,225,3.1,3.1,16,0.00,,---,0.00,VWS V14.01,2013-04-21 10:09:00,
2013-04-21 05:10:00,52.5,7.6,25.42,West,270,4.3,4.3,16,0.00,,---,0.00,VWS V14.01,2013-04-21 10:10:00,
2013-04-21 05:11:00,53.1,8.1,25.42,WSW,248,3.1,4.3,16,0.00,,---,0.00,VWS V14.01,2013-04-21 10:11:00,
2013-04-21 05:12:00,53.6,7.1,25.42,SW,225,2.9,3.1,15,0.00,,---,0.00,VWS V14.01,2013-04-21 10:12:00,
2013-04-21 05:13:00,54.5,7.8,25.42,WSW,248,4.0,4.0,15,0.00,,---,0.00,VWS V14.01,2013-04-21 10:13:00,
2013-04-21 05:14:00,54.7,8.0,25.42,SW,225,3.8,4.0,15,0.00,,---,0.00,VWS V14.01,2013-04-21 10:14:00,
2013-04-21 05:15:00,54.9,8.1,25.42,SSW,202,2.7,3.8,15,0.00,,---,0.00,VWS V14.01,2013-04-21 10:15:00,
2013-04-21 05:16:00,54.9,8.1,25.42,SSW,202,3.4,3.4,15,0.00,,---,0.00,VWS V14.01,2013-04-21 10:16:00,
2013-04-21 05:17:00,55.0,8.2,25.42,SW,225,2.7,3.4,15,0.00,,---,0.00,VWS V14.01,2013-04-21 10:17:00,
2013-04-21 05:18:00,55.0,8.2,25.42,South,180,1.3,3.4,15,0.00,,---,0.00,VWS V14.01,2013-04-21 10:18:00,
2013-04-21 05:19:00,54.9,8.1,25.42,SSW,202,2.9,3.1,15,0.00,,---,0.00,VWS V14.01,2013-04-21 10:19:00,
2013-04-21 05:20:00,55.0,8.2,25.42,SSW,202,2.5,2.9,15,0.00,,---,0.00,VWS V14.01,2013-04-21 10:20:00,
2013-04-21 05:21:00,55.2,8.4,25.42,SSW,202,3.4,4.0,15,0.00,,---,0.00,VWS V14.01,2013-04-21 10:21:00,
2013-04-21 05:22:00,55.2,8.4,25.42,SW,225,5.4,5.4,15,0.00,,---,0.00,VWS V14.01,2013-04-21 10:22:00,
2013-04-21 05:23:00,55.6,8.7,25.42,SSW,202,4.0,5.8,15,0.00,,---,0.00,VWS V14.01,2013-04-21 10:23:00,
2013-04-21 05:24:00,55.4,8.5,25.42,SSW,202,2.9,4.0,15,0.00,,---,0.00,VWS V14.01,2013-04-21 10:24:00,
2013-04-21 05:25:00,55.4,8.5,25.42,South,180,2.9,3.4,15,0.00,,---,0.00,VWS V14.01,2013-04-21 10:25:00,
2013-04-21 05:26:00,55.4,8.5,25.42,SSW,202,4.3,4.3,15,0.00,,---,0.00,VWS V14.01,2013-04-21 10:26:00,
2013-04-21 05:27:00,55.6,8.7,25.42,SSW,202,3.4,4.3,15,0.00,,---,0.00,VWS V14.01,2013-04-21 10:27:00,
2013-04-21 05:28:00,55.9,9.0,25.42,SSW,202,3.4,4.7,15,0.00,,---,0.00,VWS V14.01,2013-04-21 10:28:00,
2013-04-21 05:30:00,55.9,9.0,25.42,SSW,202,3.1,3.6,15,0.00,,---,0.00,VWS V14.01,2013-04-21 10:30:00,
2013-04-21 05:31:00,55.8,8.8,25.42,SSW,202,3.1,3.4,15,0.00,,---,0.00,VWS V14.01,2013-04-21 10:31:00,
2013-04-21 05:32:00,55.6,8.7,25.42,SSW,202,2.7,3.4,15,0.00,,---,0.00,VWS V14.01,2013-04-21 10:32:00,
2013-04-21 05:33:00,55.4,8.5,25.42,SSW,202,2.5,2.9,15,0.00,,---,0.00,VWS V14.01,2013-04-21 10:33:00,
2013-04-21 05:34:00,55.4,8.5,25.42,SSW,202,1.6,3.4,15,0.00,,---,0.00,VWS V14.01,2013-04-21 10:34:00,
2013-04-21 05:35:00,55.2,8.4,25.42,SSW,202,2.5,2.5,15,0.00,,---,0.00,VWS V14.01,2013-04-21 10:35:00,
2013-04-21 05:36:00,55.0,8.2,25.42,SSW,202,2.5,3.1,15,0.00,,---,0.00,VWS V14.01,2013-04-21 10:36:00,
2013-04-21 05:38:00,55.0,8.2,25.42,SSW,202,1.3,2.5,15,0.00,,---,0.00,VWS V14.01,2013-04-21 10:38:00,
2013-04-21 05:39:00,55.0,8.2,25.42,SSW,202,2.0,2.0,15,0.00,,---,0.00,VWS V14.01,2013-04-21 10:39:00,
2013-04-21 05:40:00,55.0,8.2,25.45,SSW,202,1.6,2.0,15,0.00,,---,0.00,VWS V14.01,2013-04-21 10:40:00,
2013-04-21 05:41:00,55.0,8.2,25.45,SSW,202,1.3,1.6,15,0.00,,---,0.00,VWS V14.01,2013-04-21 10:41:00,
2013-04-21 05:42:00,55.0,8.2,25.45,SSW,202,1.6,2.0,15,0.00,,---,0.00,VWS V14.01,2013-04-21 10:42:00,
2013-04-21 05:43:00,55.2,8.4,25.45,SSW,202,1.3,2.0,15,0.00,,---,0.00,VWS V14.01,2013-04-21 10:43:00,
2013-04-21 05:44:00,55.4,8.5,25.45,SSW,202,1.6,2.0,15,0.00,,---,0.00,VWS V14.01,2013-04-21 10:44:00,
2013-04-21 05:45:00,55.4,8.5,25.45,South,180,2.0,2.7,15,0.00,,---,0.00,VWS V14.01,2013-04-21 10:45:00,
2013-04-21 05:46:00,55.4,8.5,25.45,South,180,2.7,2.9,15,0.00,,---,0.00,VWS V14.01,2013-04-21 10:46:00,
2013-04-21 05:47:00,55.4,8.5,25.45,SSE,158,2.7,3.1,15,0.00,,---,0.00,VWS V14.01,2013-04-21 10:47:00,
2013-04-21 05:48:00,55.4,8.5,25.45,SE,135,2.5,2.9,15,0.00,,---,0.00,VWS V14.01,2013-04-21 10:48:00,
2013-04-21 05:49:00,55.2,8.4,25.45,SE,135,4.5,4.5,15,0.00,,---,0.00,VWS V14.01,2013-04-21 10:49:00,
2013-04-21 05:50:00,55.2,8.4,25.45,SE,135,4.5,4.5,15,0.00,,---,0.00,VWS V14.01,2013-04-21 10:50:00,
2013-04-21 05:51:00,54.1,7.5,25.45,SE,135,3.6,4.5,15,0.00,,---,0.00,VWS V14.01,2013-04-21 10:51:00,
2013-04-21 05:52:00,53.8,7.2,25.45,SE,135,3.8,4.0,15,0.00,,---,0.00,VWS V14.01,2013-04-21 10:52:00,
2013-04-21 05:53:00,53.6,7.1,25.45,ESE,112,4.3,4.3,15,0.00,,---,0.00,VWS V14.01,2013-04-21 10:53:00,
2013-04-21 05:54:00,53.4,8.4,25.39,ESE,112,4.3,4.3,16,0.00,,---,0.00,VWS V14.01,2013-04-21 10:54:00,
2013-04-21 05:55:00,53.2,8.2,25.39,ESE,112,5.4,5.4,16,0.00,,---,0.00,VWS V14.01,2013-04-21 10:55:00,
2013-04-21 05:56:00,53.1,8.1,25.39,SE,135,4.3,5.4,16,0.00,,---,0.00,VWS V14.01,2013-04-21 10:56:00,
2013-04-21 05:57:00,53.1,8.1,25.39,SE,135,2.9,5.4,16,0.00,,---,0.00,VWS V14.01,2013-04-21 10:57:00,
2013-04-21 05:58:00,53.1,8.1,25.39,SE,135,4.9,4.9,16,0.00,,---,0.00,VWS V14.01,2013-04-21 10:58:00,
2013-04-21 05:59:00,53.1,8.1,25.39,SE,135,5.4,5.4,16,0.00,,---,0.00,VWS V14.01,2013-04-21 10:59:00,
2013-04-21 06:00:00,53.2,8.2,25.39,ESE,112,3.8,5.4,16,0.00,,---,0.00,VWS V14.01,2013-04-21 11:00:00,
2013-04-21 06:01:00,53.2,8.2,25.39,SE,135,5.4,5.6,16,0.00,,---,0.00,VWS V14.01,2013-04-21 11:01:00,
2013-04-21 06:02:00,53.2,8.2,25.39,SE,135,4.9,5.6,16,0.00,,---,0.00,VWS V14.01,2013-04-21 11:02:00,
2013-04-21 06:03:00,53.2,8.2,25.39,SE,135,4.9,5.6,16,0.00,,---,0.00,VWS V14.01,2013-04-21 11:03:00,
2013-04-21 06:04:00,53.2,8.2,25.39,ESE,112,4.3,5.4,16,0.00,,---,0.00,VWS V14.01,2013-04-21 11:04:00,
2013-04-21 06:05:00,53.2,8.2,25.39,SE,135,4.9,4.9,16,0.00,,---,0.00,VWS V14.01,2013-04-21 11:05:00,
2013-04-21 06:06:00,53.4,8.4,25.39,ESE,112,5.4,5.6,16,0.00,,---,0.00,VWS V14.01,2013-04-21 11:06:00,
2013-04-21 06:07:00,53.4,8.4,25.39,SE,135,4.0,5.4,16,0.00,,---,0.00,VWS V14.01,2013-04-21 11:07:00,
2013-04-21 06:08:00,53.4,8.4,25.39,SSE,158,3.6,4.7,16,0.00,,---,0.00,VWS V14.01,2013-04-21 11:08:00,
2013-04-21 06:09:00,53.6,7.1,25.42,SE,135,5.6,5.6,15,0.00,,---,0.00,VWS V14.01,2013-04-21 11:09:00,
2013-04-21 06:10:00,53.8,7.2,25.42,SSE,158,4.3,5.6,15,0.00,,---,0.00,VWS V14.01,2013-04-21 11:10:00,
2013-04-21 06:11:00,54.0,7.4,25.42,SE,135,4.0,4.3,15,0.00,,---,0.00,VWS V14.01,2013-04-21 11:11:00,
2013-04-21 06:12:00,54.0,7.4,25.42,SE,135,4.3,5.4,15,0.00,,---,0.00,VWS V14.01,2013-04-21 11:12:00,
2013-04-21 06:13:00,54.1,7.5,25.42,SE,135,4.3,4.5,15,0.00,,---,0.00,VWS V14.01,2013-04-21 11:13:00,
2013-04-21 06:14:00,54.5,7.8,25.42,SSE,158,4.3,4.5,15,0.00,,---,0.00,VWS V14.01,2013-04-21 11:14:00,
2013-04-21 06:15:00,54.7,8.0,25.42,SSE,158,3.6,4.3,15,0.00,,---,0.00,VWS V14.01,2013-04-21 11:15:00,
2013-04-21 06:16:00,54.9,8.1,25.42,SSE,158,4.3,4.3,15,0.00,,---,0.00,VWS V14.01,2013-04-21 11:16:00,
2013-04-21 06:17:00,55.2,8.4,25.42,SSE,158,3.4,4.3,15,0.00,,---,0.00,VWS V14.01,2013-04-21 11:17:00,
2013-04-21 06:18:00,55.2,8.4,25.42,SSE,158,4.7,4.7,15,0.00,,---,0.00,VWS V14.01,2013-04-21 11:18:00,
2013-04-21 06:19:00,55.8,8.8,25.42,SSE,158,4.5,4.7,15,0.00,,---,0.00,VWS V14.01,2013-04-21 11:19:00,
2013-04-21 06:20:00,55.8,8.8,25.42,SSW,202,2.0,4.5,15,0.00,,---,0.00,VWS V14.01,2013-04-21 11:20:00,
2013-04-21 06:22:00,55.8,8.8,25.42,South,180,2.7,3.1,15,0.00,,---,0.00,VWS V14.01,2013-04-21 11:22:00,
2013-04-21 06:23:00,56.5,9.4,25.42,South,180,2.9,2.9,15,0.00,,---,0.00,VWS V14.01,2013-04-21 11:23:00,
2013-04-21 06:24:00,56.7,9.6,25.39,SSW,202,2.5,3.1,15,0.00,,---,0.00,VWS V14.01,2013-04-21 11:24:00,
2013-04-21 06:25:00,56.7,9.6,25.39,SSW,202,2.2,2.5,15,0.00,,---,0.00,VWS V14.01,2013-04-21 11:25:00,
2013-04-21 06:26:00,56.5,9.4,25.39,South,180,3.4,3.4,15,0.00,,---,0.00,VWS V14.01,2013-04-21 11:26:00,
2013-04-21 06:27:00,56.5,9.4,25.39,South,180,2.9,3.6,15,0.00,,---,0.00,VWS V14.01,2013-04-21 11:27:00,
2013-04-21 06:28:00,55.9,11.8,25.39,SSW,202,2.7,2.9,17,0.00,,---,0.00,VWS V14.01,2013-04-21 11:28:00,
2013-04-21 06:29:00,55.9,11.8,25.39,SSW,202,1.6,2.7,17,0.00,,---,0.00,VWS V14.01,2013-04-21 11:29:00,
2013-04-21 06:30:00,56.1,11.9,25.39,SSW,202,2.5,2.5,17,0.00,,---,0.00,VWS V14.01,2013-04-21 11:30:00,
2013-04-21 06:31:00,56.1,11.9,25.39,SSW,202,2.5,2.7,17,0.00,,---,0.00,VWS V14.01,2013-04-21 11:31:00,
2013-04-21 06:32:00,56.3,12.1,25.39,South,180,2.9,3.6,17,0.00,,---,0.00,VWS V14.01,2013-04-21 11:32:00,
2013-04-21 06:33:00,56.1,11.9,25.39,SSW,202,2.9,2.9,17,0.00,,---,0.00,VWS V14.01,2013-04-21 11:33:00,
2013-04-21 06:35:00,55.9,11.8,25.39,South,180,2.5,3.1,17,0.00,,---,0.00,VWS V14.01,2013-04-21 11:35:00,
2013-04-21 06:36:00,55.2,12.5,25.39,South,180,2.7,2.9,18,0.00,,---,0.00,VWS V14.01,2013-04-21 11:36:00,
2013-04-21 06:37:00,55.2,12.5,25.39,SSW,202,3.1,3.4,18,0.00,,---,0.00,VWS V14.01,2013-04-21 11:37:00,
2013-04-21 06:38:00,55.2,12.5,25.39,South,180,2.9,3.1,18,0.00,,---,0.00,VWS V14.01,2013-04-21 11:38:00,
2013-04-21 06:39:00,55.2,12.5,25.42,SSW,202,2.9,2.9,18,0.00,,---,0.00,VWS V14.01,2013-04-21 11:39:00,
2013-04-21 06:40:00,55.2,12.5,25.42,South,180,2.9,2.9,18,0.00,,---,0.00,VWS V14.01,2013-04-21 11:40:00,
2013-04-21 06:41:00,55.2,12.5,25.42,South,180,2.9,2.9,18,0.00,,---,0.00,VWS V14.01,2013-04-21 11:41:00,
2013-04-21 06:42:00,55.4,11.3,25.42,South,180,2.7,4.3,17,0.00,,---,0.00,VWS V14.01,2013-04-21 11:42:00,
2013-04-21 06:43:00,55.4,11.3,25.42,South,180,2.5,3.8,17,0.00,,---,0.00,VWS V14.01,2013-04-21 11:43:00,
2013-04-21 06:44:00,55.2,12.5,25.42,South,180,3.4,4.0,18,0.00,,---,0.00,VWS V14.01,2013-04-21 11:44:00,
2013-04-21 06:45:00,55.2,12.5,25.42,South,180,2.9,3.4,18,0.00,,---,0.00,VWS V14.01,2013-04-21 11:45:00,
2013-04-21 06:46:00,55.2,12.5,25.42,South,180,3.1,3.1,18,0.00,,---,0.00,VWS V14.01,2013-04-21 11:46:00,
2013-04-21 06:47:00,54.9,12.2,25.42,South,180,3.6,4.0,18,0.00,,---,0.00,VWS V14.01,2013-04-21 11:47:00,
2013-04-21 06:48:00,55.0,12.3,25.42,SSE,158,4.3,4.3,18,0.00,,---,0.00,VWS V14.01,2013-04-21 11:48:00,
2013-04-21 06:49:00,55.0,12.3,25.42,South,180,4.3,4.3,18,0.00,,---,0.00,VWS V14.01,2013-04-21 11:49:00,
2013-04-21 06:50:00,55.0,12.3,25.42,SSE,158,4.3,4.7,18,0.00,,---,0.00,VWS V14.01,2013-04-21 11:50:00,
2013-04-21 06:51:00,55.9,11.8,25.42,SSE,158,3.4,3.4,17,0.00,,---,0.00,VWS V14.01,2013-04-21 11:51:00,
2013-04-21 06:52:00,55.9,11.8,25.42,SSE,158,4.0,4.9,17,0.00,,---,0.00,VWS V14.01,2013-04-21 11:52:00,
2013-04-21 06:53:00,56.1,11.9,25.42,SSE,158,4.0,4.9,17,0.00,,---,0.00,VWS V14.01,2013-04-21 11:53:00,
2013-04-21 06:54:00,56.1,11.9,25.45,South,180,5.4,5.6,17,0.00,,---,0.00,VWS V14.01,2013-04-21 11:54:00,
2013-04-21 06:55:00,56.1,11.9,25.45,South,180,3.1,6.0,17,0.00,,---,0.00,VWS V14.01,2013-04-21 11:55:00,
2013-04-21 06:56:00,56.7,12.4,25.45,South,180,2.5,3.1,17,0.00,,---,0.00,VWS V14.01,2013-04-21 11:56:00,
2013-04-21 06:57:00,56.5,12.2,25.45,SSE,158,4.3,4.3,17,0.00,,---,0.00,VWS V14.01,2013-04-21 11:57:00,
2013-04-21 06:58:00,56.7,12.4,25.45,SSE,158,5.4,5.4,17,0.00,,---,0.00,VWS V14.01,2013-04-21 11:58:00,
2013-04-21 06:59:00,57.2,12.8,25.45,South,180,3.1,5.6,17,0.00,,---,0.00,VWS V14.01,2013-04-21 11:59:00,
2013-04-21 07:00:00,57.2,12.8,25.45,South,180,2.5,3.1,17,0.00,,---,0.00,VWS V14.01,2013-04-21 12:00:00,
2013-04-21 07:01:00,57.2,12.8,25.45,South,180,2.5,2.7,17,0.00,,---,0.00,VWS V14.01,2013-04-21 12:01:00,
2013-04-21 07:02:00,57.2,12.8,25.45,South,180,2.0,2.5,17,0.00,,---,0.00,VWS V14.01,2013-04-21 12:02:00,
2013-04-21 07:03:00,57.6,13.1,25.45,South,180,1.6,2.9,17,0.00,,---,0.00,VWS V14.01,2013-04-21 12:03:00,
2013-04-21 07:04:00,57.6,13.1,25.45,SSE,158,3.1,3.8,17,0.00,,---,0.00,VWS V14.01,2013-04-21 12:04:00,
2013-04-21 07:05:00,58.1,13.5,25.45,South,180,2.2,3.4,17,0.00,,---,0.00,VWS V14.01,2013-04-21 12:05:00,
2013-04-21 07:06:00,58.1,13.5,25.45,South,180,2.5,2.5,17,0.00,,---,0.00,VWS V14.01,2013-04-21 12:06:00,
2013-04-21 07:07:00,58.8,14.1,25.45,South,180,2.5,2.5,17,0.00,,---,0.00,VWS V14.01,2013-04-21 12:07:00,
2013-04-21 07:08:00,58.8,14.1,25.45,South,180,1.1,2.5,17,0.00,,---,0.00,VWS V14.01,2013-04-21 12:08:00,
2013-04-21 07:09:00,58.8,14.1,25.48,South,180,1.1,1.1,17,0.00,,---,0.00,VWS V14.01,2013-04-21 12:09:00,
2013-04-21 07:10:00,58.8,14.1,25.48,South,180,1.3,1.3,17,0.00,,---,0.00,VWS V14.01,2013-04-21 12:10:00,
2013-04-21 07:11:00,58.8,14.1,25.48,South,180,1.6,1.6,17,0.00,,---,0.00,VWS V14.01,2013-04-21 12:11:00,
2013-04-21 07:12:00,58.8,14.1,25.48,South,180,1.3,2.0,17,0.00,,---,0.00,VWS V14.01,2013-04-21 12:12:00,
2013-04-21 07:13:00,58.8,14.1,25.48,South,180,1.3,1.3,17,0.00,,---,0.00,VWS V14.01,2013-04-21 12:13:00,
2013-04-21 07:14:00,59.7,14.9,25.48,South,180,2.5,2.5,17,0.00,,---,0.00,VWS V14.01,2013-04-21 12:14:00,
2013-04-21 07:15:00,59.5,14.7,25.48,South,180,3.1,3.1,17,0.00,,---,0.00,VWS V14.01,2013-04-21 12:15:00,
2013-04-21 07:16:00,59.7,14.9,25.48,South,180,2.7,3.4,17,0.00,,---,0.00,VWS V14.01,2013-04-21 12:16:00,
2013-04-21 07:17:00,59.7,14.9,25.48,SSW,202,2.7,2.7,17,0.00,,---,0.00,VWS V14.01,2013-04-21 12:17:00,
2013-04-21 07:18:00,59.7,14.9,25.48,South,180,3.1,3.1,17,0.00,,---,0.00,VWS V14.01,2013-04-21 12:18:00,
2013-04-21 07:19:00,59.4,14.6,25.48,South,180,3.1,3.4,17,0.00,,---,0.00,VWS V14.01,2013-04-21 12:19:00,
2013-04-21 07:20:00,59.5,14.7,25.48,South,180,3.1,3.4,17,0.00,,---,0.00,VWS V14.01,2013-04-21 12:20:00,
2013-04-21 07:21:00,59.7,14.9,25.48,South,180,2.9,3.4,17,0.00,,---,0.00,VWS V14.01,2013-04-21 12:21:00,
2013-04-21 07:22:00,60.1,15.1,25.48,SSW,202,1.6,2.9,17,0.00,,---,0.00,VWS V14.01,2013-04-21 12:22:00,
2013-04-21 07:23:00,60.4,15.4,25.48,South,180,2.2,2.7,17,0.00,,---,0.00,VWS V14.01,2013-04-21 12:23:00,
2013-04-21 07:24:00,60.8,14.4,25.48,SSE,158,3.6,3.8,16,0.00,,---,0.00,VWS V14.01,2013-04-21 12:24:00,
2013-04-21 07:25:00,61.0,14.5,25.48,SSE,158,3.6,3.8,16,0.00,,---,0.00,VWS V14.01,2013-04-21 12:25:00,
2013-04-21 07:26:00,61.3,14.8,25.48,SSE,158,3.6,3.8,16,0.00,,---,0.00,VWS V14.01,2013-04-21 12:26:00,
2013-04-21 07:27:00,61.5,14.9,25.48,SSE,158,4.0,4.0,16,0.00,,---,0.00,VWS V14.01,2013-04-21 12:27:00,
2013-04-21 07:28:00,61.7,15.1,25.48,South,180,3.4,4.0,16,0.00,,---,0.00,VWS V14.01,2013-04-21 12:28:00,
2013-04-21 07:29:00,61.9,15.2,25.48,South,180,2.5,3.4,16,0.00,,---,0.00,VWS V14.01,2013-04-21 12:29:00,
2013-04-21 07:30:00,61.7,15.1,25.48,South,180,2.0,3.1,16,0.00,,---,0.00,VWS V14.01,2013-04-21 12:30:00,
2013-04-21 07:31:00,61.7,15.1,25.48,South,180,2.9,3.1,16,0.00,,---,0.00,VWS V14.01,2013-04-21 12:31:00,
2013-04-21 07:32:00,61.7,15.1,25.48,South,180,3.1,3.6,16,0.00,,---,0.00,VWS V14.01,2013-04-21 12:32:00,
2013-04-21 07:33:00,61.7,15.1,25.48,South,180,3.4,4.0,16,0.00,,---,0.00,VWS V14.01,2013-04-21 12:33:00,
2013-04-21 07:34:00,61.7,15.1,25.48,South,180,1.6,3.4,16,0.00,,---,0.00,VWS V14.01,2013-04-21 12:34:00,
2013-04-21 07:35:00,61.9,15.2,25.48,SSW,202,3.4,3.4,16,0.00,,---,0.00,VWS V14.01,2013-04-21 12:35:00,
2013-04-21 07:36:00,61.9,15.2,25.48,SSW,202,2.5,3.4,16,0.00,,---,0.00,VWS V14.01,2013-04-21 12:36:00,
2013-04-21 07:37:00,61.7,15.1,25.48,SSW,202,2.7,2.9,16,0.00,,---,0.00,VWS V14.01,2013-04-21 12:37:00,
2013-04-21 07:38:00,61.7,15.1,25.48,SSW,202,1.3,1.3,16,0.00,,---,0.00,VWS V14.01,2013-04-21 12:38:00,
2013-04-21 07:39:00,61.7,15.1,25.48,SSW,202,1.6,1.6,16,0.00,,---,0.00,VWS V14.01,2013-04-21 12:39:00,
2013-04-21 07:40:00,61.7,15.1,25.48,SSW,202,1.6,1.6,16,0.00,,---,0.00,VWS V14.01,2013-04-21 12:40:00,
2013-04-21 07:41:00,61.9,15.2,25.48,SW,225,2.5,2.5,16,0.00,,---,0.00,VWS V14.01,2013-04-21 12:41:00,
2013-04-21 07:42:00,62.2,15.5,25.48,SW,225,2.5,2.7,16,0.00,,---,0.00,VWS V14.01,2013-04-21 12:42:00,
2013-04-21 07:43:00,62.6,15.8,25.48,SSW,202,2.5,2.5,16,0.00,,---,0.00,VWS V14.01,2013-04-21 12:43:00,
2013-04-21 07:44:00,63.0,16.1,25.48,SSW,202,2.7,2.7,16,0.00,,---,0.00,VWS V14.01,2013-04-21 12:44:00,
2013-04-21 07:45:00,63.0,16.1,25.48,SW,225,2.5,2.7,16,0.00,,---,0.00,VWS V14.01,2013-04-21 12:45:00,
2013-04-21 07:47:00,63.1,16.2,25.48,SW,225,2.7,2.7,16,0.00,,---,0.00,VWS V14.01,2013-04-21 12:47:00,
2013-04-21 07:48:00,63.5,16.5,25.48,SSW,202,1.1,2.7,16,0.00,,---,0.00,VWS V14.01,2013-04-21 12:48:00,
2013-04-21 07:49:00,63.7,16.7,25.48,WSW,248,1.6,3.1,16,0.00,,---,0.00,VWS V14.01,2013-04-21 12:49:00,
2013-04-21 07:50:00,63.9,16.8,25.48,SW,225,2.5,2.5,16,0.00,,---,0.00,VWS V14.01,2013-04-21 12:50:00,
2013-04-21 07:51:00,64.0,17.0,25.48,SW,225,2.9,2.9,16,0.00,,---,0.00,VWS V14.01,2013-04-21 12:51:00,
2013-04-21 07:52:00,64.4,15.8,25.48,SW,225,2.7,3.1,15,0.00,,---,0.00,VWS V14.01,2013-04-21 12:52:00,
2013-04-21 07:54:00,64.4,15.8,25.48,SW,225,2.7,2.9,15,0.00,,---,0.00,VWS V14.01,2013-04-21 12:54:00,
2013-04-21 07:55:00,64.8,16.1,25.48,SW,225,2.7,2.9,15,0.00,,---,0.00,VWS V14.01,2013-04-21 12:55:00,
2013-04-21 07:56:00,64.8,16.1,25.48,SW,225,3.4,3.4,15,0.00,,---,0.00,VWS V14.01,2013-04-21 12:56:00,
2013-04-21 07:57:00,65.3,16.5,25.48,SSW,202,3.4,4.3,15,0.00,,---,0.00,VWS V14.01,2013-04-21 12:57:00,
2013-04-21 07:58:00,65.3,16.5,25.48,SW,225,2.7,3.4,15,0.00,,---,0.00,VWS V14.01,2013-04-21 12:58:00,
2013-04-21 07:59:00,65.3,16.5,25.48,SW,225,2.9,3.4,15,0.00,,---,0.00,VWS V14.01,2013-04-21 12:59:00,
2013-04-21 08:00:00,65.7,16.8,25.48,SSW,202,2.0,2.9,15,0.00,,---,0.00,VWS V14.01,2013-04-21 13:00:00,
2013-04-21 08:01:00,65.8,16.9,25.48,SW,225,3.1,3.1,15,0.00,,---,0.00,VWS V14.01,2013-04-21 13:01:00,
2013-04-21 08:02:00,65.8,16.9,25.48,SW,225,3.6,3.6,15,0.00,,---,0.00,VWS V14.01,2013-04-21 13:02:00,
2013-04-21 08:03:00,65.8,16.9,25.48,SW,225,2.5,3.6,15,0.00,,---,0.00,VWS V14.01,2013-04-21 13:03:00,
2013-04-21 08:04:00,66.2,17.2,25.48,West,270,3.6,3.6,15,0.00,,---,0.00,VWS V14.01,2013-04-21 13:04:00,
2013-04-21 08:05:00,66.2,17.2,25.48,SW,225,1.6,4.0,15,0.00,,---,0.00,VWS V14.01,2013-04-21 13:05:00,
2013-04-21 08:06:00,66.4,17.4,25.48,SW,225,2.9,2.9,15,0.00,,---,0.00,VWS V14.01,2013-04-21 13:06:00,
2013-04-21 08:07:00,66.6,17.5,25.48,SW,225,2.7,4.0,15,0.00,,---,0.00,VWS V14.01,2013-04-21 13:07:00,
2013-04-21 08:08:00,66.6,17.5,25.48,SW,225,2.7,2.9,15,0.00,,---,0.00,VWS V14.01,2013-04-21 13:08:00,
2013-04-21 08:09:00,66.6,17.5,25.48,SW,225,1.3,4.5,15,0.00,,---,0.00,VWS V14.01,2013-04-21 13:09:00,
2013-04-21 08:10:00,66.7,17.6,25.48,SW,225,1.6,2.5,15,0.00,,---,0.00,VWS V14.01,2013-04-21 13:10:00,
2013-04-21 08:11:00,66.6,17.5,25.48,SW,225,2.7,2.9,15,0.00,,---,0.00,VWS V14.01,2013-04-21 13:11:00,
2013-04-21 08:12:00,66.7,17.6,25.48,SW,225,2.7,3.6,15,0.00,,---,0.00,VWS V14.01,2013-04-21 13:12:00,
2013-04-21 08:13:00,66.9,17.8,25.48,SW,225,2.9,3.4,15,0.00,,---,0.00,VWS V14.01,2013-04-21 13:13:00,
2013-04-21 08:14:00,66.9,17.8,25.48,SW,225,2.9,2.9,15,0.00,,---,0.00,VWS V14.01,2013-04-21 13:14:00,
2013-04-21 08:15:00,67.6,18.4,25.48,WSW,248,2.5,3.8,15,0.00,,---,0.00,VWS V14.01,2013-04-21 13:15:00,
2013-04-21 08:16:00,68.0,18.7,25.48,West,270,2.5,2.7,15,0.00,,---,0.00,VWS V14.01,2013-04-21 13:16:00,
2013-04-21 08:17:00,68.0,18.7,25.48,West,270,2.7,3.6,15,0.00,,---,0.00,VWS V14.01,2013-04-21 13:17:00,
2013-04-21 08:18:00,68.2,18.8,25.48,West,270,1.6,3.1,15,0.00,,---,0.00,VWS V14.01,2013-04-21 13:18:00,
2013-04-21 08:19:00,68.2,18.8,25.48,West,270,3.4,4.0,15,0.00,,---,0.00,VWS V14.01,2013-04-21 13:19:00,
2013-04-21 08:20:00,68.4,19.0,25.48,WNW,292,2.7,4.9,15,0.00,,---,0.00,VWS V14.01,2013-04-21 13:20:00,
2013-04-21 08:21:00,68.5,19.1,25.48,WNW,292,2.9,3.8,15,0.00,,---,0.00,VWS V14.01,2013-04-21 13:21:00,
2013-04-21 08:22:00,68.9,19.4,25.48,WNW,292,2.2,3.6,15,0.00,,---,0.00,VWS V14.01,2013-04-21 13:22:00,
2013-04-21 08:23:00,69.1,19.5,25.48,WSW,248,0.0,2.2,15,0.00,,---,0.00,VWS V14.01,2013-04-21 13:23:00,
2013-04-21 08:24:00,69.1,19.5,25.45,WSW,248,2.7,2.7,15,0.00,,---,0.00,VWS V14.01,2013-04-21 13:24:00,
2013-04-21 08:25:00,69.1,19.5,25.45,WSW,248,3.4,3.4,15,0.00,,---,0.00,VWS V14.01,2013-04-21 13:25:00,
2013-04-21 08:26:00,68.9,19.4,25.45,WSW,248,2.5,3.4,15,0.00,,---,0.00,VWS V14.01,2013-04-21 13:26:00,
2013-04-21 08:27:00,69.1,19.5,25.45,WNW,292,2.7,3.1,15,0.00,,---,0.00,VWS V14.01,2013-04-21 13:27:00,
2013-04-21 08:28:00,69.4,19.8,25.45,WNW,292,2.0,2.7,15,0.00,,---,0.00,VWS V14.01,2013-04-21 13:28:00,
2013-04-21 08:29:00,69.6,20.0,25.45,WNW,292,3.1,3.6,15,0.00,,---,0.00,VWS V14.01,2013-04-21 13:29:00,
2013-04-21 08:30:00,70.3,18.9,25.45,WNW,292,4.0,4.0,14,0.00,,---,0.00,VWS V14.01,2013-04-21 13:30:00,
2013-04-21 08:31:00,70.3,18.9,25.45,WNW,292,2.9,4.0,14,0.00,,---,0.00,VWS V14.01,2013-04-21 13:31:00,
2013-04-21 08:32:00,70.5,19.1,25.45,NW,315,1.1,2.9,14,0.00,,---,0.00,VWS V14.01,2013-04-21 13:32:00,
2013-04-21 08:33:00,70.7,19.2,25.45,WNW,292,2.7,2.9,14,0.00,,---,0.00,VWS V14.01,2013-04-21 13:33:00,
2013-04-21 08:34:00,70.9,19.4,25.45,West,270,2.0,2.7,14,0.00,,---,0.00,VWS V14.01,2013-04-21 13:34:00,
2013-04-21 08:35:00,70.9,19.4,25.45,NW,315,2.5,2.5,14,0.00,,---,0.00,VWS V14.01,2013-04-21 13:35:00,
2013-04-21 08:36:00,70.9,19.4,25.45,NW,315,1.6,2.5,14,0.00,,---,0.00,VWS V14.01,2013-04-21 13:36:00,
2013-04-21 08:37:00,71.4,19.8,25.45,NW,315,3.1,3.1,14,0.00,,---,0.00,VWS V14.01,2013-04-21 13:37:00,
2013-04-21 08:38:00,71.6,19.9,25.45,WNW,292,2.9,3.8,14,0.00,,---,0.00,VWS V14.01,2013-04-21 13:38:00,
2013-04-21 08:39:00,71.6,19.9,25.45,WNW,292,1.1,3.1,14,0.00,,---,0.00,VWS V14.01,2013-04-21 13:39:00,
2013-04-21 08:40:00,71.6,19.9,25.45,WNW,292,2.5,2.5,14,0.00,,---,0.00,VWS V14.01,2013-04-21 13:40:00,
2013-04-21 08:41:00,71.6,19.9,25.45,ENE,68,2.0,2.5,14,0.00,,---,0.00,VWS V14.01,2013-04-21 13:41:00,
2013-04-21 08:42:00,71.8,20.1,25.45,North,0,3.6,3.6,14,0.00,,---,0.00,VWS V14.01,2013-04-21 13:42:00,
2013-04-21 08:43:00,72.0,20.2,25.45,NE,45,2.7,3.6,14,0.00,,---,0.00,VWS V14.01,2013-04-21 13:43:00,
2013-04-21 08:44:00,72.1,20.4,25.45,NW,315,2.0,2.7,14,0.00,,---,0.00,VWS V14.01,2013-04-21 13:44:00,
2013-04-21 08:45:00,72.3,20.5,25.45,WNW,292,3.1,3.8,14,0.00,,---,0.00,VWS V14.01,2013-04-21 13:45:00,
2013-04-21 08:46:00,72.1,20.4,25.45,WNW,292,4.7,4.7,14,0.00,,---,0.00,VWS V14.01,2013-04-21 13:46:00,
2013-04-21 08:47:00,72.1,20.4,25.45,West,270,4.3,4.7,14,0.00,,---,0.00,VWS V14.01,2013-04-21 13:47:00,
2013-04-21 08:48:00,71.8,20.1,25.45,NW,315,3.4,4.3,14,0.00,,---,0.00,VWS V14.01,2013-04-21 13:48:00,
2013-04-21 08:49:00,72.0,20.2,25.45,West,270,2.0,3.6,14,0.00,,---,0.00,VWS V14.01,2013-04-21 13:49:00,
2013-04-21 08:50:00,72.0,20.2,25.45,NW,315,2.7,3.8,14,0.00,,---,0.00,VWS V14.01,2013-04-21 13:50:00,
2013-04-21 08:51:00,72.1,20.4,25.45,West,270,2.5,3.1,14,0.00,,---,0.00,VWS V14.01,2013-04-21 13:51:00,
2013-04-21 08:52:00,72.1,20.4,25.45,West,270,1.3,2.9,14,0.00,,---,0.00,VWS V14.01,2013-04-21 13:52:00,
2013-04-21 08:53:00,72.5,20.6,25.45,West,270,2.0,2.5,14,0.00,,---,0.00,VWS V14.01,2013-04-21 13:53:00,
2013-04-21 08:54:00,72.9,20.9,25.48,WNW,292,1.1,2.0,14,0.00,,---,0.00,VWS V14.01,2013-04-21 13:54:00,
2013-04-21 08:55:00,73.0,21.1,25.48,North,0,2.9,2.9,14,0.00,,---,0.00,VWS V14.01,2013-04-21 13:55:00,
2013-04-21 08:56:00,73.4,19.6,25.48,NNE,22,1.6,2.9,13,0.00,,---,0.00,VWS V14.01,2013-04-21 13:56:00,
2013-04-21 08:57:00,73.6,19.8,25.48,NNW,338,2.7,2.7,13,0.00,,---,0.00,VWS V14.01,2013-04-21 13:57:00,
2013-04-21 08:58:00,73.8,19.9,25.48,NW,315,3.1,3.8,13,0.00,,---,0.00,VWS V14.01,2013-04-21 13:58:00,
2013-04-21 08:59:00,73.9,20.0,25.48,NW,315,3.4,3.4,13,0.00,,---,0.00,VWS V14.01,2013-04-21 13:59:00,
2013-04-21 09:01:00,73.9,20.0,25.48,NW,315,5.8,7.8,13,0.00,,---,0.00,VWS V14.01,2013-04-21 14:01:00,
2013-04-21 09:02:00,73.6,19.8,25.48,NW,315,6.3,8.5,13,0.00,,---,0.00,VWS V14.01,2013-04-21 14:02:00,
2013-04-21 09:03:00,73.4,19.6,25.48,NNW,338,10.1,10.1,13,0.00,,---,0.00,VWS V14.01,2013-04-21 14:03:00,
2013-04-21 09:04:00,72.7,20.8,25.48,NNW,338,6.0,10.5,14,0.00,,---,0.00,VWS V14.01,2013-04-21 14:04:00,
2013-04-21 09:05:00,72.7,20.8,25.48,NW,315,5.8,8.1,14,0.00,,---,0.00,VWS V14.01,2013-04-21 14:05:00,
2013-04-21 09:06:00,72.7,20.8,25.48,NNW,338,4.9,6.0,14,0.00,,---,0.00,VWS V14.01,2013-04-21 14:06:00,
2013-04-21 09:07:00,72.9,20.9,25.48,NNW,338,6.5,6.5,14,0.00,,---,0.00,VWS V14.01,2013-04-21 14:07:00,
2013-04-21 09:08:00,72.9,20.9,25.48,NNW,338,7.6,8.7,14,0.00,,---,0.00,VWS V14.01,2013-04-21 14:08:00,
2013-04-21 09:09:00,72.9,20.9,25.48,NW,315,5.6,8.5,14,0.00,,---,0.00,VWS V14.01,2013-04-21 14:09:00,
2013-04-21 09:10:00,72.9,20.9,25.48,NW,315,6.0,6.0,14,0.00,,---,0.00,VWS V14.01,2013-04-21 14:10:00,
2013-04-21 09:11:00,73.0,21.1,25.48,North,0,6.5,6.9,14,0.00,,---,0.00,VWS V14.01,2013-04-21 14:11:00,
2013-04-21 09:12:00,73.0,21.1,25.48,North,0,6.5,6.5,14,0.00,,---,0.00,VWS V14.01,2013-04-21 14:12:00,
2013-04-21 09:13:00,73.0,21.1,25.48,North,0,10.5,10.5,14,0.00,,---,0.00,VWS V14.01,2013-04-21 14:13:00,
2013-04-21 09:14:00,72.7,20.8,25.48,North,0,7.8,10.5,14,0.00,,---,0.00,VWS V14.01,2013-04-21 14:14:00,
2013-04-21 09:15:00,72.7,20.8,25.48,NNW,338,7.8,7.8,14,0.00,,---,0.00,VWS V14.01,2013-04-21 14:15:00,
2013-04-21 09:16:00,72.7,20.8,25.48,North,0,8.7,10.7,14,0.00,,---,0.00,VWS V14.01,2013-04-21 14:16:00,
2013-04-21 09:17:00,72.5,20.6,25.48,North,0,8.5,11.0,14,0.00,,---,0.00,VWS V14.01,2013-04-21 14:17:00,
2013-04-21 09:18:00,72.5,20.6,25.48,NNW,338,7.2,8.7,14,0.00,,---,0.00,VWS V14.01,2013-04-21 14:18:00,
2013-04-21 09:19:00,72.7,20.8,25.48,NNW,338,8.7,8.7,14,0.00,,---,0.00,VWS V14.01,2013-04-21 14:19:00,
2013-04-21 09:20:00,72.9,20.9,25.48,WNW,292,8.5,9.6,14,0.00,,---,0.00,VWS V14.01,2013-04-21 14:20:00,
2013-04-21 09:21:00,72.5,20.6,25.48,NNW,338,8.1,9.6,14,0.00,,---,0.00,VWS V14.01,2013-04-21 14:21:00,
2013-04-21 09:22:00,72.7,20.8,25.48,NNW,338,5.8,8.1,14,0.00,,---,0.00,VWS V14.01,2013-04-21 14:22:00,
2013-04-21 09:23:00,73.0,21.1,25.48,NNW,338,6.0,8.7,14,0.00,,---,0.00,VWS V14.01,2013-04-21 14:23:00,
2013-04-21 09:24:00,73.0,21.1,25.45,North,0,8.7,8.7,14,0.00,,---,0.00,VWS V14.01,2013-04-21 14:24:00,
2013-04-21 09:25:00,72.9,20.9,25.45,NNW,338,10.3,10.7,14,0.00,,---,0.00,VWS V14.01,2013-04-21 14:25:00,
2013-04-21 09:26:00,73.0,21.1,25.45,NW,315,6.3,10.3,14,0.00,,---,0.00,VWS V14.01,2013-04-21 14:26:00,
2013-04-21 09:27:00,73.2,21.2,25.45,NNW,338,8.5,8.5,14,0.00,,---,0.00,VWS V14.01,2013-04-21 14:27:00,
2013-04-21 09:28:00,73.4,19.6,25.45,NNW,338,6.3,8.5,13,0.00,,---,0.00,VWS V14.01,2013-04-21 14:28:00,
2013-04-21 09:29:00,73.6,19.8,25.45,NNW,338,9.2,9.2,13,0.00,,---,0.00,VWS V14.01,2013-04-21 14:29:00,
2013-04-21 09:30:00,73.6,19.8,25.45,NNW,338,9.2,11.0,13,0.00,,---,0.00,VWS V14.01,2013-04-21 14:30:00,
2013-04-21 09:31:00,73.2,21.2,25.45,NNW,338,7.8,10.5,14,0.00,,---,0.00,VWS V14.01,2013-04-21 14:31:00,
2013-04-21 09:32:00,73.4,19.6,25.45,North,0,7.4,8.1,13,0.00,,---,0.00,VWS V14.01,2013-04-21 14:32:00,
2013-04-21 09:33:00,73.6,19.8,25.45,NNE,22,5.4,11.0,13,0.00,,---,0.00,VWS V14.01,2013-04-21 14:33:00,
2013-04-21 09:34:00,73.6,19.8,25.45,NNE,22,8.7,9.6,13,0.00,,---,0.00,VWS V14.01,2013-04-21 14:34:00,
2013-04-21 09:35:00,73.8,19.9,25.45,NNW,338,10.1,11.9,13,0.00,,---,0.00,VWS V14.01,2013-04-21 14:35:00,
2013-04-21 09:36:00,73.8,19.9,25.45,North,0,10.1,10.5,13,0.00,,---,0.00,VWS V14.01,2013-04-21 14:36:00,
2013-04-21 09:37:00,73.6,19.8,25.45,NNE,22,12.5,12.5,13,0.00,,---,0.00,VWS V14.01,2013-04-21 14:37:00,
2013-04-21 09:38:00,73.6,19.8,25.45,NNW,338,8.7,12.5,13,0.00,,---,0.00,VWS V14.01,2013-04-21 14:38:00,
2013-04-21 09:39:00,73.8,19.9,25.45,NNW,338,5.8,8.7,13,0.00,,---,0.00,VWS V14.01,2013-04-21 14:39:00,
2013-04-21 09:40:00,73.8,19.9,25.45,NNW,338,11.0,11.0,13,0.00,,---,0.00,VWS V14.01,2013-04-21 14:40:00,
2013-04-21 09:41:00,73.9,20.0,25.45,NNW,338,6.5,11.0,13,0.00,,---,0.00,VWS V14.01,2013-04-21 14:41:00,
2013-04-21 09:42:00,74.3,20.3,25.45,North,0,7.4,7.8,13,0.00,,---,0.00,VWS V14.01,2013-04-21 14:42:00,
2013-04-21 09:43:00,74.5,20.5,25.45,NNW,338,10.7,10.7,13,0.00,,---,0.00,VWS V14.01,2013-04-21 14:43:00,
2013-04-21 09:44:00,74.5,20.5,25.45,North,0,6.0,10.7,13,0.00,,---,0.00,VWS V14.01,2013-04-21 14:44:00,
2013-04-21 09:45:00,74.7,20.6,25.45,NW,315,7.6,8.1,13,0.00,,---,0.00,VWS V14.01,2013-04-21 14:45:00,
2013-04-21 09:46:00,74.3,20.3,25.45,NNW,338,8.7,10.5,13,0.00,,---,0.00,VWS V14.01,2013-04-21 14:46:00,
2013-04-21 09:47:00,74.1,20.2,25.45,NW,315,11.0,12.1,13,0.00,,---,0.00,VWS V14.01,2013-04-21 14:47:00,
2013-04-21 09:48:00,73.9,20.0,25.45,NNW,338,8.7,8.7,13,0.00,,---,0.00,VWS V14.01,2013-04-21 14:48:00,
2013-04-21 09:49:00,74.1,20.2,25.45,NW,315,9.6,9.6,13,0.00,,---,0.00,VWS V14.01,2013-04-21 14:49:00,
2013-04-21 09:50:00,74.1,20.2,25.45,North,0,8.1,10.3,13,0.00,,---,0.00,VWS V14.01,2013-04-21 14:50:00,
2013-04-21 09:51:00,74.3,20.3,25.45,NNW,338,7.4,8.1,13,0.00,,---,0.00,VWS V14.01,2013-04-21 14:51:00,
2013-04-21 09:53:00,74.8,20.7,25.45,NNW,338,8.1,10.7,13,0.00,,---,0.00,VWS V14.01,2013-04-21 14:53:00,
2013-04-21 09:54:00,74.8,20.7,25.45,NNE,22,11.0,11.0,13,0.00,,---,0.00,VWS V14.01,2013-04-21 14:54:00,
2013-04-21 09:55:00,74.8,20.7,25.45,North,0,7.8,11.0,13,0.00,,---,0.00,VWS V14.01,2013-04-21 14:55:00,
2013-04-21 09:56:00,75.0,20.9,25.45,NNW,338,8.7,8.7,13,0.00,,---,0.00,VWS V14.01,2013-04-21 14:56:00,
2013-04-21 09:57:00,75.0,20.9,25.45,NW,315,7.6,10.5,13,0.00,,---,0.00,VWS V14.01,2013-04-21 14:57:00,
2013-04-21 09:58:00,75.0,20.9,25.45,NNW,338,6.9,8.7,13,0.00,,---,0.00,VWS V14.01,2013-04-21 14:58:00,
2013-04-21 10:00:00,75.4,21.2,25.45,North,0,10.1,10.1,13,0.00,,---,0.00,VWS V14.01,2013-04-21 15:00:00,
2013-04-21 10:01:00,75.4,21.2,25.45,North,0,11.4,11.4,13,0.00,,---,0.00,VWS V14.01,2013-04-21 15:01:00,
2013-04-21 10:02:00,75.6,21.3,25.45,NNE,22,5.8,11.4,13,0.00,,---,0.00,VWS V14.01,2013-04-21 15:02:00,
2013-04-21 10:03:00,75.6,21.3,25.45,NNE,22,7.4,10.7,13,0.00,,---,0.00,VWS V14.01,2013-04-21 15:03:00,
2013-04-21 10:04:00,75.6,21.3,25.45,NNE,22,9.6,10.7,13,0.00,,---,0.00,VWS V14.01,2013-04-21 15:04:00,
2013-04-21 10:05:00,75.7,21.5,25.45,NNW,338,7.4,9.6,13,0.00,,---,0.00,VWS V14.01,2013-04-21 15:05:00,
2013-04-21 10:06:00,75.9,21.6,25.45,NW,315,7.4,8.7,13,0.00,,---,0.00,VWS V14.01,2013-04-21 15:06:00,
2013-04-21 10:07:00,75.9,21.6,25.45,NNW,338,7.6,8.5,13,0.00,,---,0.00,VWS V14.01,2013-04-21 15:07:00,
2013-04-21 10:08:00,75.4,21.2,25.45,WNW,292,7.8,12.8,13,0.00,,---,0.00,VWS V14.01,2013-04-21 15:08:00,
2013-04-21 10:10:00,75.4,21.2,25.45,NNW,338,10.1,10.1,13,0.00,,---,0.00,VWS V14.01,2013-04-21 15:10:00,
2013-04-21 10:11:00,75.7,21.5,25.45,North,0,7.6,10.1,13,0.00,,---,0.00,VWS V14.01,2013-04-21 15:11:00,
2013-04-21 10:12:00,75.9,21.6,25.45,NNW,338,9.0,9.8,13,0.00,,---,0.00,VWS V14.01,2013-04-21 15:12:00,
2013-04-21 10:13:00,75.7,21.5,25.45,North,0,7.6,10.3,13,0.00,,---,0.00,VWS V14.01,2013-04-21 15:13:00,
2013-04-21 10:14:00,75.7,21.5,25.45,NNW,338,6.5,7.6,13,0.00,,---,0.00,VWS V14.01,2013-04-21 15:14:00,
2013-04-21 10:15:00,76.1,21.7,25.45,NNE,22,7.6,8.5,13,0.00,,---,0.00,VWS V14.01,2013-04-21 15:15:00,
2013-04-21 10:16:00,76.6,22.1,25.45,North,0,4.7,7.6,13,0.00,,---,0.00,VWS V14.01,2013-04-21 15:16:00,
2013-04-21 10:17:00,76.6,22.1,25.45,NNW,338,5.6,6.0,13,0.00,,---,0.00,VWS V14.01,2013-04-21 15:17:00,
2013-04-21 10:18:00,76.8,22.3,25.45,NW,315,9.2,9.2,13,0.00,,---,0.00,VWS V14.01,2013-04-21 15:18:00,
2013-04-21 10:19:00,77.0,22.4,25.45,NNW,338,5.4,9.2,13,0.00,,---,0.00,VWS V14.01,2013-04-21 15:19:00,
2013-04-21 10:20:00,77.0,22.4,25.45,NNW,338,5.4,5.4,13,0.00,,---,0.00,VWS V14.01,2013-04-21 15:20:00,
2013-04-21 10:21:00,77.0,22.4,25.45,NW,315,7.6,12.1,13,0.00,,---,0.00,VWS V14.01,2013-04-21 15:21:00,
2013-04-21 10:22:00,77.2,22.6,25.45,NW,315,5.6,7.6,13,0.00,,---,0.00,VWS V14.01,2013-04-21 15:22:00,
2013-04-21 10:23:00,77.2,22.6,25.45,WNW,292,4.5,8.7,13,0.00,,---,0.00,VWS V14.01,2013-04-21 15:23:00,
2013-04-21 10:24:00,77.4,22.7,25.48,WNW,292,6.0,8.5,13,0.00,,---,0.00,VWS V14.01,2013-04-21 15:24:00,
2013-04-21 10:25:00,77.5,22.9,25.48,NW,315,5.4,6.3,13,0.00,,---,0.00,VWS V14.01,2013-04-21 15:25:00,
2013-04-21 10:26:00,77.5,22.9,25.48,NNW,338,6.0,6.3,13,0.00,,---,0.00,VWS V14.01,2013-04-21 15:26:00,
2013-04-21 10:27:00,77.5,22.9,25.48,NW,315,8.5,8.5,13,0.00,,---,0.00,VWS V14.01,2013-04-21 15:27:00,
2013-04-21 10:28:00,77.5,22.9,25.48,WNW,292,5.6,8.5,13,0.00,,---,0.00,VWS V14.01,2013-04-21 15:28:00,
2013-04-21 10:29:00,77.5,22.9,25.48,West,270,5.6,6.0,13,0.00,,---,0.00,VWS V14.01,2013-04-21 15:29:00,
2013-04-21 10:30:00,77.4,22.7,25.48,West,270,5.4,5.8,13,0.00,,---,0.00,VWS V14.01,2013-04-21 15:30:00,
2013-04-21 10:31:00,78.6,23.7,25.48,North,0,2.0,6.0,13,0.00,,---,0.00,VWS V14.01,2013-04-21 15:31:00,
2013-04-21 10:32:00,78.6,23.7,25.48,North,0,6.0,7.6,13,0.00,,---,0.00,VWS V14.01,2013-04-21 15:32:00,
2013-04-21 10:33:00,78.6,23.7,25.48,NE,45,6.5,8.1,13,0.00,,---,0.00,VWS V14.01,2013-04-21 15:33:00,
2013-04-21 10:34:00,78.6,23.7,25.48,NE,45,6.5,6.5,13,0.00,,---,0.00,VWS V14.01,2013-04-21 15:34:00,
2013-04-21 10:35:00,79.3,22.4,25.48,NNW,338,2.7,6.5,12,0.00,,---,0.00,VWS V14.01,2013-04-21 15:35:00,
2013-04-21 10:36:00,79.5,22.5,25.48,NW,315,4.5,5.8,12,0.00,,---,0.00,VWS V14.01,2013-04-21 15:36:00,
2013-04-21 10:37:00,80.4,23.2,25.48,NW,315,2.9,4.5,12,0.00,,---,0.00,VWS V14.01,2013-04-21 15:37:00,
2013-04-21 10:38:00,80.4,23.2,25.48,North,0,7.8,7.8,12,0.00,,---,0.00,VWS V14.01,2013-04-21 15:38:00,
2013-04-21 10:39:00,80.6,23.4,25.48,NE,45,5.4,7.8,12,0.00,,---,0.00,VWS V14.01,2013-04-21 15:39:00,
2013-04-21 10:40:00,80.6,23.4,25.48,NNE,22,5.8,5.8,12,0.00,,---,0.00,VWS V14.01,2013-04-21 15:40:00,
2013-04-21 10:41:00,80.6,23.4,25.48,NNE,22,5.8,5.8,12,0.00,,---,0.00,VWS V14.01,2013-04-21 15:41:00,
2013-04-21 10:42:00,80.6,23.4,25.48,NE,45,10.7,10.7,12,0.00,,---,0.00,VWS V14.01,2013-04-21 15:42:00,
2013-04-21 10:43:00,80.1,22.9,25.48,NNE,22,10.3,10.3,12,0.00,,---,0.00,VWS V14.01,2013-04-21 15:43:00,
2013-04-21 10:44:00,79.7,22.6,25.48,NE,45,6.0,10.3,12,0.00,,---,0.00,VWS V14.01,2013-04-21 15:44:00,
2013-04-21 10:45:00,79.7,22.6,25.48,NE,45,4.9,6.0,12,0.00,,---,0.00,VWS V14.01,2013-04-21 15:45:00,
2013-04-21 10:46:00,79.0,22.1,25.48,ENE,68,7.6,7.8,12,0.00,,---,0.00,VWS V14.01,2013-04-21 15:46:00,
2013-04-21 10:47:00,79.2,22.2,25.48,NE,45,9.8,9.8,12,0.00,,---,0.00,VWS V14.01,2013-04-21 15:47:00,
2013-04-21 10:48:00,79.2,22.2,25.48,NE,45,10.1,10.7,12,0.00,,---,0.00,VWS V14.01,2013-04-21 15:48:00,
2013-04-21 10:49:00,79.3,22.4,25.48,NNE,22,8.5,10.1,12,0.00,,---,0.00,VWS V14.01,2013-04-21 15:49:00,
2013-04-21 10:50:00,79.3,22.4,25.48,NNE,22,8.5,8.5,12,0.00,,---,0.00,VWS V14.01,2013-04-21 15:50:00,
2013-04-21 10:51:00,79.2,22.2,25.48,NE,45,9.2,10.3,12,0.00,,---,0.00,VWS V14.01,2013-04-21 15:51:00,
2013-04-21 10:52:00,79.0,22.1,25.48,ENE,68,9.6,10.3,12,0.00,,---,0.00,VWS V14.01,2013-04-21 15:52:00,
2013-04-21 10:53:00,79.0,22.1,25.48,ENE,68,4.9,9.6,12,0.00,,---,0.00,VWS V14.01,2013-04-21 15:53:00,
2013-04-21 10:54:00,78.8,22.0,25.48,NNE,22,7.6,8.7,12,0.00,,---,0.00,VWS V14.01,2013-04-21 15:54:00,
2013-04-21 10:55:00,79.0,22.1,25.48,ENE,68,6.5,10.1,12,0.00,,---,0.00,VWS V14.01,2013-04-21 15:55:00,
2013-04-21 10:56:00,79.0,22.1,25.48,East,90,5.6,6.5,12,0.00,,---,0.00,VWS V14.01,2013-04-21 15:56:00,
2013-04-21 10:57:00,79.0,22.1,25.48,ENE,68,4.9,4.9,12,0.00,,---,0.00,VWS V14.01,2013-04-21 15:57:00,
2013-04-21 10:58:00,79.5,22.5,25.48,ENE,68,4.5,6.5,12,0.00,,---,0.00,VWS V14.01,2013-04-21 15:58:00,
2013-04-21 10:59:00,80.1,22.9,25.48,North,0,3.1,4.5,12,0.00,,---,0.00,VWS V14.01,2013-04-21 15:59:00,
2013-04-21 11:00:00,80.6,23.4,25.48,NW,315,6.3,7.8,12,0.00,,---,0.00,VWS V14.01,2013-04-21 16:00:00,
2013-04-21 11:01:00,81.1,23.8,25.48,NNW,338,5.6,6.5,12,0.00,,---,0.00,VWS V14.01,2013-04-21 16:01:00,
2013-04-21 11:02:00,81.0,23.6,25.48,NNW,338,5.8,7.8,12,0.00,,---,0.00,VWS V14.01,2013-04-21 16:02:00,
2013-04-21 11:03:00,81.1,23.8,25.48,NW,315,5.4,6.3,12,0.00,,---,0.00,VWS V14.01,2013-04-21 16:03:00,
2013-04-21 11:04:00,81.5,24.0,25.48,NW,315,3.8,7.6,12,0.00,,---,0.00,VWS V14.01,2013-04-21 16:04:00,
2013-04-21 11:05:00,81.5,24.0,25.48,West,270,6.0,6.0,12,0.00,,---,0.00,VWS V14.01,2013-04-21 16:05:00,
2013-04-21 11:06:00,81.5,24.0,25.48,West,270,5.6,6.0,12,0.00,,---,0.00,VWS V14.01,2013-04-21 16:06:00,
2013-04-21 11:07:00,81.5,24.0,25.48,WSW,248,2.2,2.5,12,0.00,,---,0.00,VWS V14.01,2013-04-21 16:07:00,
2013-04-21 11:08:00,81.7,24.2,25.48,NNE,22,3.4,3.4,12,0.00,,---,0.00,VWS V14.01,2013-04-21 16:08:00,
2013-04-21 11:09:00,82.4,22.7,25.48,North,0,8.5,8.5,11,0.00,,---,0.00,VWS V14.01,2013-04-21 16:09:00,
2013-04-21 11:10:00,82.4,22.7,25.48,NNE,22,8.5,8.5,11,0.00,,---,0.00,VWS V14.01,2013-04-21 16:10:00,
2013-04-21 11:11:00,81.5,24.0,25.48,North,0,5.6,5.6,12,0.00,,---,0.00,VWS V14.01,2013-04-21 16:11:00,
2013-04-21 11:12:00,81.9,24.3,25.48,North,0,2.7,5.8,12,0.00,,---,0.00,VWS V14.01,2013-04-21 16:12:00,
2013-04-21 11:13:00,81.7,24.2,25.48,ENE,68,6.5,6.5,12,0.00,,---,0.00,VWS V14.01,2013-04-21 16:13:00,
2013-04-21 11:14:00,81.7,24.2,25.48,NNE,22,8.7,8.7,12,0.00,,---,0.00,VWS V14.01,2013-04-21 16:14:00,
2013-04-21 11:15:00,81.7,24.2,25.48,NNE,22,7.2,8.7,12,0.00,,---,0.00,VWS V14.01,2013-04-21 16:15:00,
2013-04-21 11:16:00,81.7,24.2,25.48,NW,315,6.0,7.2,12,0.00,,---,0.00,VWS V14.01,2013-04-21 16:16:00,
2013-04-21 11:17:00,81.5,24.0,25.48,NW,315,5.8,7.2,12,0.00,,---,0.00,VWS V14.01,2013-04-21 16:17:00,
2013-04-21 11:18:00,81.9,24.3,25.48,NW,315,3.1,3.1,12,0.00,,---,0.00,VWS V14.01,2013-04-21 16:18:00,
2013-04-21 11:19:00,82.6,22.8,25.48,ESE,112,4.0,4.0,11,0.00,,---,0.00,VWS V14.01,2013-04-21 16:19:00,
2013-04-21 11:20:00,81.9,24.3,25.48,NE,45,7.6,7.8,12,0.00,,---,0.00,VWS V14.01,2013-04-21 16:20:00,
2013-04-21 11:21:00,82.6,22.8,25.48,ENE,68,2.5,3.1,11,0.00,,---,0.00,VWS V14.01,2013-04-21 16:21:00,
2013-04-21 11:22:00,82.6,22.8,25.48,ENE,68,6.7,7.8,11,0.00,,---,0.00,VWS V14.01,2013-04-21 16:22:00,
2013-04-21 11:23:00,82.8,23.0,25.48,ENE,68,5.4,6.7,11,0.00,,---,0.00,VWS V14.01,2013-04-21 16:23:00,
2013-04-21 11:24:00,82.4,22.7,25.48,East,90,5.8,5.8,11,0.00,,---,0.00,VWS V14.01,2013-04-21 16:24:00,
2013-04-21 11:25:00,82.2,24.6,25.48,East,90,5.8,6.7,12,0.00,,---,0.00,VWS V14.01,2013-04-21 16:25:00,
2013-04-21 11:26:00,82.0,24.5,25.48,East,90,7.4,7.4,12,0.00,,---,0.00,VWS V14.01,2013-04-21 16:26:00,
2013-04-21 11:27:00,81.7,24.2,25.48,East,90,4.9,7.8,12,0.00,,---,0.00,VWS V14.01,2013-04-21 16:27:00,
2013-04-21 11:28:00,82.0,24.5,25.48,ESE,112,3.8,4.9,12,0.00,,---,0.00,VWS V14.01,2013-04-21 16:28:00,
2013-04-21 11:29:00,82.0,24.5,25.48,SE,135,4.0,4.0,12,0.00,,---,0.00,VWS V14.01,2013-04-21 16:29:00,
2013-04-21 11:30:00,82.0,24.5,25.48,NW,315,1.3,4.0,12,0.00,,---,0.00,VWS V14.01,2013-04-21 16:30:00,
2013-04-21 11:31:00,84.0,23.9,25.48,SW,225,3.6,3.6,11,0.00,,---,0.00,VWS V14.01,2013-04-21 16:31:00,
2013-04-21 11:32:00,83.8,23.8,25.48,NNW,338,6.0,7.8,11,0.00,,---,0.00,VWS V14.01,2013-04-21 16:32:00,
2013-04-21 11:33:00,84.6,24.3,25.48,NNW,338,3.8,6.0,11,0.00,,---,0.00,VWS V14.01,2013-04-21 16:33:00,
2013-04-21 11:34:00,84.7,24.5,25.48,NW,315,4.9,4.9,11,0.00,,---,0.00,VWS V14.01,2013-04-21 16:34:00,
2013-04-21 11:35:00,84.7,24.5,25.48,WNW,292,6.3,6.3,11,0.00,,---,0.00,VWS V14.01,2013-04-21 16:35:00,
2013-04-21 11:36:00,85.1,24.7,25.48,NNW,338,4.3,6.3,11,0.00,,---,0.00,VWS V14.01,2013-04-21 16:36:00,
2013-04-21 11:37:00,85.1,24.7,25.48,NW,315,5.8,5.8,11,0.00,,---,0.00,VWS V14.01,2013-04-21 16:37:00,
2013-04-21 11:38:00,84.9,24.6,25.48,NNE,22,6.7,7.2,11,0.00,,---,0.00,VWS V14.01,2013-04-21 16:38:00,
2013-04-21 11:39:00,83.7,23.6,25.48,NE,45,9.0,9.8,11,0.00,,---,0.00,VWS V14.01,2013-04-21 16:39:00,
2013-04-21 11:40:00,83.1,23.2,25.48,East,90,5.8,9.0,11,0.00,,---,0.00,VWS V14.01,2013-04-21 16:40:00,
2013-04-21 11:41:00,83.3,23.4,25.48,NNE,22,8.5,8.5,11,0.00,,---,0.00,VWS V14.01,2013-04-21 16:41:00,
2013-04-21 11:42:00,83.3,23.4,25.48,ESE,112,4.0,6.5,11,0.00,,---,0.00,VWS V14.01,2013-04-21 16:42:00,
2013-04-21 11:43:00,84.0,23.9,25.48,East,90,4.9,6.5,11,0.00,,---,0.00,VWS V14.01,2013-04-21 16:43:00,
2013-04-21 11:44:00,83.5,23.5,25.48,NW,315,5.4,7.4,11,0.00,,---,0.00,VWS V14.01,2013-04-21 16:44:00,
2013-04-21 11:45:00,83.8,23.8,25.48,WNW,292,2.2,5.4,11,0.00,,---,0.00,VWS V14.01,2013-04-21 16:45:00,
2013-04-21 11:46:00,84.2,24.0,25.48,NNE,22,2.7,4.0,11,0.00,,---,0.00,VWS V14.01,2013-04-21 16:46:00,
2013-04-21 11:47:00,84.6,24.3,25.48,North,0,7.6,11.0,11,0.00,,---,0.00,VWS V14.01,2013-04-21 16:47:00,
2013-04-21 11:49:00,83.8,23.8,25.48,NNE,22,6.0,10.3,11,0.00,,---,0.00,VWS V14.01,2013-04-21 16:49:00,
2013-04-21 11:50:00,83.8,23.8,25.48,NE,45,12.1,12.1,11,0.00,,---,0.00,VWS V14.01,2013-04-21 16:50:00,
2013-04-21 11:51:00,83.8,23.8,25.48,NE,45,12.3,12.3,11,0.00,,---,0.00,VWS V14.01,2013-04-21 16:51:00,
2013-04-21 11:52:00,81.9,24.3,25.48,ENE,68,10.3,10.3,12,0.00,,---,0.00,VWS V14.01,2013-04-21 16:52:00,
2013-04-21 11:53:00,81.9,24.3,25.48,NE,45,7.6,7.6,12,0.00,,---,0.00,VWS V14.01,2013-04-21 16:53:00,
2013-04-21 11:54:00,81.9,24.3,25.48,ENE,68,4.9,8.7,12,0.00,,---,0.00,VWS V14.01,2013-04-21 16:54:00,
2013-04-21 11:55:00,81.7,24.2,25.48,NE,45,8.5,8.5,12,0.00,,---,0.00,VWS V14.01,2013-04-21 16:55:00,
2013-04-21 11:56:00,81.3,23.9,25.48,ENE,68,9.4,9.8,12,0.00,,---,0.00,VWS V14.01,2013-04-21 16:56:00,
2013-04-21 11:57:00,81.3,23.9,25.48,ENE,68,8.7,9.4,12,0.00,,---,0.00,VWS V14.01,2013-04-21 16:57:00,
2013-04-21 11:58:00,81.3,23.9,25.48,NE,45,10.7,10.7,12,0.00,,---,0.00,VWS V14.01,2013-04-21 16:58:00,
2013-04-21 11:59:00,81.3,23.9,25.48,ESE,112,12.8,12.8,12,0.00,,---,0.00,VWS V14.01,2013-04-21 16:59:00,
2013-04-21 12:00:00,79.9,22.8,25.48,ESE,112,11.0,12.8,12,0.00,,---,0.00,VWS V14.01,2013-04-21 17:00:00,
2013-04-21 12:01:00,79.9,22.8,25.48,SE,135,4.0,11.0,12,0.00,,---,0.00,VWS V14.01,2013-04-21 17:01:00,
2013-04-21 12:02:00,81.9,24.3,25.48,SSE,158,3.6,4.0,12,0.00,,---,0.00,VWS V14.01,2013-04-21 17:02:00,
2013-04-21 12:03:00,82.4,22.7,25.48,SE,135,2.7,4.3,11,0.00,,---,0.00,VWS V14.01,2013-04-21 17:03:00,
2013-04-21 12:04:00,82.0,24.5,25.48,South,180,6.5,7.8,12,0.00,,---,0.00,VWS V14.01,2013-04-21 17:04:00,
2013-04-21 12:05:00,81.9,24.3,25.48,SSE,158,6.3,8.5,12,0.00,,---,0.00,VWS V14.01,2013-04-21 17:05:00,
2013-04-21 12:06:00,81.9,24.3,25.48,South,180,4.0,8.7,12,0.00,,---,0.00,VWS V14.01,2013-04-21 17:06:00,
2013-04-21 12:07:00,81.9,24.3,25.48,ESE,112,4.3,8.7,12,0.00,,---,0.00,VWS V14.01,2013-04-21 17:07:00,
2013-04-21 12:08:00,82.8,23.0,25.48,SE,135,5.6,5.6,11,0.00,,---,0.00,VWS V14.01,2013-04-21 17:08:00,
2013-04-21 12:09:00,83.3,23.4,25.48,South,180,3.8,5.6,11,0.00,,---,0.00,VWS V14.01,2013-04-21 17:09:00,
2013-04-21 12:10:00,82.8,23.0,25.48,SSW,202,5.6,5.6,11,0.00,,---,0.00,VWS V14.01,2013-04-21 17:10:00,
2013-04-21 12:11:00,82.9,23.1,25.48,SSW,202,2.0,5.6,11,0.00,,---,0.00,VWS V14.01,2013-04-21 17:11:00,
2013-04-21 12:12:00,82.9,23.1,25.48,SE,135,4.9,4.9,11,0.00,,---,0.00,VWS V14.01,2013-04-21 17:12:00,
2013-04-21 12:13:00,82.9,23.1,25.48,SE,135,4.9,4.9,11,0.00,,---,0.00,VWS V14.01,2013-04-21 17:13:00,
2013-04-21 12:14:00,85.1,24.7,25.48,SSW,202,2.7,2.7,11,0.00,,---,0.00,VWS V14.01,2013-04-21 17:14:00,
2013-04-21 12:15:00,84.2,24.0,25.48,SW,225,3.8,5.6,11,0.00,,---,0.00,VWS V14.01,2013-04-21 17:15:00,
2013-04-21 12:16:00,84.2,24.0,25.48,SW,225,3.1,3.8,11,0.00,,---,0.00,VWS V14.01,2013-04-21 17:16:00,
2013-04-21 12:17:00,84.7,24.5,25.48,SE,135,3.1,3.1,11,0.00,,---,0.00,VWS V14.01,2013-04-21 17:17:00,
2013-04-21 12:18:00,84.7,24.5,25.48,ESE,112,4.7,6.5,11,0.00,,---,0.00,VWS V14.01,2013-04-21 17:18:00,
2013-04-21 12:19:00,85.1,24.7,25.48,ESE,112,3.6,5.8,11,0.00,,---,0.00,VWS V14.01,2013-04-21 17:19:00,
2013-04-21 12:20:00,84.7,24.5,25.48,ENE,68,5.6,5.8,11,0.00,,---,0.00,VWS V14.01,2013-04-21 17:20:00,
2013-04-21 12:21:00,85.6,25.2,25.48,SE,135,3.1,5.6,11,0.00,,---,0.00,VWS V14.01,2013-04-21 17:21:00,
2013-04-21 12:22:00,85.8,25.3,25.48,ENE,68,2.0,4.0,11,0.00,,---,0.00,VWS V14.01,2013-04-21 17:22:00,
2013-04-21 12:23:00,86.7,26.0,25.48,North,0,7.4,8.5,11,0.00,,---,0.00,VWS V14.01,2013-04-21 17:23:00,
2013-04-21 12:24:00,86.7,26.0,25.48,ENE,68,4.0,7.4,11,0.00,,---,0.00,VWS V14.01,2013-04-21 17:24:00,
2013-04-21 12:25:00,86.9,26.1,25.48,ENE,68,9.8,9.8,11,0.00,,---,0.00,VWS V14.01,2013-04-21 17:25:00,
2013-04-21 12:26:00,86.9,26.1,25.48,ENE,68,9.8,9.8,11,0.00,,---,0.00,VWS V14.01,2013-04-21 17:26:00,
2013-04-21 12:27:00,84.7,24.5,25.48,NNE,22,8.7,9.8,11,0.00,,---,0.00,VWS V14.01,2013-04-21 17:27:00,
2013-04-21 12:28:00,84.2,24.0,25.48,North,0,12.5,13.2,11,0.00,,---,0.00,VWS V14.01,2013-04-21 17:28:00,
2013-04-21 12:29:00,84.2,24.0,25.48,NE,45,7.2,12.8,11,0.00,,---,0.00,VWS V14.01,2013-04-21 17:29:00,
2013-04-21 12:30:00,84.2,24.0,25.48,North,0,5.4,12.8,11,0.00,,---,0.00,VWS V14.01,2013-04-21 17:30:00,
2013-04-21 12:31:00,83.7,23.6,25.48,NE,45,10.7,10.7,11,0.00,,---,0.00,VWS V14.01,2013-04-21 17:31:00,
2013-04-21 12:32:00,84.0,23.9,25.48,ENE,68,7.6,10.7,11,0.00,,---,0.00,VWS V14.01,2013-04-21 17:32:00,
2013-04-21 12:33:00,84.2,24.0,25.48,NE,45,2.7,7.6,11,0.00,,---,0.00,VWS V14.01,2013-04-21 17:33:00,
2013-04-21 12:34:00,83.7,23.6,25.48,ENE,68,8.7,8.7,11,0.00,,---,0.00,VWS V14.01,2013-04-21 17:34:00,
2013-04-21 12:35:00,83.5,23.5,25.48,NE,45,7.2,8.7,11,0.00,,---,0.00,VWS V14.01,2013-04-21 17:35:00,
2013-04-21 12:36:00,82.9,23.1,25.48,NNE,22,13.0,15.7,11,0.00,,---,0.00,VWS V14.01,2013-04-21 17:36:00,
2013-04-21 12:37:00,83.1,23.2,25.48,ENE,68,3.1,13.0,11,0.00,,---,0.00,VWS V14.01,2013-04-21 17:37:00,
2013-04-21 12:38:00,83.1,23.2,25.48,ENE,68,2.7,5.6,11,0.00,,---,0.00,VWS V14.01,2013-04-21 17:38:00,
2013-04-21 12:39:00,84.2,24.0,25.48,North,0,10.5,12.3,11,0.00,,---,0.00,VWS V14.01,2013-04-21 17:39:00,
2013-04-21 12:40:00,83.7,23.6,25.48,NW,315,7.8,10.5,11,0.00,,---,0.00,VWS V14.01,2013-04-21 17:40:00,
2013-04-21 12:41:00,83.1,23.2,25.48,NNW,338,9.2,9.4,11,0.00,,---,0.00,VWS V14.01,2013-04-21 17:41:00,
2013-04-21 12:42:00,83.5,23.5,25.48,NNE,22,5.6,5.6,11,0.00,,---,0.00,VWS V14.01,2013-04-21 17:42:00,
2013-04-21 12:43:00,84.0,23.9,25.48,North,0,5.8,8.5,11,0.00,,---,0.00,VWS V14.01,2013-04-21 17:43:00,
2013-04-21 12:44:00,84.2,24.0,25.48,NW,315,7.2,7.6,11,0.00,,---,0.00,VWS V14.01,2013-04-21 17:44:00,
2013-04-21 12:45:00,84.2,24.0,25.48,NW,315,7.6,11.0,11,0.00,,---,0.00,VWS V14.01,2013-04-21 17:45:00,
2013-04-21 12:46:00,84.0,23.9,25.48,North,0,10.1,10.1,11,0.00,,---,0.00,VWS V14.01,2013-04-21 17:46:00,
2013-04-21 12:47:00,83.5,23.5,25.48,NNW,338,9.8,10.5,11,0.00,,---,0.00,VWS V14.01,2013-04-21 17:47:00,
2013-04-21 12:48:00,83.5,23.5,25.48,NNW,338,7.6,9.8,11,0.00,,---,0.00,VWS V14.01,2013-04-21 17:48:00,
2013-04-21 12:49:00,82.9,23.1,25.48,NNE,22,11.0,11.0,11,0.00,,---,0.00,VWS V14.01,2013-04-21 17:49:00,
2013-04-21 12:50:00,82.9,23.1,25.48,ENE,68,8.1,11.0,11,0.00,,---,0.00,VWS V14.01,2013-04-21 17:50:00,
2013-04-21 12:51:00,82.9,23.1,25.48,NNE,22,7.6,9.0,11,0.00,,---,0.00,VWS V14.01,2013-04-21 17:51:00,
2013-04-21 12:52:00,83.5,23.5,25.48,NNW,338,5.8,7.6,11,0.00,,---,0.00,VWS V14.01,2013-04-21 17:52:00,
2013-04-21 12:53:00,84.4,24.2,25.48,NE,45,5.4,8.5,11,0.00,,---,0.00,VWS V14.01,2013-04-21 17:53:00,
2013-04-21 12:54:00,84.4,24.2,25.48,ENE,68,4.3,5.4,11,0.00,,---,0.00,VWS V14.01,2013-04-21 17:54:00,
2013-04-21 12:55:00,83.8,23.8,25.45,East,90,6.0,6.5,11,0.00,,---,0.00,VWS V14.01,2013-04-21 17:55:00,
2013-04-21 12:56:00,84.2,24.0,25.45,NNE,22,6.3,6.3,11,0.00,,---,0.00,VWS V14.01,2013-04-21 17:56:00,
2013-04-21 12:57:00,84.6,24.3,25.45,NNW,338,6.0,6.9,11,0.00,,---,0.00,VWS V14.01,2013-04-21 17:57:00,
2013-04-21 12:58:00,84.0,23.9,25.45,WNW,292,5.4,7.8,11,0.00,,---,0.00,VWS V14.01,2013-04-21 17:58:00,
2013-04-21 12:59:00,85.1,24.7,25.45,WSW,248,3.8,5.4,11,0.00,,---,0.00,VWS V14.01,2013-04-21 17:59:00,
2013-04-21 13:00:00,85.1,24.7,25.45,NW,315,3.4,3.8,11,0.00,,---,0.00,VWS V14.01,2013-04-21 18:00:00,
2013-04-21 13:01:00,85.1,24.7,25.45,NNE,22,3.6,4.9,11,0.00,,---,0.00,VWS V14.01,2013-04-21 18:01:00,
2013-04-21 13:02:00,85.3,24.9,25.45,ENE,68,4.3,6.5,11,0.00,,---,0.00,VWS V14.01,2013-04-21 18:02:00,
2013-04-21 13:03:00,86.7,26.0,25.45,ESE,112,4.5,4.5,11,0.00,,---,0.00,VWS V14.01,2013-04-21 18:03:00,
2013-04-21 13:04:00,87.1,26.3,25.45,NE,45,0.9,4.5,11,0.00,,---,0.00,VWS V14.01,2013-04-21 18:04:00,
2013-04-21 13:05:00,87.6,26.7,25.45,North,0,2.5,3.1,11,0.00,,---,0.00,VWS V14.01,2013-04-21 18:05:00,
2013-04-21 13:06:00,88.3,24.9,25.45,North,0,2.0,2.7,10,0.00,,---,0.00,VWS V14.01,2013-04-21 18:06:00,
2013-04-21 13:07:00,88.7,25.2,25.45,NNE,22,3.8,3.8,10,0.00,,---,0.00,VWS V14.01,2013-04-21 18:07:00,
2013-04-21 13:08:00,88.7,25.2,25.45,ENE,68,5.6,8.7,10,0.00,,---,0.00,VWS V14.01,2013-04-21 18:08:00,
2013-04-21 13:09:00,88.7,25.2,25.45,ENE,68,4.7,4.7,10,0.00,,---,0.00,VWS V14.01,2013-04-21 18:09:00,
2013-04-21 13:10:00,87.1,26.3,25.42,ENE,68,6.5,6.9,11,0.00,,---,0.00,VWS V14.01,2013-04-21 18:10:00,
2013-04-21 13:11:00,86.7,26.0,25.42,ENE,68,6.0,6.5,11,0.00,,---,0.00,VWS V14.01,2013-04-21 18:11:00,
2013-04-21 13:12:00,86.7,26.0,25.42,ENE,68,5.6,6.0,11,0.00,,---,0.00,VWS V14.01,2013-04-21 18:12:00,
2013-04-21 13:13:00,87.1,26.3,25.42,NE,45,4.9,5.6,11,0.00,,---,0.00,VWS V14.01,2013-04-21 18:13:00,
2013-04-21 13:14:00,86.9,26.1,25.42,ENE,68,5.4,6.5,11,0.00,,---,0.00,VWS V14.01,2013-04-21 18:14:00,
2013-04-21 13:15:00,86.5,25.9,25.42,East,90,6.3,6.3,11,0.00,,---,0.00,VWS V14.01,2013-04-21 18:15:00,
2013-04-21 13:16:00,86.2,25.6,25.42,ENE,68,8.1,8.1,11,0.00,,---,0.00,VWS V14.01,2013-04-21 18:16:00,
2013-04-21 13:17:00,86.0,25.4,25.42,ENE,68,8.1,8.1,11,0.00,,---,0.00,VWS V14.01,2013-04-21 18:17:00,
2013-04-21 13:18:00,85.5,25.0,25.42,ENE,68,6.5,8.1,11,0.00,,---,0.00,VWS V14.01,2013-04-21 18:18:00,
2013-04-21 13:19:00,86.2,25.6,25.42,ENE,68,3.8,6.5,11,0.00,,---,0.00,VWS V14.01,2013-04-21 18:19:00,
2013-04-21 13:20:00,86.2,25.6,25.42,NE,45,3.4,7.6,11,0.00,,---,0.00,VWS V14.01,2013-04-21 18:20:00,
2013-04-21 13:21:00,85.8,25.3,25.42,ENE,68,7.4,7.4,11,0.00,,---,0.00,VWS V14.01,2013-04-21 18:21:00,
2013-04-21 13:22:00,84.6,24.3,25.42,WSW,248,2.9,15.7,11,0.00,,---,0.00,VWS V14.01,2013-04-21 18:22:00,
2013-04-21 13:23:00,84.6,24.3,25.42,SSE,158,3.4,3.4,11,0.00,,---,0.00,VWS V14.01,2013-04-21 18:23:00,
2013-04-21 13:24:00,85.8,25.3,25.39,SW,225,2.7,4.7,11,0.00,,---,0.00,VWS V14.01,2013-04-21 18:24:00,
2013-04-21 13:25:00,85.5,25.0,25.39,WSW,248,5.8,6.5,11,0.00,,---,0.00,VWS V14.01,2013-04-21 18:25:00,
2013-04-21 13:26:00,83.8,23.8,25.39,WSW,248,11.0,11.2,11,0.00,,---,0.00,VWS V14.01,2013-04-21 18:26:00,
2013-04-21 13:27:00,83.8,23.8,25.39,SW,225,5.6,11.0,11,0.00,,---,0.00,VWS V14.01,2013-04-21 18:27:00,
2013-04-21 13:28:00,82.8,23.0,25.39,SW,225,10.7,15.4,11,0.00,,---,0.00,VWS V14.01,2013-04-21 18:28:00,
2013-04-21 13:29:00,82.2,24.6,25.39,WSW,248,5.6,10.7,12,0.00,,---,0.00,VWS V14.01,2013-04-21 18:29:00,
2013-04-21 13:30:00,82.9,23.1,25.39,SW,225,7.4,7.4,11,0.00,,---,0.00,VWS V14.01,2013-04-21 18:30:00,
2013-04-21 13:31:00,82.4,22.7,25.39,SSE,158,3.8,7.4,11,0.00,,---,0.00,VWS V14.01,2013-04-21 18:31:00,
2013-04-21 13:32:00,82.8,23.0,25.39,NE,45,1.3,3.8,11,0.00,,---,0.00,VWS V14.01,2013-04-21 18:32:00,
2013-04-21 13:33:00,85.3,24.9,25.39,SW,225,2.0,2.5,11,0.00,,---,0.00,VWS V14.01,2013-04-21 18:33:00,
2013-04-21 13:34:00,85.3,24.9,25.39,SW,225,2.9,4.9,11,0.00,,---,0.00,VWS V14.01,2013-04-21 18:34:00,
2013-04-21 13:35:00,84.2,24.0,25.39,SW,225,3.4,3.4,11,0.00,,---,0.00,VWS V14.01,2013-04-21 18:35:00,
2013-04-21 13:36:00,85.5,25.0,25.39,WNW,292,1.6,3.4,11,0.00,,---,0.00,VWS V14.01,2013-04-21 18:36:00,
2013-04-21 13:38:00,85.5,25.0,25.39,SSW,202,5.8,7.6,11,0.00,,---,0.00,VWS V14.01,2013-04-21 18:38:00,
2013-04-21 13:39:00,82.8,23.0,25.42,South,180,3.6,7.2,11,0.00,,---,0.00,VWS V14.01,2013-04-21 18:39:00,
2013-04-21 13:40:00,83.3,23.4,25.42,SE,135,10.3,10.3,11,0.00,,---,0.00,VWS V14.01,2013-04-21 18:40:00,
2013-04-21 13:41:00,83.7,23.6,25.42,SE,135,7.6,13.0,11,0.00,,---,0.00,VWS V14.01,2013-04-21 18:41:00,
2013-04-21 13:42:00,84.0,23.9,25.42,ESE,112,5.4,8.1,11,0.00,,---,0.00,VWS V14.01,2013-04-21 18:42:00,
2013-04-21 13:43:00,84.4,24.2,25.42,SE,135,4.0,7.4,11,0.00,,---,0.00,VWS V14.01,2013-04-21 18:43:00,
2013-04-21 13:44:00,84.7,24.5,25.42,South,180,5.4,5.4,11,0.00,,---,0.00,VWS V14.01,2013-04-21 18:44:00,
2013-04-21 13:45:00,83.7,23.6,25.42,SSW,202,5.4,5.4,11,0.00,,---,0.00,VWS V14.01,2013-04-21 18:45:00,
2013-04-21 13:46:00,83.3,23.4,25.42,NW,315,3.4,6.0,11,0.00,,---,0.00,VWS V14.01,2013-04-21 18:46:00,
2013-04-21 13:47:00,84.2,24.0,25.42,North,0,3.4,6.0,11,0.00,,---,0.00,VWS V14.01,2013-04-21 18:47:00,
2013-04-21 13:48:00,86.5,25.9,25.42,West,270,3.6,3.6,11,0.00,,---,0.00,VWS V14.01,2013-04-21 18:48:00,
2013-04-21 13:49:00,86.7,26.0,25.42,SW,225,4.0,4.0,11,0.00,,---,0.00,VWS V14.01,2013-04-21 18:49:00,
2013-04-21 13:50:00,86.5,25.9,25.42,SW,225,2.7,4.9,11,0.00,,---,0.00,VWS V14.01,2013-04-21 18:50:00,
2013-04-21 13:51:00,85.8,25.3,25.42,South,180,5.8,5.8,11,0.00,,---,0.00,VWS V14.01,2013-04-21 18:51:00,
2013-04-21 13:52:00,85.3,24.9,25.42,West,270,10.3,10.3,11,0.00,,---,0.00,VWS V14.01,2013-04-21 18:52:00,
2013-04-21 13:53:00,84.4,24.2,25.42,West,270,8.1,10.3,11,0.00,,---,0.00,VWS V14.01,2013-04-21 18:53:00,
2013-04-21 13:54:00,84.0,23.9,25.45,WSW,248,7.6,8.1,11,0.00,,---,0.00,VWS V14.01,2013-04-21 18:54:00,
2013-04-21 13:55:00,85.1,24.7,25.45,WNW,292,3.1,4.0,11,0.00,,---,0.00,VWS V14.01,2013-04-21 18:55:00,
2013-04-21 13:56:00,86.5,25.9,25.45,SW,225,1.1,4.0,11,0.00,,---,0.00,VWS V14.01,2013-04-21 18:56:00,
2013-04-21 13:57:00,86.5,25.9,25.45,SW,225,0.9,1.1,11,0.00,,---,0.00,VWS V14.01,2013-04-21 18:57:00,
2013-04-21 13:58:00,88.7,25.2,25.45,SW,225,0.0,0.9,10,0.00,,---,0.00,VWS V14.01,2013-04-21 18:58:00,
2013-04-21 13:59:00,88.7,25.2,25.45,SW,225,2.0,2.0,10,0.00,,---,0.00,VWS V14.01,2013-04-21 18:59:00,
2013-04-21 14:00:00,88.2,24.8,25.45,WNW,292,5.6,5.8,10,0.00,,---,0.00,VWS V14.01,2013-04-21 19:00:00,
2013-04-21 14:01:00,88.2,24.8,25.45,WNW,292,6.0,7.6,10,0.00,,---,0.00,VWS V14.01,2013-04-21 19:01:00,
2013-04-21 14:02:00,87.8,24.5,25.45,NNW,338,5.6,6.0,10,0.00,,---,0.00,VWS V14.01,2013-04-21 19:02:00,
2013-04-21 14:03:00,88.2,24.8,25.45,NNW,338,5.8,6.5,10,0.00,,---,0.00,VWS V14.01,2013-04-21 19:03:00,
2013-04-21 14:04:00,87.8,24.5,25.45,NW,315,5.6,6.3,10,0.00,,---,0.00,VWS V14.01,2013-04-21 19:04:00,
2013-04-21 14:05:00,88.3,24.9,25.45,West,270,4.0,5.8,10,0.00,,---,0.00,VWS V14.01,2013-04-21 19:05:00,
2013-04-21 14:06:00,88.3,24.9,25.45,West,270,4.0,4.0,10,0.00,,---,0.00,VWS V14.01,2013-04-21 19:06:00,
2013-04-21 14:07:00,86.2,25.6,25.45,WNW,292,4.0,7.4,11,0.00,,---,0.00,VWS V14.01,2013-04-21 19:07:00,
2013-04-21 14:08:00,86.9,26.1,25.45,East,90,2.0,7.4,11,0.00,,---,0.00,VWS V14.01,2013-04-21 19:08:00,
2013-04-21 14:09:00,88.2,24.8,25.42,ENE,68,2.2,2.5,10,0.00,,---,0.00,VWS V14.01,2013-04-21 19:09:00,
2013-04-21 14:10:00,88.9,25.3,25.42,ENE,68,4.0,4.0,10,0.00,,---,0.00,VWS V14.01,2013-04-21 19:10:00,
2013-04-21 14:11:00,89.1,25.5,25.42,NNE,22,8.1,8.1,10,0.00,,---,0.00,VWS V14.01,2013-04-21 19:11:00,
2013-04-21 14:12:00,89.1,25.5,25.42,NNE,22,8.1,8.1,10,0.00,,---,0.00,VWS V14.01,2013-04-21 19:12:00,
2013-04-21 14:13:00,88.2,24.8,25.42,ENE,68,6.5,8.1,10,0.00,,---,0.00,VWS V14.01,2013-04-21 19:13:00,
2013-04-21 14:14:00,88.2,24.8,25.42,ENE,68,6.5,6.5,10,0.00,,---,0.00,VWS V14.01,2013-04-21 19:14:00,
2013-04-21 14:15:00,88.9,25.3,25.42,NE,45,3.1,6.5,10,0.00,,---,0.00,VWS V14.01,2013-04-21 19:15:00,
2013-04-21 14:16:00,89.4,25.8,25.42,ENE,68,4.3,4.3,10,0.00,,---,0.00,VWS V14.01,2013-04-21 19:16:00,
2013-04-21 14:17:00,90.0,26.2,25.42,ENE,68,2.0,4.3,10,0.00,,---,0.00,VWS V14.01,2013-04-21 19:17:00,
2013-04-21 14:18:00,90.7,26.7,25.42,NNW,338,2.9,3.1,10,0.00,,---,0.00,VWS V14.01,2013-04-21 19:18:00,
2013-04-21 14:19:00,90.0,26.2,25.42,ENE,68,4.9,4.9,10,0.00,,---,0.00,VWS V14.01,2013-04-21 19:19:00,
2013-04-21 14:20:00,89.8,26.0,25.42,ENE,68,4.9,7.8,10,0.00,,---,0.00,VWS V14.01,2013-04-21 19:20:00,
2013-04-21 14:21:00,89.2,25.6,25.42,ENE,68,4.7,6.5,10,0.00,,---,0.00,VWS V14.01,2013-04-21 19:21:00,
2013-04-21 14:22:00,89.6,25.9,25.42,ESE,112,7.8,7.8,10,0.00,,---,0.00,VWS V14.01,2013-04-21 19:22:00,
2013-04-21 14:23:00,88.2,24.8,25.42,NE,45,9.6,9.6,10,0.00,,---,0.00,VWS V14.01,2013-04-21 19:23:00,
2013-04-21 14:24:00,88.0,24.7,25.39,NE,45,3.4,10.1,10,0.00,,---,0.00,VWS V14.01,2013-04-21 19:24:00,
2013-04-21 14:25:00,88.2,24.8,25.39,ENE,68,6.0,8.5,10,0.00,,---,0.00,VWS V14.01,2013-04-21 19:25:00,
2013-04-21 14:26:00,87.4,26.5,25.39,ENE,68,5.8,8.5,11,0.00,,---,0.00,VWS V14.01,2013-04-21 19:26:00,
2013-04-21 14:27:00,88.0,24.7,25.39,ESE,112,5.8,7.6,10,0.00,,---,0.00,VWS V14.01,2013-04-21 19:27:00,
2013-04-21 14:28:00,88.2,24.8,25.39,ESE,112,4.0,7.6,10,0.00,,---,0.00,VWS V14.01,2013-04-21 19:28:00,
2013-04-21 14:29:00,87.6,26.7,25.39,ESE,112,6.0,6.5,11,0.00,,---,0.00,VWS V14.01,2013-04-21 19:29:00,
2013-04-21 14:30:00,87.3,26.4,25.39,ESE,112,4.9,4.9,11,0.00,,---,0.00,VWS V14.01,2013-04-21 19:30:00,
2013-04-21 14:31:00,87.1,26.3,25.39,SSE,158,5.4,7.8,11,0.00,,---,0.00,VWS V14.01,2013-04-21 19:31:00,
2013-04-21 14:32:00,87.1,26.3,25.39,ESE,112,3.8,6.5,11,0.00,,---,0.00,VWS V14.01,2013-04-21 19:32:00,
2013-04-21 14:33:00,88.2,24.8,25.39,East,90,5.4,5.4,10,0.00,,---,0.00,VWS V14.01,2013-04-21 19:33:00,
2013-04-21 14:34:00,89.2,25.6,25.39,NE,45,2.7,5.4,10,0.00,,---,0.00,VWS V14.01,2013-04-21 19:34:00,
2013-04-21 14:35:00,88.3,24.9,25.39,ESE,112,5.8,7.6,10,0.00,,---,0.00,VWS V14.01,2013-04-21 19:35:00,
2013-04-21 14:36:00,88.7,25.2,25.39,East,90,5.6,5.8,10,0.00,,---,0.00,VWS V14.01,2013-04-21 19:36:00,
2013-04-21 14:37:00,88.5,25.1,25.39,East,90,5.6,6.3,10,0.00,,---,0.00,VWS V14.01,2013-04-21 19:37:00,
2013-04-21 14:38:00,88.5,25.1,25.39,NE,45,5.4,6.5,10,0.00,,---,0.00,VWS V14.01,2013-04-21 19:38:00,
2013-04-21 14:39:00,88.5,25.1,25.39,NE,45,8.5,8.5,10,0.00,,---,0.00,VWS V14.01,2013-04-21 19:39:00,
2013-04-21 14:40:00,88.7,25.2,25.39,East,90,5.4,8.5,10,0.00,,---,0.00,VWS V14.01,2013-04-21 19:40:00,
2013-04-21 14:41:00,89.4,25.8,25.39,ENE,68,4.0,4.0,10,0.00,,---,0.00,VWS V14.01,2013-04-21 19:41:00,
2013-04-21 14:42:00,89.6,25.9,25.39,SSW,202,2.5,4.3,10,0.00,,---,0.00,VWS V14.01,2013-04-21 19:42:00,
2013-04-21 14:43:00,89.6,25.9,25.39,SSW,202,3.8,3.8,10,0.00,,---,0.00,VWS V14.01,2013-04-21 19:43:00,
2013-04-21 14:44:00,87.8,24.5,25.39,WSW,248,3.8,3.8,10,0.00,,---,0.00,VWS V14.01,2013-04-21 19:44:00,
2013-04-21 14:45:00,88.9,25.3,25.39,West,270,0.9,3.8,10,0.00,,---,0.00,VWS V14.01,2013-04-21 19:45:00,
2013-04-21 14:46:00,89.2,25.6,25.39,NW,315,6.5,8.7,10,0.00,,---,0.00,VWS V14.01,2013-04-21 19:46:00,
2013-04-21 14:47:00,89.2,25.6,25.39,West,270,3.8,6.0,10,0.00,,---,0.00,VWS V14.01,2013-04-21 19:47:00,
2013-04-21 14:49:00,89.2,25.6,25.39,NW,315,5.4,6.0,10,0.00,,---,0.00,VWS V14.01,2013-04-21 19:49:00,
2013-04-21 14:50:00,89.2,25.6,25.39,NW,315,7.4,7.4,10,0.00,,---,0.00,VWS V14.01,2013-04-21 19:50:00,
2013-04-21 14:51:00,89.2,25.6,25.39,North,0,6.7,7.4,10,0.00,,---,0.00,VWS V14.01,2013-04-21 19:51:00,
2013-04-21 14:52:00,89.2,25.6,25.39,WNW,292,6.3,7.8,10,0.00,,---,0.00,VWS V14.01,2013-04-21 19:52:00,
2013-04-21 14:53:00,88.2,24.8,25.39,WNW,292,2.7,2.7,10,0.00,,---,0.00,VWS V14.01,2013-04-21 19:53:00,
2013-04-21 14:54:00,88.2,24.8,25.37,WNW,292,5.8,7.6,10,0.00,,---,0.00,VWS V14.01,2013-04-21 19:54:00,
2013-04-21 14:55:00,87.6,26.7,25.37,SW,225,12.3,12.3,11,0.00,,---,0.00,VWS V14.01,2013-04-21 19:55:00,
2013-04-21 14:56:00,87.1,26.3,25.37,SW,225,12.3,16.1,11,0.00,,---,0.00,VWS V14.01,2013-04-21 19:56:00,
2013-04-21 14:57:00,86.2,25.6,25.37,SW,225,4.3,12.3,11,0.00,,---,0.00,VWS V14.01,2013-04-21 19:57:00,
2013-04-21 14:58:00,86.4,25.7,25.37,WSW,248,7.4,10.3,11,0.00,,---,0.00,VWS V14.01,2013-04-21 19:58:00,
2013-04-21 14:59:00,86.4,25.7,25.37,SW,225,8.1,9.8,11,0.00,,---,0.00,VWS V14.01,2013-04-21 19:59:00,
2013-04-21 15:00:00,85.8,25.3,25.37,SSW,202,9.8,9.8,11,0.00,,---,0.00,VWS V14.01,2013-04-21 20:00:00,
2013-04-21 15:01:00,84.7,24.5,25.37,South,180,2.5,10.3,11,0.00,,---,0.00,VWS V14.01,2013-04-21 20:01:00,
2013-04-21 15:02:00,84.7,24.5,25.37,South,180,3.8,3.8,11,0.00,,---,0.00,VWS V14.01,2013-04-21 20:02:00,
2013-04-21 15:03:00,86.0,25.4,25.37,South,180,6.3,6.3,11,0.00,,---,0.00,VWS V14.01,2013-04-21 20:03:00,
2013-04-21 15:04:00,86.0,25.4,25.37,South,180,5.6,8.5,11,0.00,,---,0.00,VWS V14.01,2013-04-21 20:04:00,
2013-04-21 15:05:00,86.0,25.4,25.37,SE,135,7.8,7.8,11,0.00,,---,0.00,VWS V14.01,2013-04-21 20:05:00,
2013-04-21 15:06:00,86.0,25.4,25.37,SSW,202,6.0,12.5,11,0.00,,---,0.00,VWS V14.01,2013-04-21 20:06:00,
2013-04-21 15:07:00,86.0,25.4,25.37,SW,225,8.5,8.5,11,0.00,,---,0.00,VWS V14.01,2013-04-21 20:07:00,
2013-04-21 15:08:00,84.9,24.6,25.37,SSW,202,7.6,12.3,11,0.00,,---,0.00,VWS V14.01,2013-04-21 20:08:00,
2013-04-21 15:09:00,84.7,24.5,25.37,SW,225,10.7,10.7,11,0.00,,---,0.00,VWS V14.01,2013-04-21 20:09:00,
2013-04-21 15:10:00,84.7,24.5,25.37,SW,225,11.2,14.5,11,0.00,,---,0.00,VWS V14.01,2013-04-21 20:10:00,
2013-04-21 15:11:00,84.7,24.5,25.37,SW,225,14.5,14.5,11,0.00,,---,0.00,VWS V14.01,2013-04-21 20:11:00,
2013-04-21 15:12:00,84.7,24.5,25.37,SW,225,14.5,14.5,11,0.00,,---,0.00,VWS V14.01,2013-04-21 20:12:00,
2013-04-21 15:13:00,83.8,23.8,25.37,SW,225,8.5,14.5,11,0.00,,---,0.00,VWS V14.01,2013-04-21 20:13:00,
2013-04-21 15:14:00,83.8,23.8,25.37,WSW,248,8.1,10.3,11,0.00,,---,0.00,VWS V14.01,2013-04-21 20:14:00,
2013-04-21 15:16:00,83.8,23.8,25.37,West,270,4.3,8.5,11,0.00,,---,0.00,VWS V14.01,2013-04-21 20:16:00,
2013-04-21 15:17:00,83.8,23.8,25.37,West,270,6.5,7.8,11,0.00,,---,0.00,VWS V14.01,2013-04-21 20:17:00,
2013-04-21 15:18:00,86.2,25.6,25.37,SW,225,3.8,6.5,11,0.00,,---,0.00,VWS V14.01,2013-04-21 20:18:00,
2013-04-21 15:19:00,85.6,25.2,25.37,West,270,9.6,10.5,11,0.00,,---,0.00,VWS V14.01,2013-04-21 20:19:00,
2013-04-21 15:20:00,85.6,25.2,25.37,West,270,12.8,13.2,11,0.00,,---,0.00,VWS V14.01,2013-04-21 20:20:00,
2013-04-21 15:21:00,85.6,25.2,25.37,West,270,5.4,12.8,11,0.00,,---,0.00,VWS V14.01,2013-04-21 20:21:00,
2013-04-21 15:22:00,86.2,25.6,25.37,SW,225,3.6,5.4,11,0.00,,---,0.00,VWS V14.01,2013-04-21 20:22:00,
2013-04-21 15:23:00,85.6,25.2,25.37,SW,225,10.1,10.1,11,0.00,,---,0.00,VWS V14.01,2013-04-21 20:23:00,
2013-04-21 15:24:00,85.5,25.0,25.37,SW,225,8.1,10.1,11,0.00,,---,0.00,VWS V14.01,2013-04-21 20:24:00,
2013-04-21 15:25:00,85.8,25.3,25.37,West,270,7.2,10.5,11,0.00,,---,0.00,VWS V14.01,2013-04-21 20:25:00,
2013-04-21 15:26:00,85.8,25.3,25.37,SW,225,12.1,12.1,11,0.00,,---,0.00,VWS V14.01,2013-04-21 20:26:00,
2013-04-21 15:27:00,85.8,25.3,25.37,SW,225,9.8,12.1,11,0.00,,---,0.00,VWS V14.01,2013-04-21 20:27:00,
2013-04-21 15:28:00,85.8,25.3,25.37,SW,225,8.1,10.3,11,0.00,,---,0.00,VWS V14.01,2013-04-21 20:28:00,
2013-04-21 15:29:00,85.1,24.7,25.37,South,180,5.6,9.2,11,0.00,,---,0.00,VWS V14.01,2013-04-21 20:29:00,
2013-04-21 15:30:00,85.5,25.0,25.37,SSW,202,5.6,7.8,11,0.00,,---,0.00,VWS V14.01,2013-04-21 20:30:00,
2013-04-21 15:31:00,85.1,24.7,25.37,SE,135,3.6,5.6,11,0.00,,---,0.00,VWS V14.01,2013-04-21 20:31:00,
2013-04-21 15:32:00,85.5,25.0,25.37,South,180,4.7,6.5,11,0.00,,---,0.00,VWS V14.01,2013-04-21 20:32:00,
2013-04-21 15:33:00,85.8,25.3,25.37,South,180,4.3,5.8,11,0.00,,---,0.00,VWS V14.01,2013-04-21 20:33:00,
2013-04-21 15:34:00,85.8,25.3,25.37,SW,225,8.5,12.5,11,0.00,,---,0.00,VWS V14.01,2013-04-21 20:34:00,
2013-04-21 15:35:00,85.3,24.9,25.37,SW,225,8.5,8.5,11,0.00,,---,0.00,VWS V14.01,2013-04-21 20:35:00,
2013-04-21 15:36:00,85.3,24.9,25.37,SW,225,8.5,8.5,11,0.00,,---,0.00,VWS V14.01,2013-04-21 20:36:00,
2013-04-21 15:37:00,85.3,24.9,25.37,South,180,5.4,8.7,11,0.00,,---,0.00,VWS V14.01,2013-04-21 20:37:00,
2013-04-21 15:38:00,85.8,25.3,25.37,WNW,292,4.0,5.4,11,0.00,,---,0.00,VWS V14.01,2013-04-21 20:38:00,
2013-04-21 15:39:00,86.5,25.9,25.37,WSW,248,5.4,5.4,11,0.00,,---,0.00,VWS V14.01,2013-04-21 20:39:00,
2013-04-21 15:40:00,86.5,25.9,25.37,SW,225,3.1,3.1,11,0.00,,---,0.00,VWS V14.01,2013-04-21 20:40:00,
2013-04-21 15:41:00,87.8,24.5,25.37,WSW,248,6.3,6.3,10,0.00,,---,0.00,VWS V14.01,2013-04-21 20:41:00,
2013-04-21 15:42:00,86.9,26.1,25.37,WSW,248,13.2,13.2,11,0.00,,---,0.00,VWS V14.01,2013-04-21 20:42:00,
2013-04-21 15:43:00,86.7,26.0,25.37,SW,225,10.5,13.2,11,0.00,,---,0.00,VWS V14.01,2013-04-21 20:43:00,
2013-04-21 15:45:00,86.5,25.9,25.37,SW,225,14.8,14.8,11,0.00,,---,0.00,VWS V14.01,2013-04-21 20:45:00,
2013-04-21 15:46:00,85.1,24.7,25.37,SW,225,10.3,14.8,11,0.00,,---,0.00,VWS V14.01,2013-04-21 20:46:00,
2013-04-21 15:47:00,84.6,24.3,25.37,SW,225,12.3,16.3,11,0.00,,---,0.00,VWS V14.01,2013-04-21 20:47:00,
2013-04-21 15:48:00,84.2,24.0,25.37,SSW,202,9.6,12.3,11,0.00,,---,0.00,VWS V14.01,2013-04-21 20:48:00,
2013-04-21 15:49:00,84.9,24.6,25.37,WSW,248,12.8,12.8,11,0.00,,---,0.00,VWS V14.01,2013-04-21 20:49:00,
2013-04-21 15:50:00,85.1,24.7,25.37,WSW,248,13.0,13.4,11,0.00,,---,0.00,VWS V14.01,2013-04-21 20:50:00,
2013-04-21 15:51:00,85.3,24.9,25.37,SSW,202,9.6,15.4,11,0.00,,---,0.00,VWS V14.01,2013-04-21 20:51:00,
2013-04-21 15:52:00,84.9,24.6,25.37,SW,225,6.0,10.3,11,0.00,,---,0.00,VWS V14.01,2013-04-21 20:52:00,
2013-04-21 15:53:00,85.5,25.0,25.37,South,180,2.5,6.0,11,0.00,,---,0.00,VWS V14.01,2013-04-21 20:53:00,
2013-04-21 15:54:00,86.0,25.4,25.39,SW,225,3.1,3.1,11,0.00,,---,0.00,VWS V14.01,2013-04-21 20:54:00,
2013-04-21 15:55:00,86.9,26.1,25.39,SW,225,3.8,3.8,11,0.00,,---,0.00,VWS V14.01,2013-04-21 20:55:00,
2013-04-21 15:56:00,86.9,26.1,25.39,WSW,248,8.5,8.7,11,0.00,,---,0.00,VWS V14.01,2013-04-21 20:56:00,
2013-04-21 15:57:00,85.3,24.9,25.39,West,270,19.5,19.5,11,0.00,,---,0.00,VWS V14.01,2013-04-21 20:57:00,
2013-04-21 15:58:00,85.3,24.9,25.39,WSW,248,14.8,19.5,11,0.00,,---,0.00,VWS V14.01,2013-04-21 20:58:00,
2013-04-21 15:59:00,84.6,24.3,25.39,WSW,248,12.3,14.8,11,0.00,,---,0.00,VWS V14.01,2013-04-21 20:59:00,
2013-04-21 16:00:00,84.9,24.6,25.39,WSW,248,12.5,15.2,11,0.00,,---,0.00,VWS V14.01,2013-04-21 21:00:00,
2013-04-21 16:01:00,84.7,24.5,25.39,WSW,248,11.2,12.5,11,0.00,,---,0.00,VWS V14.01,2013-04-21 21:01:00,
2013-04-21 16:02:00,84.7,24.5,25.39,WSW,248,13.4,13.4,11,0.00,,---,0.00,VWS V14.01,2013-04-21 21:02:00,
2013-04-21 16:03:00,84.7,24.5,25.39,SW,225,6.5,13.4,11,0.00,,---,0.00,VWS V14.01,2013-04-21 21:03:00,
2013-04-21 16:04:00,85.6,25.2,25.39,SSW,202,3.4,6.5,11,0.00,,---,0.00,VWS V14.01,2013-04-21 21:04:00,
2013-04-21 16:05:00,86.0,25.4,25.39,SW,225,4.0,5.6,11,0.00,,---,0.00,VWS V14.01,2013-04-21 21:05:00,
2013-04-21 16:06:00,86.0,25.4,25.39,SE,135,3.8,5.6,11,0.00,,---,0.00,VWS V14.01,2013-04-21 21:06:00,
2013-04-21 16:07:00,86.4,25.7,25.39,SSW,202,5.6,5.6,11,0.00,,---,0.00,VWS V14.01,2013-04-21 21:07:00,
2013-04-21 16:08:00,86.2,25.6,25.39,West,270,9.6,9.6,11,0.00,,---,0.00,VWS V14.01,2013-04-21 21:08:00,
2013-04-21 16:09:00,86.0,25.4,25.42,WSW,248,9.8,14.8,11,0.00,,---,0.00,VWS V14.01,2013-04-21 21:09:00,
2013-04-21 16:10:00,85.5,25.0,25.42,WSW,248,12.3,13.2,11,0.00,,---,0.00,VWS V14.01,2013-04-21 21:10:00,
2013-04-21 16:11:00,85.5,25.0,25.42,SW,225,13.2,13.2,11,0.00,,---,0.00,VWS V14.01,2013-04-21 21:11:00,
2013-04-21 16:12:00,85.3,24.9,25.42,West,270,9.8,13.2,11,0.00,,---,0.00,VWS V14.01,2013-04-21 21:12:00,
2013-04-21 16:13:00,86.0,25.4,25.42,South,180,2.9,9.8,11,0.00,,---,0.00,VWS V14.01,2013-04-21 21:13:00,
2013-04-21 16:14:00,86.2,25.6,25.42,SSW,202,5.6,6.7,11,0.00,,---,0.00,VWS V14.01,2013-04-21 21:14:00,
2013-04-21 16:15:00,86.5,25.9,25.42,South,180,5.8,6.5,11,0.00,,---,0.00,VWS V14.01,2013-04-21 21:15:00,
2013-04-21 16:16:00,85.6,25.2,25.42,SW,225,13.0,25.3,11,0.00,,---,0.00,VWS V14.01,2013-04-21 21:16:00,
2013-04-21 16:17:00,85.8,25.3,25.42,WSW,248,14.8,15.2,11,0.00,,---,0.00,VWS V14.01,2013-04-21 21:17:00,
2013-04-21 16:18:00,85.8,25.3,25.42,WSW,248,15.4,15.4,11,0.00,,---,0.00,VWS V14.01,2013-04-21 21:18:00,
2013-04-21 16:19:00,84.6,24.3,25.42,West,270,13.0,17.7,11,0.00,,---,0.00,VWS V14.01,2013-04-21 21:19:00,
2013-04-21 16:20:00,84.7,24.5,25.42,SW,225,13.9,17.2,11,0.00,,---,0.00,VWS V14.01,2013-04-21 21:20:00,
2013-04-21 16:21:00,84.7,24.5,25.42,WSW,248,16.1,16.1,11,0.00,,---,0.00,VWS V14.01,2013-04-21 21:21:00,
2013-04-21 16:22:00,84.6,24.3,25.42,WSW,248,15.4,15.4,11,0.00,,---,0.00,VWS V14.01,2013-04-21 21:22:00,
2013-04-21 16:23:00,84.7,24.5,25.42,SW,225,15.4,15.4,11,0.00,,---,0.00,VWS V14.01,2013-04-21 21:23:00,
2013-04-21 16:24:00,84.2,24.0,25.42,SW,225,12.5,15.4,11,0.00,,---,0.00,VWS V14.01,2013-04-21 21:24:00,
2013-04-21 16:25:00,84.2,24.0,25.42,WSW,248,13.0,13.0,11,0.00,,---,0.00,VWS V14.01,2013-04-21 21:25:00,
2013-04-21 16:26:00,84.2,24.0,25.42,WSW,248,12.3,13.0,11,0.00,,---,0.00,VWS V14.01,2013-04-21 21:26:00,
2013-04-21 16:27:00,84.2,24.0,25.42,SW,225,11.0,13.0,11,0.00,,---,0.00,VWS V14.01,2013-04-21 21:27:00,
2013-04-21 16:28:00,84.4,24.2,25.42,SW,225,12.8,15.2,11,0.00,,---,0.00,VWS V14.01,2013-04-21 21:28:00,
2013-04-21 16:29:00,84.0,23.9,25.42,SW,225,15.2,15.7,11,0.00,,---,0.00,VWS V14.01,2013-04-21 21:29:00,
2013-04-21 16:30:00,84.0,23.9,25.42,SSW,202,13.2,15.7,11,0.00,,---,0.00,VWS V14.01,2013-04-21 21:30:00,
2013-04-21 16:31:00,84.0,23.9,25.42,SW,225,8.7,13.2,11,0.00,,---,0.00,VWS V14.01,2013-04-21 21:31:00,
2013-04-21 16:32:00,84.0,23.9,25.42,SW,225,12.8,13.4,11,0.00,,---,0.00,VWS V14.01,2013-04-21 21:32:00,
2013-04-21 16:33:00,84.0,23.9,25.42,SW,225,16.8,16.8,11,0.00,,---,0.00,VWS V14.01,2013-04-21 21:33:00,
2013-04-21 16:34:00,84.0,23.9,25.42,SW,225,17.2,17.2,11,0.00,,---,0.00,VWS V14.01,2013-04-21 21:34:00,
2013-04-21 16:35:00,83.1,23.2,25.42,SW,225,15.4,17.2,11,0.00,,---,0.00,VWS V14.01,2013-04-21 21:35:00,
2013-04-21 16:36:00,83.1,23.2,25.42,SSW,202,16.1,16.1,11,0.00,,---,0.00,VWS V14.01,2013-04-21 21:36:00,
2013-04-21 16:37:00,83.1,23.2,25.42,SSW,202,7.6,16.1,11,0.00,,---,0.00,VWS V14.01,2013-04-21 21:37:00,
2013-04-21 16:38:00,83.3,23.4,25.42,SW,225,7.4,12.5,11,0.00,,---,0.00,VWS V14.01,2013-04-21 21:38:00,
2013-04-21 16:39:00,83.7,23.6,25.42,SW,225,8.7,8.7,11,0.00,,---,0.00,VWS V14.01,2013-04-21 21:39:00,
2013-04-21 16:40:00,83.8,23.8,25.42,SW,225,10.1,12.5,11,0.00,,---,0.00,VWS V14.01,2013-04-21 21:40:00,
2013-04-21 16:41:00,83.8,23.8,25.42,WSW,248,7.6,12.1,11,0.00,,---,0.00,VWS V14.01,2013-04-21 21:41:00,
2013-04-21 16:42:00,84.6,24.3,25.42,SW,225,13.0,13.0,11,0.00,,---,0.00,VWS V14.01,2013-04-21 21:42:00,
2013-04-21 16:43:00,84.4,24.2,25.42,WSW,248,14.3,17.2,11,0.00,,---,0.00,VWS V14.01,2013-04-21 21:43:00,
2013-04-21 16:44:00,84.4,24.2,25.42,SW,225,13.0,15.4,11,0.00,,---,0.00,VWS V14.01,2013-04-21 21:44:00,
2013-04-21 16:45:00,84.4,24.2,25.42,SW,225,11.2,15.2,11,0.00,,---,0.00,VWS V14.01,2013-04-21 21:45:00,
2013-04-21 16:46:00,83.8,23.8,25.42,SW,225,15.9,16.1,11,0.00,,---,0.00,VWS V14.01,2013-04-21 21:46:00,
2013-04-21 16:47:00,83.8,23.8,25.42,SW,225,13.0,15.9,11,0.00,,---,0.00,VWS V14.01,2013-04-21 21:47:00,
2013-04-21 16:48:00,83.5,23.5,25.42,SW,225,12.8,13.2,11,0.00,,---,0.00,VWS V14.01,2013-04-21 21:48:00,
2013-04-21 16:49:00,83.7,23.6,25.42,SSW,202,8.1,12.8,11,0.00,,---,0.00,VWS V14.01,2013-04-21 21:49:00,
2013-04-21 16:50:00,83.5,23.5,25.42,SW,225,11.2,12.5,11,0.00,,---,0.00,VWS V14.01,2013-04-21 21:50:00,
2013-04-21 16:51:00,83.5,23.5,25.42,SW,225,16.3,16.6,11,0.00,,---,0.00,VWS V14.01,2013-04-21 21:51:00,
2013-04-21 16:52:00,83.5,23.5,25.42,WSW,248,17.2,17.2,11,0.00,,---,0.00,VWS V14.01,2013-04-21 21:52:00,
2013-04-21 16:53:00,83.3,23.4,25.42,SW,225,12.8,17.5,11,0.00,,---,0.00,VWS V14.01,2013-04-21 21:53:00,
2013-04-21 16:54:00,83.3,23.4,25.42,SW,225,10.3,12.8,11,0.00,,---,0.00,VWS V14.01,2013-04-21 21:54:00,
2013-04-21 16:55:00,83.7,23.6,25.42,SW,225,10.5,10.5,11,0.00,,---,0.00,VWS V14.01,2013-04-21 21:55:00,
2013-04-21 16:56:00,83.8,23.8,25.42,SW,225,7.8,10.5,11,0.00,,---,0.00,VWS V14.01,2013-04-21 21:56:00,
2013-04-21 16:57:00,84.0,23.9,25.42,SW,225,13.0,13.0,11,0.00,,---,0.00,VWS V14.01,2013-04-21 21:57:00,
2013-04-21 16:59:00,84.4,24.2,25.42,SW,225,10.3,13.0,11,0.00,,---,0.00,VWS V14.01,2013-04-21 21:59:00,
2013-04-21 17:00:00,84.4,24.2,25.42,SW,225,13.0,13.0,11,0.00,,---,0.00,VWS V14.01,2013-04-21 22:00:00,
2013-04-21 17:01:00,83.8,23.8,25.42,WSW,248,11.4,17.7,11,0.00,,---,0.00,VWS V14.01,2013-04-21 22:01:00,
2013-04-21 17:02:00,83.8,23.8,25.42,SW,225,7.6,11.4,11,0.00,,---,0.00,VWS V14.01,2013-04-21 22:02:00,
2013-04-21 17:03:00,84.2,24.0,25.42,SW,225,7.2,8.1,11,0.00,,---,0.00,VWS V14.01,2013-04-21 22:03:00,
2013-04-21 17:04:00,84.2,24.0,25.42,SSW,202,13.2,13.2,11,0.00,,---,0.00,VWS V14.01,2013-04-21 22:04:00,
2013-04-21 17:06:00,84.2,24.0,25.42,SW,225,12.8,13.2,11,0.00,,---,0.00,VWS V14.01,2013-04-21 22:06:00,
2013-04-21 17:07:00,84.0,23.9,25.42,SW,225,11.9,15.2,11,0.00,,---,0.00,VWS V14.01,2013-04-21 22:07:00,
2013-04-21 17:08:00,84.4,24.2,25.42,SW,225,15.4,15.4,11,0.00,,---,0.00,VWS V14.01,2013-04-21 22:08:00,
2013-04-21 17:09:00,83.8,23.8,25.39,SW,225,19.7,19.7,11,0.00,,---,0.00,VWS V14.01,2013-04-21 22:09:00,
2013-04-21 17:10:00,83.7,23.6,25.39,WSW,248,15.4,19.7,11,0.00,,---,0.00,VWS V14.01,2013-04-21 22:10:00,
2013-04-21 17:11:00,83.7,23.6,25.39,WSW,248,20.8,23.3,11,0.00,,---,0.00,VWS V14.01,2013-04-21 22:11:00,
2013-04-21 17:12:00,83.7,23.6,25.39,WSW,248,12.5,20.8,11,0.00,,---,0.00,VWS V14.01,2013-04-21 22:12:00,
2013-04-21 17:13:00,83.5,23.5,25.39,SW,225,12.8,17.9,11,0.00,,---,0.00,VWS V14.01,2013-04-21 22:13:00,
2013-04-21 17:14:00,83.1,23.2,25.39,SW,225,13.0,15.9,11,0.00,,---,0.00,VWS V14.01,2013-04-21 22:14:00,
2013-04-21 17:15:00,83.1,23.2,25.39,SW,225,12.8,17.9,11,0.00,,---,0.00,VWS V14.01,2013-04-21 22:15:00,
2013-04-21 17:16:00,83.3,23.4,25.39,SW,225,8.1,12.8,11,0.00,,---,0.00,VWS V14.01,2013-04-21 22:16:00,
2013-04-21 17:17:00,83.3,23.4,25.39,SSW,202,10.3,10.3,11,0.00,,---,0.00,VWS V14.01,2013-04-21 22:17:00,
2013-04-21 17:18:00,83.3,23.4,25.39,SSW,202,6.9,10.3,11,0.00,,---,0.00,VWS V14.01,2013-04-21 22:18:00,
2013-04-21 17:19:00,83.3,23.4,25.39,SW,225,13.4,13.4,11,0.00,,---,0.00,VWS V14.01,2013-04-21 22:19:00,
2013-04-21 17:20:00,82.9,23.1,25.39,SW,225,11.0,13.4,11,0.00,,---,0.00,VWS V14.01,2013-04-21 22:20:00,
2013-04-21 17:21:00,83.1,23.2,25.39,SW,225,7.6,11.0,11,0.00,,---,0.00,VWS V14.01,2013-04-21 22:21:00,
2013-04-21 17:22:00,83.3,23.4,25.39,SW,225,8.7,8.7,11,0.00,,---,0.00,VWS V14.01,2013-04-21 22:22:00,
2013-04-21 17:24:00,83.5,23.5,25.39,WSW,248,7.4,8.7,11,0.00,,---,0.00,VWS V14.01,2013-04-21 22:24:00,
2013-04-21 17:25:00,83.7,23.6,25.42,SW,225,12.5,12.5,11,0.00,,---,0.00,VWS V14.01,2013-04-21 22:25:00,
2013-04-21 17:26:00,83.5,23.5,25.42,WSW,248,11.2,12.5,11,0.00,,---,0.00,VWS V14.01,2013-04-21 22:26:00,
2013-04-21 17:27:00,83.1,23.2,25.42,SW,225,12.5,12.5,11,0.00,,---,0.00,VWS V14.01,2013-04-21 22:27:00,
2013-04-21 17:28:00,83.3,23.4,25.42,SW,225,10.7,12.8,11,0.00,,---,0.00,VWS V14.01,2013-04-21 22:28:00,
2013-04-21 17:29:00,83.3,23.4,25.42,SW,225,12.8,13.0,11,0.00,,---,0.00,VWS V14.01,2013-04-21 22:29:00,
2013-04-21 17:30:00,83.3,23.4,25.42,SSW,202,12.8,12.8,11,0.00,,---,0.00,VWS V14.01,2013-04-21 22:30:00,
2013-04-21 17:32:00,83.1,23.2,25.42,SSW,202,9.4,12.8,11,0.00,,---,0.00,VWS V14.01,2013-04-21 22:32:00,
2013-04-21 17:33:00,83.1,23.2,25.42,SW,225,17.2,19.7,11,0.00,,---,0.00,VWS V14.01,2013-04-21 22:33:00,
2013-04-21 17:34:00,83.1,23.2,25.42,SW,225,15.2,17.5,11,0.00,,---,0.00,VWS V14.01,2013-04-21 22:34:00,
2013-04-21 17:35:00,83.1,23.2,25.42,SW,225,9.8,15.2,11,0.00,,---,0.00,VWS V14.01,2013-04-21 22:35:00,
2013-04-21 17:36:00,83.1,23.2,25.42,SSW,202,6.5,12.3,11,0.00,,---,0.00,VWS V14.01,2013-04-21 22:36:00,
2013-04-21 17:37:00,82.9,23.1,25.42,SW,225,10.7,10.7,11,0.00,,---,0.00,VWS V14.01,2013-04-21 22:37:00,
2013-04-21 17:38:00,82.9,23.1,25.42,SW,225,9.0,9.0,11,0.00,,---,0.00,VWS V14.01,2013-04-21 22:38:00,
2013-04-21 17:39:00,83.1,23.2,25.42,SW,225,8.5,9.0,11,0.00,,---,0.00,VWS V14.01,2013-04-21 22:39:00,
2013-04-21 17:40:00,83.1,23.2,25.42,SW,225,16.3,16.3,11,0.00,,---,0.00,VWS V14.01,2013-04-21 22:40:00,
2013-04-21 17:41:00,82.8,23.0,25.42,SSW,202,12.8,16.3,11,0.00,,---,0.00,VWS V14.01,2013-04-21 22:41:00,
2013-04-21 17:42:00,82.8,23.0,25.42,SW,225,13.0,13.0,11,0.00,,---,0.00,VWS V14.01,2013-04-21 22:42:00,
2013-04-21 17:43:00,82.9,23.1,25.42,SW,225,13.9,13.9,11,0.00,,---,0.00,VWS V14.01,2013-04-21 22:43:00,
2013-04-21 17:44:00,82.4,22.7,25.42,SSW,202,14.8,15.4,11,0.00,,---,0.00,VWS V14.01,2013-04-21 22:44:00,
2013-04-21 17:45:00,82.6,22.8,25.42,SW,225,10.5,14.8,11,0.00,,---,0.00,VWS V14.01,2013-04-21 22:45:00,
2013-04-21 17:46:00,82.9,23.1,25.42,SW,225,10.7,10.7,11,0.00,,---,0.00,VWS V14.01,2013-04-21 22:46:00,
2013-04-21 18:59:00,79.5,22.5,25.42,WSW,248,12.3,12.3,12,0.00,,---,0.00,VWS V14.01,2013-04-21 23:59:00,
2013-04-21 19:00:00,79.5,22.5,25.42,WSW,248,12.3,12.3,12,0.00,,---,0.00,VWS V14.01,2013-04-22 00:00:00,
2013-04-21 19:01:00,79.5,22.5,25.42,WSW,248,17.7,17.7,12,0.00,,---,0.00,VWS V14.01,2013-04-22 00:01:00,
2013-04-21 19:02:00,79.3,22.4,25.42,WSW,248,13.9,17.7,12,0.00,,---,0.00,VWS V14.01,2013-04-22 00:02:00,
2013-04-21 19:03:00,79.3,22.4,25.42,WSW,248,12.5,14.3,12,0.00,,---,0.00,VWS V14.01,2013-04-22 00:03:00,
2013-04-21 19:04:00,79.2,22.2,25.42,West,270,11.4,13.0,12,0.00,,---,0.00,VWS V14.01,2013-04-22 00:04:00,
2013-04-21 19:05:00,79.2,22.2,25.42,WSW,248,8.1,12.5,12,0.00,,---,0.00,VWS V14.01,2013-04-22 00:05:00,
2013-04-21 19:06:00,79.2,22.2,25.42,WSW,248,12.5,15.4,12,0.00,,---,0.00,VWS V14.01,2013-04-22 00:06:00,
2013-04-21 19:07:00,79.0,22.1,25.42,West,270,12.5,12.5,12,0.00,,---,0.00,VWS V14.01,2013-04-22 00:07:00,
2013-04-21 19:08:00,79.0,22.1,25.42,WSW,248,15.9,15.9,12,0.00,,---,0.00,VWS V14.01,2013-04-22 00:08:00,
2013-04-21 19:09:00,79.0,22.1,25.39,WSW,248,10.5,15.9,12,0.00,,---,0.00,VWS V14.01,2013-04-22 00:09:00,
2013-04-21 19:10:00,79.0,22.1,25.39,West,270,13.2,13.6,12,0.00,,---,0.00,VWS V14.01,2013-04-22 00:10:00,
2013-04-21 19:11:00,78.6,23.7,25.39,WSW,248,12.3,12.3,13,0.00,,---,0.00,VWS V14.01,2013-04-22 00:11:00,
2013-04-21 19:12:00,78.6,23.7,25.39,WSW,248,10.3,12.3,13,0.00,,---,0.00,VWS V14.01,2013-04-22 00:12:00,
2013-04-21 19:13:00,78.4,23.6,25.39,WSW,248,7.8,10.5,13,0.00,,---,0.00,VWS V14.01,2013-04-22 00:13:00,
2013-04-21 19:14:00,78.3,23.4,25.39,West,270,12.8,13.4,13,0.00,,---,0.00,VWS V14.01,2013-04-22 00:14:00,
2013-04-21 19:15:00,78.3,23.4,25.39,WSW,248,10.1,15.4,13,0.00,,---,0.00,VWS V14.01,2013-04-22 00:15:00,
2013-04-21 19:16:00,78.3,23.4,25.39,WSW,248,9.0,10.1,13,0.00,,---,0.00,VWS V14.01,2013-04-22 00:16:00,
2013-04-21 19:17:00,78.3,23.4,25.39,WSW,248,7.6,9.8,13,0.00,,---,0.00,VWS V14.01,2013-04-22 00:17:00,
2013-04-21 19:18:00,77.9,23.1,25.39,WSW,248,9.8,9.8,13,0.00,,---,0.00,VWS V14.01,2013-04-22 00:18:00,
2013-04-21 19:19:00,77.7,23.0,25.39,West,270,8.7,11.0,13,0.00,,---,0.00,VWS V14.01,2013-04-22 00:19:00,
2013-04-21 19:20:00,77.7,23.0,25.39,WSW,248,8.1,8.7,13,0.00,,---,0.00,VWS V14.01,2013-04-22 00:20:00,
2013-04-21 19:21:00,77.7,23.0,25.39,WSW,248,8.1,10.3,13,0.00,,---,0.00,VWS V14.01,2013-04-22 00:21:00,
2013-04-21 19:22:00,77.7,23.0,25.39,WSW,248,8.1,8.1,13,0.00,,---,0.00,VWS V14.01,2013-04-22 00:22:00,
2013-04-21 19:23:00,77.7,23.0,25.39,West,270,8.7,8.7,13,0.00,,---,0.00,VWS V14.01,2013-04-22 00:23:00,
2013-04-21 19:24:00,77.2,22.6,25.42,West,270,8.5,9.4,13,0.00,,---,0.00,VWS V14.01,2013-04-22 00:24:00,
2013-04-21 19:25:00,77.0,22.4,25.42,WSW,248,9.6,9.6,13,0.00,,---,0.00,VWS V14.01,2013-04-22 00:25:00,
2013-04-21 19:26:00,77.0,22.4,25.42,WSW,248,9.8,9.8,13,0.00,,---,0.00,VWS V14.01,2013-04-22 00:26:00,
2013-04-21 19:27:00,76.8,22.3,25.42,West,270,8.1,9.8,13,0.00,,---,0.00,VWS V14.01,2013-04-22 00:27:00,
2013-04-21 19:29:00,76.8,22.3,25.42,West,270,5.8,9.0,13,0.00,,---,0.00,VWS V14.01,2013-04-22 00:29:00,
2013-04-21 19:30:00,76.1,21.7,25.42,WSW,248,7.8,8.5,13,0.00,,---,0.00,VWS V14.01,2013-04-22 00:30:00,
2013-04-21 19:31:00,76.1,21.7,25.42,West,270,7.8,8.5,13,0.00,,---,0.00,VWS V14.01,2013-04-22 00:31:00,
2013-04-21 19:32:00,75.9,21.6,25.42,WSW,248,8.5,8.5,13,0.00,,---,0.00,VWS V14.01,2013-04-22 00:32:00,
2013-04-21 19:33:00,75.7,21.5,25.42,WSW,248,7.4,8.5,13,0.00,,---,0.00,VWS V14.01,2013-04-22 00:33:00,
2013-04-21 19:34:00,75.7,21.5,25.42,West,270,7.6,9.8,13,0.00,,---,0.00,VWS V14.01,2013-04-22 00:34:00,
2013-04-21 19:35:00,75.6,21.3,25.42,WSW,248,7.6,7.6,13,0.00,,---,0.00,VWS V14.01,2013-04-22 00:35:00,
2013-04-21 19:36:00,75.6,21.3,25.42,WSW,248,7.6,7.6,13,0.00,,---,0.00,VWS V14.01,2013-04-22 00:36:00,
2013-04-21 19:38:00,75.2,21.0,25.42,WSW,248,6.0,8.1,13,0.00,,---,0.00,VWS V14.01,2013-04-22 00:38:00,
2013-04-21 19:39:00,74.7,20.6,25.39,WSW,248,6.5,6.5,13,0.00,,---,0.00,VWS V14.01,2013-04-22 00:39:00,
2013-04-21 19:40:00,74.7,20.6,25.39,West,270,5.8,6.7,13,0.00,,---,0.00,VWS V14.01,2013-04-22 00:40:00,
2013-04-21 19:41:00,74.3,20.3,25.39,WSW,248,6.3,6.5,13,0.00,,---,0.00,VWS V14.01,2013-04-22 00:41:00,
2013-04-21 19:42:00,74.3,20.3,25.39,WSW,248,5.8,7.4,13,0.00,,---,0.00,VWS V14.01,2013-04-22 00:42:00,
2013-04-21 19:43:00,73.9,20.0,25.39,WSW,248,6.5,6.5,13,0.00,,---,0.00,VWS V14.01,2013-04-22 00:43:00,
2013-04-21 19:44:00,73.6,19.8,25.39,WSW,248,6.5,7.4,13,0.00,,---,0.00,VWS V14.01,2013-04-22 00:44:00,
2013-04-21 19:45:00,73.6,19.8,25.39,West,270,5.6,5.6,13,0.00,,---,0.00,VWS V14.01,2013-04-22 00:45:00,
2013-04-21 19:46:00,73.4,19.6,25.39,WSW,248,5.8,6.3,13,0.00,,---,0.00,VWS V14.01,2013-04-22 00:46:00,
2013-04-21 19:47:00,73.2,21.2,25.39,WSW,248,6.3,6.3,14,0.00,,---,0.00,VWS V14.01,2013-04-22 00:47:00,
2013-04-21 19:48:00,73.2,21.2,25.39,WSW,248,6.3,6.3,14,0.00,,---,0.00,VWS V14.01,2013-04-22 00:48:00,
2013-04-21 19:49:00,73.2,21.2,25.39,WSW,248,6.0,6.3,14,0.00,,---,0.00,VWS V14.01,2013-04-22 00:49:00,
2013-04-21 19:50:00,72.9,20.9,25.39,WSW,248,6.0,6.3,14,0.00,,---,0.00,VWS V14.01,2013-04-22 00:50:00,
2013-04-21 19:51:00,72.9,20.9,25.39,WSW,248,6.3,6.3,14,0.00,,---,0.00,VWS V14.01,2013-04-22 00:51:00,
2013-04-21 19:52:00,72.5,20.6,25.39,WSW,248,5.8,6.3,14,0.00,,---,0.00,VWS V14.01,2013-04-22 00:52:00,
2013-04-21 19:53:00,72.5,20.6,25.39,WSW,248,6.0,6.3,14,0.00,,---,0.00,VWS V14.01,2013-04-22 00:53:00,
2013-04-21 19:54:00,72.3,20.5,25.39,SW,225,5.8,6.3,14,0.00,,---,0.00,VWS V14.01,2013-04-22 00:54:00,
2013-04-21 19:55:00,72.1,20.4,25.39,SW,225,5.4,5.8,14,0.00,,---,0.00,VWS V14.01,2013-04-22 00:55:00,
2013-04-21 19:56:00,72.0,20.2,25.39,SW,225,5.4,5.6,14,0.00,,---,0.00,VWS V14.01,2013-04-22 00:56:00,
2013-04-21 19:57:00,72.0,20.2,25.39,SW,225,5.6,6.3,14,0.00,,---,0.00,VWS V14.01,2013-04-22 00:57:00,
2013-04-21 19:58:00,71.8,20.1,25.39,WSW,248,5.8,6.0,14,0.00,,---,0.00,VWS V14.01,2013-04-22 00:58:00,
2013-04-21 19:59:00,71.8,20.1,25.39,SW,225,6.0,6.5,14,0.00,,---,0.00,VWS V14.01,2013-04-22 00:59:00,
2013-04-21 20:00:00,71.6,19.9,25.39,SW,225,5.8,6.0,14,0.00,,---,0.00,VWS V14.01,2013-04-22 01:00:00,
2013-04-21 20:01:00,71.6,19.9,25.39,SW,225,5.6,6.0,14,0.00,,---,0.00,VWS V14.01,2013-04-22 01:01:00,
2013-04-21 20:02:00,71.6,19.9,25.39,SW,225,6.3,6.3,14,0.00,,---,0.00,VWS V14.01,2013-04-22 01:02:00,
2013-04-21 20:03:00,71.4,19.8,25.39,WSW,248,6.3,6.3,14,0.00,,---,0.00,VWS V14.01,2013-04-22 01:03:00,
2013-04-21 20:04:00,71.4,19.8,25.39,SW,225,5.8,6.3,14,0.00,,---,0.00,VWS V14.01,2013-04-22 01:04:00,
2013-04-21 20:05:00,71.4,19.8,25.39,SW,225,5.6,6.3,14,0.00,,---,0.00,VWS V14.01,2013-04-22 01:05:00,
2013-04-21 20:06:00,71.4,19.8,25.39,SW,225,5.8,6.3,14,0.00,,---,0.00,VWS V14.01,2013-04-22 01:06:00,
2013-04-21 20:07:00,71.4,19.8,25.39,SW,225,5.6,5.8,14,0.00,,---,0.00,VWS V14.01,2013-04-22 01:07:00,
2013-04-21 20:08:00,71.2,19.6,25.39,SW,225,5.4,5.6,14,0.00,,---,0.00,VWS V14.01,2013-04-22 01:08:00,
2013-04-21 20:09:00,71.2,19.6,25.39,SW,225,5.6,5.6,14,0.00,,---,0.00,VWS V14.01,2013-04-22 01:09:00,
2013-04-21 20:10:00,71.2,19.6,25.39,SW,225,4.9,5.6,14,0.00,,---,0.00,VWS V14.01,2013-04-22 01:10:00,
2013-04-21 20:11:00,71.2,19.6,25.39,SW,225,5.6,5.6,14,0.00,,---,0.00,VWS V14.01,2013-04-22 01:11:00,
2013-04-21 20:12:00,71.2,19.6,25.39,SW,225,5.6,5.6,14,0.00,,---,0.00,VWS V14.01,2013-04-22 01:12:00,
2013-04-21 20:13:00,71.1,19.5,25.39,SW,225,5.4,6.3,14,0.00,,---,0.00,VWS V14.01,2013-04-22 01:13:00,
2013-04-21 20:15:00,71.1,19.5,25.39,WSW,248,6.0,6.0,14,0.00,,---,0.00,VWS V14.01,2013-04-22 01:15:00,
2013-04-21 20:16:00,71.1,19.5,25.39,WSW,248,6.0,6.0,14,0.00,,---,0.00,VWS V14.01,2013-04-22 01:16:00,
2013-04-21 20:17:00,70.9,19.4,25.39,WSW,248,5.8,6.3,14,0.00,,---,0.00,VWS V14.01,2013-04-22 01:17:00,
2013-04-21 20:18:00,70.9,19.4,25.39,WSW,248,6.3,6.3,14,0.00,,---,0.00,VWS V14.01,2013-04-22 01:18:00,
2013-04-21 20:19:00,70.9,19.4,25.39,WSW,248,5.4,6.3,14,0.00,,---,0.00,VWS V14.01,2013-04-22 01:19:00,
2013-04-21 20:20:00,70.7,19.2,25.39,SW,225,5.4,5.8,14,0.00,,---,0.00,VWS V14.01,2013-04-22 01:20:00,
2013-04-21 20:21:00,70.7,19.2,25.39,SW,225,4.9,5.6,14,0.00,,---,0.00,VWS V14.01,2013-04-22 01:21:00,
2013-04-21 20:22:00,70.5,19.1,25.39,SW,225,4.3,4.3,14,0.00,,---,0.00,VWS V14.01,2013-04-22 01:22:00,
2013-04-21 20:23:00,70.5,19.1,25.39,WSW,248,5.6,5.6,14,0.00,,---,0.00,VWS V14.01,2013-04-22 01:23:00,
2013-04-21 20:24:00,70.5,19.1,25.42,SW,225,4.9,5.6,14,0.00,,---,0.00,VWS V14.01,2013-04-22 01:24:00,
2013-04-21 20:25:00,70.3,18.9,25.42,SW,225,4.9,4.9,14,0.00,,---,0.00,VWS V14.01,2013-04-22 01:25:00,
2013-04-21 20:26:00,70.3,18.9,25.42,SW,225,4.9,4.9,14,0.00,,---,0.00,VWS V14.01,2013-04-22 01:26:00,
2013-04-21 20:27:00,70.3,18.9,25.42,SW,225,5.4,5.4,14,0.00,,---,0.00,VWS V14.01,2013-04-22 01:27:00,
2013-04-21 20:28:00,70.3,18.9,25.42,SW,225,5.4,5.4,14,0.00,,---,0.00,VWS V14.01,2013-04-22 01:28:00,
2013-04-21 20:29:00,70.3,18.9,25.42,WSW,248,5.4,5.4,14,0.00,,---,0.00,VWS V14.01,2013-04-22 01:29:00,
2013-04-21 20:30:00,70.3,18.9,25.42,SW,225,4.9,5.4,14,0.00,,---,0.00,VWS V14.01,2013-04-22 01:30:00,
2013-04-21 20:31:00,70.3,18.9,25.42,SW,225,3.8,4.9,14,0.00,,---,0.00,VWS V14.01,2013-04-22 01:31:00,
2013-04-21 20:32:00,70.3,18.9,25.42,SW,225,3.8,3.8,14,0.00,,---,0.00,VWS V14.01,2013-04-22 01:32:00,
2013-04-21 20:33:00,70.3,18.9,25.42,SW,225,3.6,3.8,14,0.00,,---,0.00,VWS V14.01,2013-04-22 01:33:00,
2013-04-21 20:34:00,70.2,18.8,25.42,SW,225,3.1,3.6,14,0.00,,---,0.00,VWS V14.01,2013-04-22 01:34:00,
2013-04-21 20:35:00,70.2,18.8,25.42,SSW,202,2.9,3.1,14,0.00,,---,0.00,VWS V14.01,2013-04-22 01:35:00,
2013-04-21 20:36:00,70.2,18.8,25.42,SSW,202,2.0,2.9,14,0.00,,---,0.00,VWS V14.01,2013-04-22 01:36:00,
2013-04-21 20:37:00,70.0,18.6,25.42,SSW,202,2.0,2.0,14,0.00,,---,0.00,VWS V14.01,2013-04-22 01:37:00,
2013-04-21 20:38:00,69.8,18.5,25.42,SSE,158,3.8,3.8,14,0.00,,---,0.00,VWS V14.01,2013-04-22 01:38:00,
2013-04-21 20:39:00,69.8,18.5,25.42,SSE,158,4.3,4.3,14,0.00,,---,0.00,VWS V14.01,2013-04-22 01:39:00,
2013-04-21 20:40:00,69.8,18.5,25.42,SSE,158,4.3,4.3,14,0.00,,---,0.00,VWS V14.01,2013-04-22 01:40:00,
2013-04-21 20:41:00,69.8,18.5,25.42,SE,135,3.4,4.3,14,0.00,,---,0.00,VWS V14.01,2013-04-22 01:41:00,
2013-04-21 20:42:00,69.8,18.5,25.42,ESE,112,4.9,4.9,14,0.00,,---,0.00,VWS V14.01,2013-04-22 01:42:00,
2013-04-21 20:43:00,69.1,19.5,25.42,SE,135,4.9,5.6,15,0.00,,---,0.00,VWS V14.01,2013-04-22 01:43:00,
2013-04-21 20:44:00,68.2,18.8,25.42,SE,135,5.4,5.4,15,0.00,,---,0.00,VWS V14.01,2013-04-22 01:44:00,
2013-04-21 20:45:00,68.0,18.7,25.42,ESE,112,4.9,5.4,15,0.00,,---,0.00,VWS V14.01,2013-04-22 01:45:00,
2013-04-21 20:46:00,67.6,18.4,25.42,ESE,112,3.8,5.4,15,0.00,,---,0.00,VWS V14.01,2013-04-22 01:46:00,
2013-04-21 20:47:00,67.3,18.1,25.42,SE,135,4.7,4.7,15,0.00,,---,0.00,VWS V14.01,2013-04-22 01:47:00,
2013-04-21 20:48:00,67.3,18.1,25.42,SE,135,4.7,4.7,15,0.00,,---,0.00,VWS V14.01,2013-04-22 01:48:00,
2013-04-21 20:49:00,66.7,17.6,25.42,South,180,6.3,6.3,15,0.00,,---,0.00,VWS V14.01,2013-04-22 01:49:00,
2013-04-21 20:50:00,66.7,17.6,25.42,South,180,6.3,6.3,15,0.00,,---,0.00,VWS V14.01,2013-04-22 01:50:00,
2013-04-21 20:51:00,66.9,17.8,25.42,SSE,158,5.8,6.3,15,0.00,,---,0.00,VWS V14.01,2013-04-22 01:51:00,
2013-04-21 20:52:00,67.5,18.2,25.42,South,180,3.8,3.8,15,0.00,,---,0.00,VWS V14.01,2013-04-22 01:52:00,
2013-04-21 20:53:00,67.5,18.2,25.42,South,180,3.8,3.8,15,0.00,,---,0.00,VWS V14.01,2013-04-22 01:53:00,
2013-04-21 20:54:00,68.0,18.7,25.42,South,180,3.1,3.8,15,0.00,,---,0.00,VWS V14.01,2013-04-22 01:54:00,
2013-04-21 20:55:00,68.0,18.7,25.42,South,180,3.1,3.1,15,0.00,,---,0.00,VWS V14.01,2013-04-22 01:55:00,
2013-04-21 20:56:00,68.0,18.7,25.42,SE,135,4.0,4.0,15,0.00,,---,0.00,VWS V14.01,2013-04-22 01:56:00,
2013-04-21 20:57:00,67.8,18.5,25.42,SSE,158,6.3,6.3,15,0.00,,---,0.00,VWS V14.01,2013-04-22 01:57:00,
2013-04-21 20:58:00,67.5,18.2,25.42,South,180,6.0,6.3,15,0.00,,---,0.00,VWS V14.01,2013-04-22 01:58:00,
2013-04-21 20:59:00,66.2,17.2,25.42,SE,135,5.4,5.4,15,0.00,,---,0.00,VWS V14.01,2013-04-22 01:59:00,
2013-04-21 21:00:00,65.8,16.9,25.42,ESE,112,5.8,5.8,15,0.00,,---,0.00,VWS V14.01,2013-04-22 02:00:00,
2013-04-21 21:01:00,65.3,16.5,25.42,SE,135,5.4,5.8,15,0.00,,---,0.00,VWS V14.01,2013-04-22 02:01:00,
2013-04-21 21:02:00,64.9,16.2,25.42,ESE,112,6.5,7.2,15,0.00,,---,0.00,VWS V14.01,2013-04-22 02:02:00,
2013-04-21 21:03:00,64.6,15.9,25.42,ESE,112,6.0,6.5,15,0.00,,---,0.00,VWS V14.01,2013-04-22 02:03:00,
2013-04-21 21:04:00,64.2,17.1,25.42,ESE,112,6.9,7.6,16,0.00,,---,0.00,VWS V14.01,2013-04-22 02:04:00,
2013-04-21 21:05:00,64.0,17.0,25.42,ESE,112,8.7,8.7,16,0.00,,---,0.00,VWS V14.01,2013-04-22 02:05:00,
2013-04-21 21:06:00,64.0,17.0,25.42,ESE,112,7.8,8.7,16,0.00,,---,0.00,VWS V14.01,2013-04-22 02:06:00,
2013-04-21 21:07:00,63.0,16.1,25.42,ESE,112,7.6,7.8,16,0.00,,---,0.00,VWS V14.01,2013-04-22 02:07:00,
2013-04-21 21:08:00,62.6,15.8,25.42,ESE,112,8.5,8.7,16,0.00,,---,0.00,VWS V14.01,2013-04-22 02:08:00,
2013-04-21 21:09:00,62.6,15.8,25.42,ESE,112,8.1,8.5,16,0.00,,---,0.00,VWS V14.01,2013-04-22 02:09:00,
2013-04-21 21:10:00,62.4,15.7,25.42,ESE,112,6.7,8.1,16,0.00,,---,0.00,VWS V14.01,2013-04-22 02:10:00,
2013-04-21 21:11:00,62.2,15.5,25.42,ESE,112,6.5,6.7,16,0.00,,---,0.00,VWS V14.01,2013-04-22 02:11:00,
2013-04-21 21:12:00,62.1,15.4,25.42,ESE,112,6.3,6.5,16,0.00,,---,0.00,VWS V14.01,2013-04-22 02:12:00,
2013-04-21 21:13:00,62.1,15.4,25.42,East,90,6.0,6.5,16,0.00,,---,0.00,VWS V14.01,2013-04-22 02:13:00,
2013-04-21 21:14:00,62.1,15.4,25.42,ESE,112,5.8,6.0,16,0.00,,---,0.00,VWS V14.01,2013-04-22 02:14:00,
2013-04-21 21:15:00,61.7,15.1,25.42,ESE,112,7.4,7.4,16,0.00,,---,0.00,VWS V14.01,2013-04-22 02:15:00,
2013-04-21 21:16:00,61.5,14.9,25.42,ESE,112,6.9,7.4,16,0.00,,---,0.00,VWS V14.01,2013-04-22 02:16:00,
2013-04-21 21:17:00,61.5,14.9,25.42,SE,135,5.4,6.9,16,0.00,,---,0.00,VWS V14.01,2013-04-22 02:17:00,
2013-04-21 21:18:00,61.3,14.8,25.42,SE,135,5.4,5.4,16,0.00,,---,0.00,VWS V14.01,2013-04-22 02:18:00,
2013-04-21 21:19:00,61.5,14.9,25.42,SE,135,5.4,5.4,16,0.00,,---,0.00,VWS V14.01,2013-04-22 02:19:00,
2013-04-21 21:20:00,61.7,15.1,25.42,SE,135,5.4,5.4,16,0.00,,---,0.00,VWS V14.01,2013-04-22 02:20:00,
2013-04-21 21:22:00,62.1,15.4,25.42,ESE,112,7.6,7.6,16,0.00,,---,0.00,VWS V14.01,2013-04-22 02:22:00,
2013-04-21 21:23:00,63.1,16.2,25.42,ESE,112,6.5,7.6,16,0.00,,---,0.00,VWS V14.01,2013-04-22 02:23:00,
2013-04-21 21:24:00,63.5,16.5,25.42,ESE,112,5.4,6.5,16,0.00,,---,0.00,VWS V14.01,2013-04-22 02:24:00,
2013-04-21 21:25:00,63.5,16.5,25.42,ESE,112,5.6,5.8,16,0.00,,---,0.00,VWS V14.01,2013-04-22 02:25:00,
2013-04-21 21:26:00,63.5,16.5,25.42,ESE,112,5.4,5.6,16,0.00,,---,0.00,VWS V14.01,2013-04-22 02:26:00,
2013-04-21 21:27:00,63.1,16.2,25.42,SE,135,6.0,6.0,16,0.00,,---,0.00,VWS V14.01,2013-04-22 02:27:00,
2013-04-21 21:28:00,63.1,16.2,25.42,SE,135,6.0,6.0,16,0.00,,---,0.00,VWS V14.01,2013-04-22 02:28:00,
2013-04-21 21:29:00,63.0,16.1,25.42,SE,135,6.0,6.0,16,0.00,,---,0.00,VWS V14.01,2013-04-22 02:29:00,
2013-04-21 21:30:00,63.0,16.1,25.42,SSE,158,5.6,6.0,16,0.00,,---,0.00,VWS V14.01,2013-04-22 02:30:00,
2013-04-21 21:31:00,63.1,16.2,25.42,SE,135,6.3,6.3,16,0.00,,---,0.00,VWS V14.01,2013-04-22 02:31:00,
2013-04-21 21:32:00,63.3,16.4,25.42,ESE,112,5.4,6.3,16,0.00,,---,0.00,VWS V14.01,2013-04-22 02:32:00,
2013-04-21 21:33:00,63.5,16.5,25.42,ESE,112,5.4,5.4,16,0.00,,---,0.00,VWS V14.01,2013-04-22 02:33:00,
2013-04-21 21:35:00,63.9,16.8,25.42,ESE,112,6.0,6.0,16,0.00,,---,0.00,VWS V14.01,2013-04-22 02:35:00,
2013-04-21 21:36:00,64.2,17.1,25.42,SE,135,4.0,6.0,16,0.00,,---,0.00,VWS V14.01,2013-04-22 02:36:00,
2013-04-21 21:37:00,64.2,17.1,25.42,ESE,112,5.6,5.6,16,0.00,,---,0.00,VWS V14.01,2013-04-22 02:37:00,
2013-04-21 21:38:00,64.4,15.8,25.42,SE,135,6.5,6.9,15,0.00,,---,0.00,VWS V14.01,2013-04-22 02:38:00,
2013-04-21 21:39:00,64.4,15.8,25.42,ESE,112,8.5,8.5,15,0.00,,---,0.00,VWS V14.01,2013-04-22 02:39:00,
2013-04-21 21:40:00,64.8,16.1,25.42,ESE,112,8.5,8.5,15,0.00,,---,0.00,VWS V14.01,2013-04-22 02:40:00,
2013-04-21 21:41:00,64.8,16.1,25.42,ESE,112,7.6,8.5,15,0.00,,---,0.00,VWS V14.01,2013-04-22 02:41:00,
2013-04-21 21:42:00,64.8,16.1,25.42,ESE,112,6.5,7.6,15,0.00,,---,0.00,VWS V14.01,2013-04-22 02:42:00,
2013-04-21 21:43:00,64.8,16.1,25.42,ESE,112,8.1,8.1,15,0.00,,---,0.00,VWS V14.01,2013-04-22 02:43:00,
2013-04-21 21:44:00,64.8,16.1,25.42,ESE,112,7.6,7.6,15,0.00,,---,0.00,VWS V14.01,2013-04-22 02:44:00,
2013-04-21 21:45:00,64.9,16.2,25.42,SE,135,5.8,5.8,15,0.00,,---,0.00,VWS V14.01,2013-04-22 02:45:00,
2013-04-21 21:46:00,64.8,16.1,25.42,ESE,112,5.6,5.8,15,0.00,,---,0.00,VWS V14.01,2013-04-22 02:46:00,
2013-04-21 21:47:00,64.8,16.1,25.42,ESE,112,5.8,5.8,15,0.00,,---,0.00,VWS V14.01,2013-04-22 02:47:00,
2013-04-21 21:49:00,64.8,16.1,25.42,ESE,112,5.8,5.8,15,0.00,,---,0.00,VWS V14.01,2013-04-22 02:49:00,
2013-04-21 21:50:00,64.2,17.1,25.42,SSE,158,6.3,6.5,16,0.00,,---,0.00,VWS V14.01,2013-04-22 02:50:00,
2013-04-21 21:51:00,64.2,17.1,25.42,SSE,158,6.3,6.3,16,0.00,,---,0.00,VWS V14.01,2013-04-22 02:51:00,
2013-04-21 21:52:00,63.9,16.8,25.42,SE,135,4.5,6.3,16,0.00,,---,0.00,VWS V14.01,2013-04-22 02:52:00,
2013-04-21 21:53:00,63.9,16.8,25.42,SE,135,3.8,4.5,16,0.00,,---,0.00,VWS V14.01,2013-04-22 02:53:00,
2013-04-21 21:54:00,63.7,16.7,25.42,SE,135,6.3,6.3,16,0.00,,---,0.00,VWS V14.01,2013-04-22 02:54:00,
2013-04-21 21:55:00,63.7,16.7,25.42,SE,135,5.6,6.3,16,0.00,,---,0.00,VWS V14.01,2013-04-22 02:55:00,
2013-04-21 21:56:00,63.7,16.7,25.42,ESE,112,5.4,6.5,16,0.00,,---,0.00,VWS V14.01,2013-04-22 02:56:00,
2013-04-21 21:57:00,63.7,16.7,25.42,ESE,112,5.4,5.8,16,0.00,,---,0.00,VWS V14.01,2013-04-22 02:57:00,
2013-04-21 21:58:00,63.5,16.5,25.42,ESE,112,7.8,7.8,16,0.00,,---,0.00,VWS V14.01,2013-04-22 02:58:00,
2013-04-21 21:59:00,63.5,16.5,25.42,ESE,112,7.8,7.8,16,0.00,,---,0.00,VWS V14.01,2013-04-22 02:59:00,
2013-04-21 22:00:00,63.5,16.5,25.42,ESE,112,7.8,8.1,16,0.00,,---,0.00,VWS V14.01,2013-04-22 03:00:00,
2013-04-21 22:01:00,63.5,16.5,25.42,ESE,112,8.1,8.5,16,0.00,,---,0.00,VWS V14.01,2013-04-22 03:01:00,
2013-04-21 22:02:00,63.5,16.5,25.42,ESE,112,8.5,8.7,16,0.00,,---,0.00,VWS V14.01,2013-04-22 03:02:00,
2013-04-21 22:03:00,63.5,16.5,25.42,ESE,112,7.4,8.5,16,0.00,,---,0.00,VWS V14.01,2013-04-22 03:03:00,
2013-04-21 22:04:00,63.5,16.5,25.42,ESE,112,7.6,8.1,16,0.00,,---,0.00,VWS V14.01,2013-04-22 03:04:00,
2013-04-21 22:05:00,63.5,16.5,25.42,ESE,112,7.8,8.1,16,0.00,,---,0.00,VWS V14.01,2013-04-22 03:05:00,
2013-04-21 22:06:00,63.5,16.5,25.42,ESE,112,7.6,8.1,16,0.00,,---,0.00,VWS V14.01,2013-04-22 03:06:00,
2013-04-21 22:07:00,63.3,16.4,25.42,ESE,112,6.5,8.5,16,0.00,,---,0.00,VWS V14.01,2013-04-22 03:07:00,
2013-04-21 22:08:00,63.1,16.2,25.42,ESE,112,7.4,8.1,16,0.00,,---,0.00,VWS V14.01,2013-04-22 03:08:00,
2013-04-21 22:09:00,63.1,16.2,25.42,ESE,112,7.4,7.4,16,0.00,,---,0.00,VWS V14.01,2013-04-22 03:09:00,
2013-04-21 22:10:00,63.3,16.4,25.42,ESE,112,7.8,8.5,16,0.00,,---,0.00,VWS V14.01,2013-04-22 03:10:00,
2013-04-21 22:11:00,63.5,16.5,25.42,ESE,112,7.8,7.8,16,0.00,,---,0.00,VWS V14.01,2013-04-22 03:11:00,
2013-04-21 22:12:00,63.3,16.4,25.42,ESE,112,7.8,8.1,16,0.00,,---,0.00,VWS V14.01,2013-04-22 03:12:00,
2013-04-21 22:13:00,63.5,16.5,25.42,ESE,112,8.1,8.5,16,0.00,,---,0.00,VWS V14.01,2013-04-22 03:13:00,
2013-04-21 22:14:00,63.5,16.5,25.42,ESE,112,7.8,8.5,16,0.00,,---,0.00,VWS V14.01,2013-04-22 03:14:00,
2013-04-21 22:15:00,63.5,16.5,25.42,ESE,112,6.7,6.7,16,0.00,,---,0.00,VWS V14.01,2013-04-22 03:15:00,
2013-04-21 22:16:00,63.5,16.5,25.42,ESE,112,8.5,8.5,16,0.00,,---,0.00,VWS V14.01,2013-04-22 03:16:00,
2013-04-21 22:17:00,63.5,16.5,25.42,SE,135,8.1,8.5,16,0.00,,---,0.00,VWS V14.01,2013-04-22 03:17:00,
2013-04-21 22:18:00,63.3,16.4,25.42,ESE,112,5.6,8.1,16,0.00,,---,0.00,VWS V14.01,2013-04-22 03:18:00,
2013-04-21 22:19:00,63.1,16.2,25.42,SE,135,4.9,7.4,16,0.00,,---,0.00,VWS V14.01,2013-04-22 03:19:00,
2013-04-21 22:20:00,63.0,16.1,25.42,SE,135,6.9,10.3,16,0.00,,---,0.00,VWS V14.01,2013-04-22 03:20:00,
2013-04-21 22:21:00,63.1,16.2,25.42,ESE,112,8.1,8.1,16,0.00,,---,0.00,VWS V14.01,2013-04-22 03:21:00,
2013-04-21 22:22:00,63.1,16.2,25.42,ESE,112,5.8,8.1,16,0.00,,---,0.00,VWS V14.01,2013-04-22 03:22:00,
2013-04-21 22:23:00,63.7,16.7,25.42,ESE,112,7.4,7.6,16,0.00,,---,0.00,VWS V14.01,2013-04-22 03:23:00,
2013-04-21 22:25:00,63.9,16.8,25.42,ESE,112,7.4,8.5,16,0.00,,---,0.00,VWS V14.01,2013-04-22 03:25:00,
2013-04-21 22:26:00,63.5,16.5,25.42,SE,135,6.9,7.6,16,0.00,,---,0.00,VWS V14.01,2013-04-22 03:26:00,
2013-04-21 22:27:00,63.5,16.5,25.42,ESE,112,6.5,6.9,16,0.00,,---,0.00,VWS V14.01,2013-04-22 03:27:00,
2013-04-21 22:28:00,63.1,16.2,25.42,ESE,112,5.6,6.5,16,0.00,,---,0.00,VWS V14.01,2013-04-22 03:28:00,
2013-04-21 22:29:00,63.0,16.1,25.42,ESE,112,5.6,6.5,16,0.00,,---,0.00,VWS V14.01,2013-04-22 03:29:00,
2013-04-21 22:30:00,63.0,16.1,25.42,ESE,112,5.4,6.9,16,0.00,,---,0.00,VWS V14.01,2013-04-22 03:30:00,
2013-04-21 22:31:00,63.1,16.2,25.42,ESE,112,8.1,8.1,16,0.00,,---,0.00,VWS V14.01,2013-04-22 03:31:00,
2013-04-21 22:32:00,63.1,16.2,25.42,SE,135,5.8,8.7,16,0.00,,---,0.00,VWS V14.01,2013-04-22 03:32:00,
2013-04-21 22:33:00,63.1,16.2,25.42,ESE,112,5.6,5.8,16,0.00,,---,0.00,VWS V14.01,2013-04-22 03:33:00,
2013-04-21 22:34:00,63.1,16.2,25.42,SE,135,5.6,6.3,16,0.00,,---,0.00,VWS V14.01,2013-04-22 03:34:00,
2013-04-21 22:35:00,63.0,16.1,25.42,ESE,112,5.6,5.6,16,0.00,,---,0.00,VWS V14.01,2013-04-22 03:35:00,
2013-04-21 22:36:00,63.0,16.1,25.42,ESE,112,5.8,5.8,16,0.00,,---,0.00,VWS V14.01,2013-04-22 03:36:00,
2013-04-21 22:37:00,63.0,16.1,25.42,ESE,112,6.0,6.3,16,0.00,,---,0.00,VWS V14.01,2013-04-22 03:37:00,
2013-04-21 22:38:00,63.0,16.1,25.42,ESE,112,5.4,5.4,16,0.00,,---,0.00,VWS V14.01,2013-04-22 03:38:00,
2013-04-21 22:39:00,63.0,16.1,25.39,SE,135,4.5,6.0,16,0.00,,---,0.00,VWS V14.01,2013-04-22 03:39:00,
2013-04-21 22:40:00,62.8,15.9,25.39,ESE,112,4.9,6.3,16,0.00,,---,0.00,VWS V14.01,2013-04-22 03:40:00,
2013-04-21 22:41:00,62.6,15.8,25.39,SE,135,4.9,6.5,16,0.00,,---,0.00,VWS V14.01,2013-04-22 03:41:00,
2013-04-21 22:42:00,62.8,15.9,25.39,SE,135,7.8,7.8,16,0.00,,---,0.00,VWS V14.01,2013-04-22 03:42:00,
2013-04-21 22:43:00,63.0,16.1,25.39,SE,135,3.8,7.8,16,0.00,,---,0.00,VWS V14.01,2013-04-22 03:43:00,
2013-04-21 22:44:00,63.0,16.1,25.39,ESE,112,5.4,6.0,16,0.00,,---,0.00,VWS V14.01,2013-04-22 03:44:00,
2013-04-21 22:45:00,62.8,15.9,25.39,SE,135,5.6,6.3,16,0.00,,---,0.00,VWS V14.01,2013-04-22 03:45:00,
2013-04-21 22:46:00,62.6,15.8,25.39,SE,135,5.8,5.8,16,0.00,,---,0.00,VWS V14.01,2013-04-22 03:46:00,
2013-04-21 22:47:00,62.4,15.7,25.39,SE,135,4.9,5.8,16,0.00,,---,0.00,VWS V14.01,2013-04-22 03:47:00,
2013-04-21 22:48:00,62.1,15.4,25.39,SE,135,5.4,5.4,16,0.00,,---,0.00,VWS V14.01,2013-04-22 03:48:00,
2013-04-21 22:49:00,61.9,15.2,25.39,SE,135,5.8,5.8,16,0.00,,---,0.00,VWS V14.01,2013-04-22 03:49:00,
2013-04-21 22:50:00,61.7,15.1,25.39,SE,135,5.8,5.8,16,0.00,,---,0.00,VWS V14.01,2013-04-22 03:50:00,
2013-04-21 22:51:00,61.7,15.1,25.39,SE,135,4.7,5.8,16,0.00,,---,0.00,VWS V14.01,2013-04-22 03:51:00,
2013-04-21 22:52:00,61.7,15.1,25.39,ESE,112,5.4,5.4,16,0.00,,---,0.00,VWS V14.01,2013-04-22 03:52:00,
2013-04-21 22:53:00,61.7,15.1,25.39,ESE,112,3.6,5.4,16,0.00,,---,0.00,VWS V14.01,2013-04-22 03:53:00,
2013-04-21 22:54:00,61.5,14.9,25.42,ESE,112,4.5,4.5,16,0.00,,---,0.00,VWS V14.01,2013-04-22 03:54:00,
2013-04-21 22:55:00,61.5,14.9,25.42,ESE,112,4.5,4.5,16,0.00,,---,0.00,VWS V14.01,2013-04-22 03:55:00,
2013-04-21 22:56:00,61.3,14.8,25.42,SE,135,5.6,5.6,16,0.00,,---,0.00,VWS V14.01,2013-04-22 03:56:00,
2013-04-21 22:57:00,61.5,14.9,25.42,ESE,112,6.3,6.7,16,0.00,,---,0.00,VWS V14.01,2013-04-22 03:57:00,
2013-04-21 22:58:00,61.5,14.9,25.42,SE,135,3.8,3.8,16,0.00,,---,0.00,VWS V14.01,2013-04-22 03:58:00,
2013-04-21 22:59:00,61.7,15.1,25.42,ESE,112,4.0,5.6,16,0.00,,---,0.00,VWS V14.01,2013-04-22 03:59:00,
2013-04-21 23:00:00,61.7,15.1,25.42,SSE,158,3.4,4.9,16,0.00,,---,0.00,VWS V14.01,2013-04-22 04:00:00,
2013-04-21 23:01:00,61.7,15.1,25.42,ESE,112,4.3,4.3,16,0.00,,---,0.00,VWS V14.01,2013-04-22 04:01:00,
2013-04-21 23:03:00,61.3,14.8,25.42,SE,135,6.0,6.0,16,0.00,,---,0.00,VWS V14.01,2013-04-22 04:03:00,
2013-04-21 23:04:00,61.3,14.8,25.42,ESE,112,6.3,7.4,16,0.00,,---,0.00,VWS V14.01,2013-04-22 04:04:00,
2013-04-21 23:05:00,61.3,14.8,25.42,South,180,5.6,5.6,16,0.00,,---,0.00,VWS V14.01,2013-04-22 04:05:00,
2013-04-21 23:06:00,61.5,14.9,25.42,ESE,112,5.6,6.3,16,0.00,,---,0.00,VWS V14.01,2013-04-22 04:06:00,
2013-04-21 23:07:00,61.5,14.9,25.42,SE,135,3.8,5.6,16,0.00,,---,0.00,VWS V14.01,2013-04-22 04:07:00,
2013-04-21 23:08:00,61.7,15.1,25.42,SE,135,5.4,7.4,16,0.00,,---,0.00,VWS V14.01,2013-04-22 04:08:00,
2013-04-21 23:09:00,61.7,15.1,25.42,SE,135,5.4,5.4,16,0.00,,---,0.00,VWS V14.01,2013-04-22 04:09:00,
2013-04-21 23:10:00,62.2,15.5,25.42,SE,135,8.1,8.7,16,0.00,,---,0.00,VWS V14.01,2013-04-22 04:10:00,
2013-04-21 23:11:00,62.2,15.5,25.42,SSW,202,5.6,8.1,16,0.00,,---,0.00,VWS V14.01,2013-04-22 04:11:00,
2013-04-21 23:12:00,62.2,15.5,25.42,SSE,158,7.6,7.6,16,0.00,,---,0.00,VWS V14.01,2013-04-22 04:12:00,
2013-04-21 23:13:00,62.6,15.8,25.42,SE,135,8.1,8.5,16,0.00,,---,0.00,VWS V14.01,2013-04-22 04:13:00,
2013-04-21 23:14:00,62.6,15.8,25.42,SE,135,7.4,8.1,16,0.00,,---,0.00,VWS V14.01,2013-04-22 04:14:00,
2013-04-21 23:15:00,62.6,15.8,25.42,South,180,7.4,9.4,16,0.00,,---,0.00,VWS V14.01,2013-04-22 04:15:00,
2013-04-21 23:16:00,63.0,16.1,25.42,SSE,158,9.2,9.2,16,0.00,,---,0.00,VWS V14.01,2013-04-22 04:16:00,
2013-04-21 23:17:00,63.0,16.1,25.42,SSE,158,7.6,9.2,16,0.00,,---,0.00,VWS V14.01,2013-04-22 04:17:00,
2013-04-21 23:18:00,63.0,16.1,25.42,SSE,158,6.3,8.1,16,0.00,,---,0.00,VWS V14.01,2013-04-22 04:18:00,
2013-04-21 23:19:00,63.0,16.1,25.42,SSE,158,5.6,5.6,16,0.00,,---,0.00,VWS V14.01,2013-04-22 04:19:00,
2013-04-21 23:20:00,63.0,16.1,25.42,South,180,7.6,7.6,16,0.00,,---,0.00,VWS V14.01,2013-04-22 04:20:00,
2013-04-21 23:21:00,63.0,16.1,25.42,SSE,158,8.5,8.5,16,0.00,,---,0.00,VWS V14.01,2013-04-22 04:21:00,
2013-04-21 23:22:00,63.0,16.1,25.42,SE,135,7.4,7.4,16,0.00,,---,0.00,VWS V14.01,2013-04-22 04:22:00,
2013-04-21 23:23:00,63.1,16.2,25.42,SSE,158,3.8,7.6,16,0.00,,---,0.00,VWS V14.01,2013-04-22 04:23:00,
2013-04-21 23:24:00,63.1,16.2,25.42,SSE,158,8.1,8.1,16,0.00,,---,0.00,VWS V14.01,2013-04-22 04:24:00,
2013-04-21 23:25:00,63.0,16.1,25.42,SE,135,7.6,8.1,16,0.00,,---,0.00,VWS V14.01,2013-04-22 04:25:00,
2013-04-21 23:26:00,63.1,16.2,25.42,SSE,158,8.5,9.8,16,0.00,,---,0.00,VWS V14.01,2013-04-22 04:26:00,
2013-04-21 23:27:00,63.3,16.4,25.42,South,180,9.6,9.6,16,0.00,,---,0.00,VWS V14.01,2013-04-22 04:27:00,
2013-04-21 23:28:00,63.3,16.4,25.42,SSE,158,8.1,9.6,16,0.00,,---,0.00,VWS V14.01,2013-04-22 04:28:00,
2013-04-21 23:29:00,63.3,16.4,25.42,SSE,158,7.8,8.1,16,0.00,,---,0.00,VWS V14.01,2013-04-22 04:29:00,
2013-04-21 23:30:00,63.5,16.5,25.42,South,180,9.6,9.6,16,0.00,,---,0.00,VWS V14.01,2013-04-22 04:30:00,
2013-04-21 23:31:00,63.5,16.5,25.42,SE,135,8.5,10.5,16,0.00,,---,0.00,VWS V14.01,2013-04-22 04:31:00,
2013-04-21 23:32:00,63.5,16.5,25.42,SSE,158,10.5,10.5,16,0.00,,---,0.00,VWS V14.01,2013-04-22 04:32:00,
2013-04-21 23:33:00,63.7,16.7,25.42,South,180,7.4,10.5,16,0.00,,---,0.00,VWS V14.01,2013-04-22 04:33:00,
2013-04-21 23:34:00,63.7,16.7,25.42,SSE,158,7.6,10.5,16,0.00,,---,0.00,VWS V14.01,2013-04-22 04:34:00,
2013-04-21 23:35:00,63.7,16.7,25.42,South,180,6.5,10.3,16,0.00,,---,0.00,VWS V14.01,2013-04-22 04:35:00,
2013-04-21 23:36:00,63.5,16.5,25.42,ESE,112,6.3,6.5,16,0.00,,---,0.00,VWS V14.01,2013-04-22 04:36:00,
2013-04-21 23:37:00,63.5,16.5,25.42,South,180,7.6,8.5,16,0.00,,---,0.00,VWS V14.01,2013-04-22 04:37:00,
2013-04-21 23:38:00,63.5,16.5,25.42,SE,135,9.6,10.3,16,0.00,,---,0.00,VWS V14.01,2013-04-22 04:38:00,
2013-04-21 23:39:00,63.3,16.4,25.42,SSE,158,10.5,10.5,16,0.00,,---,0.00,VWS V14.01,2013-04-22 04:39:00,
2013-04-21 23:40:00,63.3,16.4,25.42,SE,135,11.0,11.0,16,0.00,,---,0.00,VWS V14.01,2013-04-22 04:40:00,
2013-04-21 23:41:00,63.5,16.5,25.42,ESE,112,6.5,11.0,16,0.00,,---,0.00,VWS V14.01,2013-04-22 04:41:00,
2013-04-21 23:42:00,63.5,16.5,25.42,SE,135,7.6,8.5,16,0.00,,---,0.00,VWS V14.01,2013-04-22 04:42:00,
2013-04-21 23:43:00,63.3,16.4,25.42,SE,135,7.4,7.6,16,0.00,,---,0.00,VWS V14.01,2013-04-22 04:43:00,
2013-04-21 23:44:00,63.3,16.4,25.42,SE,135,7.2,8.1,16,0.00,,---,0.00,VWS V14.01,2013-04-22 04:44:00,
2013-04-21 23:45:00,63.3,16.4,25.42,SSE,158,7.6,7.6,16,0.00,,---,0.00,VWS V14.01,2013-04-22 04:45:00,
2013-04-21 23:46:00,63.3,16.4,25.42,South,180,8.5,8.5,16,0.00,,---,0.00,VWS V14.01,2013-04-22 04:46:00,
2013-04-21 23:47:00,63.1,16.2,25.42,SE,135,8.1,8.5,16,0.00,,---,0.00,VWS V14.01,2013-04-22 04:47:00,
2013-04-21 23:48:00,63.0,16.1,25.42,South,180,8.7,8.7,16,0.00,,---,0.00,VWS V14.01,2013-04-22 04:48:00,
2013-04-21 23:49:00,63.0,16.1,25.42,SE,135,5.8,8.7,16,0.00,,---,0.00,VWS V14.01,2013-04-22 04:49:00,
2013-04-21 23:50:00,63.0,16.1,25.42,SE,135,6.3,7.6,16,0.00,,---,0.00,VWS V14.01,2013-04-22 04:50:00,
2013-04-21 23:51:00,62.8,15.9,25.42,ESE,112,6.3,7.6,16,0.00,,---,0.00,VWS V14.01,2013-04-22 04:51:00,
2013-04-21 23:52:00,62.8,15.9,25.42,SSE,158,8.1,8.7,16,0.00,,---,0.00,VWS V14.01,2013-04-22 04:52:00,
2013-04-21 23:53:00,62.8,15.9,25.42,SSE,158,7.4,9.8,16,0.00,,---,0.00,VWS V14.01,2013-04-22 04:53:00,
2013-04-21 23:54:00,63.0,16.1,25.42,SSE,158,8.1,8.1,16,0.00,,---,0.00,VWS V14.01,2013-04-22 04:54:00,
2013-04-21 23:55:00,63.0,16.1,25.42,SE,135,10.1,10.7,16,0.00,,---,0.00,VWS V14.01,2013-04-22 04:55:00,
2013-04-21 23:56:00,63.1,16.2,25.42,SSE,158,10.1,11.0,16,0.00,,---,0.00,VWS V14.01,2013-04-22 04:56:00,
2013-04-21 23:57:00,63.1,16.2,25.42,SSE,158,7.4,10.1,16,0.00,,---,0.00,VWS V14.01,2013-04-22 04:57:00,
2013-04-21 23:58:00,63.3,16.4,25.42,SE,135,9.2,9.2,16,0.00,,---,0.00,VWS V14.01,2013-04-22 04:58:00,
2013-04-21 23:59:00,63.5,16.5,25.42,SSE,158,11.0,11.0,16,0.00,,---,0.00,VWS V14.01,2013-04-22 04:59:00,